<?xml version="1.0" encoding="UTF-8" standalone="no" ?>
<gpx xmlns="http://www.topografix.com/GPX/1/1" xmlns:xsi="http://www.w3.org/2001/XMLSchema-instance" xsi:schemaLocation="http://www.topografix.com/GPX/1/1 http://www.topografix.com/GPX/1/1/gpx.xsd" version="1.1" creator="VisuGPX - https://www.visugpx.com">
  <metadata>
    <name>Pic de la Belle Etoile</name>
    <desc><![CDATA[Pic de la Belle Etoile (face Nord) en partant de la station du Pleynet.]]></desc>
  </metadata>
  <trk>
    <name><![CDATA[belle-etoile3]]></name>
    <trkseg>
      <trkpt lat="45.2716" lon="6.05541">
        <ele>1454</ele>
        <time>2013-05-04T05:05:20Z</time>
      </trkpt>
      <trkpt lat="45.27135" lon="6.05524">
        <ele>1455</ele>
        <time>2013-05-04T05:05:22Z</time>
      </trkpt>
      <trkpt lat="45.27127" lon="6.0552">
        <ele>1454.6</ele>
        <time>2013-05-04T05:05:26Z</time>
      </trkpt>
      <trkpt lat="45.27119" lon="6.05515">
        <ele>1453.9</ele>
        <time>2013-05-04T05:05:38Z</time>
      </trkpt>
      <trkpt lat="45.27118" lon="6.05515">
        <ele>1454</ele>
        <time>2013-05-04T05:05:39Z</time>
      </trkpt>
      <trkpt lat="45.27102" lon="6.05519">
        <ele>1454.6</ele>
        <time>2013-05-04T05:06:52Z</time>
      </trkpt>
      <trkpt lat="45.27101" lon="6.05518">
        <ele>1454.8</ele>
        <time>2013-05-04T05:06:53Z</time>
      </trkpt>
      <trkpt lat="45.27103" lon="6.05515">
        <ele>1455.1</ele>
        <time>2013-05-04T05:09:11Z</time>
      </trkpt>
      <trkpt lat="45.27104" lon="6.05516">
        <ele>1455.1</ele>
        <time>2013-05-04T05:09:12Z</time>
      </trkpt>
      <trkpt lat="45.27104" lon="6.05518">
        <ele>1453.3</ele>
        <time>2013-05-04T05:10:18Z</time>
      </trkpt>
      <trkpt lat="45.27102" lon="6.05519">
        <ele>1453.4</ele>
        <time>2013-05-04T05:10:19Z</time>
      </trkpt>
      <trkpt lat="45.27087" lon="6.05516">
        <ele>1454.7</ele>
        <time>2013-05-04T05:10:29Z</time>
      </trkpt>
      <trkpt lat="45.27079" lon="6.05514">
        <ele>1454.6</ele>
        <time>2013-05-04T05:10:34Z</time>
      </trkpt>
      <trkpt lat="45.27071" lon="6.05513">
        <ele>1454.8</ele>
        <time>2013-05-04T05:10:39Z</time>
      </trkpt>
      <trkpt lat="45.27064" lon="6.05512">
        <ele>1455.1</ele>
        <time>2013-05-04T05:10:44Z</time>
      </trkpt>
      <trkpt lat="45.27055" lon="6.05511">
        <ele>1455.6</ele>
        <time>2013-05-04T05:10:50Z</time>
      </trkpt>
      <trkpt lat="45.27046" lon="6.05508">
        <ele>1455.7</ele>
        <time>2013-05-04T05:10:56Z</time>
      </trkpt>
      <trkpt lat="45.27038" lon="6.05504">
        <ele>1456.4</ele>
        <time>2013-05-04T05:11:02Z</time>
      </trkpt>
      <trkpt lat="45.27031" lon="6.05499">
        <ele>1455.5</ele>
        <time>2013-05-04T05:11:08Z</time>
      </trkpt>
      <trkpt lat="45.27024" lon="6.05493">
        <ele>1455.4</ele>
        <time>2013-05-04T05:11:15Z</time>
      </trkpt>
      <trkpt lat="45.2702" lon="6.05483">
        <ele>1457.2</ele>
        <time>2013-05-04T05:11:24Z</time>
      </trkpt>
      <trkpt lat="45.27019" lon="6.05481">
        <ele>1457.2</ele>
        <time>2013-05-04T05:11:25Z</time>
      </trkpt>
      <trkpt lat="45.27017" lon="6.05459">
        <ele>1459.5</ele>
        <time>2013-05-04T05:11:43Z</time>
      </trkpt>
      <trkpt lat="45.27017" lon="6.05447">
        <ele>1461.8</ele>
        <time>2013-05-04T05:11:55Z</time>
      </trkpt>
      <trkpt lat="45.27018" lon="6.05436">
        <ele>1462.9</ele>
        <time>2013-05-04T05:12:05Z</time>
      </trkpt>
      <trkpt lat="45.27017" lon="6.05424">
        <ele>1464.3</ele>
        <time>2013-05-04T05:12:16Z</time>
      </trkpt>
      <trkpt lat="45.27016" lon="6.05412">
        <ele>1465.7</ele>
        <time>2013-05-04T05:12:27Z</time>
      </trkpt>
      <trkpt lat="45.27015" lon="6.05411">
        <ele>1466.2</ele>
        <time>2013-05-04T05:12:28Z</time>
      </trkpt>
      <trkpt lat="45.27015" lon="6.05387">
        <ele>1471.4</ele>
        <time>2013-05-04T05:12:50Z</time>
      </trkpt>
      <trkpt lat="45.27015" lon="6.05374">
        <ele>1473.2</ele>
        <time>2013-05-04T05:13:01Z</time>
      </trkpt>
      <trkpt lat="45.27009" lon="6.05366">
        <ele>1474.2</ele>
        <time>2013-05-04T05:13:09Z</time>
      </trkpt>
      <trkpt lat="45.27001" lon="6.0536">
        <ele>1474.9</ele>
        <time>2013-05-04T05:13:16Z</time>
      </trkpt>
      <trkpt lat="45.26996" lon="6.05351">
        <ele>1475.3</ele>
        <time>2013-05-04T05:13:24Z</time>
      </trkpt>
      <trkpt lat="45.26991" lon="6.05342">
        <ele>1476.2</ele>
        <time>2013-05-04T05:13:34Z</time>
      </trkpt>
      <trkpt lat="45.2699" lon="6.0534">
        <ele>1476.4</ele>
        <time>2013-05-04T05:13:35Z</time>
      </trkpt>
      <trkpt lat="45.26993" lon="6.05317">
        <ele>1476.4</ele>
        <time>2013-05-04T05:15:51Z</time>
      </trkpt>
      <trkpt lat="45.26994" lon="6.05317">
        <ele>1476.4</ele>
        <time>2013-05-04T05:15:52Z</time>
      </trkpt>
      <trkpt lat="45.26977" lon="6.05317">
        <ele>1477.4</ele>
        <time>2013-05-04T05:16:27Z</time>
      </trkpt>
      <trkpt lat="45.26972" lon="6.05307">
        <ele>1478.2</ele>
        <time>2013-05-04T05:16:54Z</time>
      </trkpt>
      <trkpt lat="45.26972" lon="6.05306">
        <ele>1478.5</ele>
        <time>2013-05-04T05:16:55Z</time>
      </trkpt>
      <trkpt lat="45.26955" lon="6.05302">
        <ele>1477.7</ele>
        <time>2013-05-04T05:17:30Z</time>
      </trkpt>
      <trkpt lat="45.2695" lon="6.05292">
        <ele>1478.2</ele>
        <time>2013-05-04T05:18:18Z</time>
      </trkpt>
      <trkpt lat="45.26949" lon="6.05292">
        <ele>1478.3</ele>
        <time>2013-05-04T05:18:19Z</time>
      </trkpt>
      <trkpt lat="45.26945" lon="6.05279">
        <ele>1478.8</ele>
        <time>2013-05-04T05:20:03Z</time>
      </trkpt>
      <trkpt lat="45.26945" lon="6.05278">
        <ele>1478.8</ele>
        <time>2013-05-04T05:20:04Z</time>
      </trkpt>
      <trkpt lat="45.2693" lon="6.05269">
        <ele>1480.7</ele>
        <time>2013-05-04T05:20:23Z</time>
      </trkpt>
      <trkpt lat="45.26921" lon="6.05271">
        <ele>1482.2</ele>
        <time>2013-05-04T05:20:32Z</time>
      </trkpt>
      <trkpt lat="45.26913" lon="6.05273">
        <ele>1484.5</ele>
        <time>2013-05-04T05:20:40Z</time>
      </trkpt>
      <trkpt lat="45.26904" lon="6.05274">
        <ele>1486.1</ele>
        <time>2013-05-04T05:20:49Z</time>
      </trkpt>
      <trkpt lat="45.26896" lon="6.05271">
        <ele>1487.3</ele>
        <time>2013-05-04T05:20:58Z</time>
      </trkpt>
      <trkpt lat="45.26888" lon="6.05265">
        <ele>1489.6</ele>
        <time>2013-05-04T05:21:08Z</time>
      </trkpt>
      <trkpt lat="45.26887" lon="6.05264">
        <ele>1489.7</ele>
        <time>2013-05-04T05:21:09Z</time>
      </trkpt>
      <trkpt lat="45.26872" lon="6.05256">
        <ele>1493.4</ele>
        <time>2013-05-04T05:21:26Z</time>
      </trkpt>
      <trkpt lat="45.26864" lon="6.05253">
        <ele>1494.7</ele>
        <time>2013-05-04T05:21:49Z</time>
      </trkpt>
      <trkpt lat="45.26855" lon="6.05252">
        <ele>1494.8</ele>
        <time>2013-05-04T05:21:58Z</time>
      </trkpt>
      <trkpt lat="45.26847" lon="6.0525">
        <ele>1496.9</ele>
        <time>2013-05-04T05:22:07Z</time>
      </trkpt>
      <trkpt lat="45.2684" lon="6.05242">
        <ele>1498.3</ele>
        <time>2013-05-04T05:22:18Z</time>
      </trkpt>
      <trkpt lat="45.26839" lon="6.05241">
        <ele>1498.5</ele>
        <time>2013-05-04T05:22:19Z</time>
      </trkpt>
      <trkpt lat="45.2683" lon="6.05224">
        <ele>1500.4</ele>
        <time>2013-05-04T05:22:33Z</time>
      </trkpt>
      <trkpt lat="45.26822" lon="6.05218">
        <ele>1501.7</ele>
        <time>2013-05-04T05:22:41Z</time>
      </trkpt>
      <trkpt lat="45.26814" lon="6.05214">
        <ele>1502.7</ele>
        <time>2013-05-04T05:22:51Z</time>
      </trkpt>
      <trkpt lat="45.26806" lon="6.05213">
        <ele>1504.4</ele>
        <time>2013-05-04T05:23:00Z</time>
      </trkpt>
      <trkpt lat="45.26799" lon="6.05205">
        <ele>1506.4</ele>
        <time>2013-05-04T05:23:09Z</time>
      </trkpt>
      <trkpt lat="45.26792" lon="6.05198">
        <ele>1506.1</ele>
        <time>2013-05-04T05:23:16Z</time>
      </trkpt>
      <trkpt lat="45.26785" lon="6.05192">
        <ele>1506.9</ele>
        <time>2013-05-04T05:23:27Z</time>
      </trkpt>
      <trkpt lat="45.26784" lon="6.05191">
        <ele>1507.6</ele>
        <time>2013-05-04T05:23:28Z</time>
      </trkpt>
      <trkpt lat="45.26768" lon="6.0519">
        <ele>1509.6</ele>
        <time>2013-05-04T05:23:46Z</time>
      </trkpt>
      <trkpt lat="45.26763" lon="6.0518">
        <ele>1510.8</ele>
        <time>2013-05-04T05:24:18Z</time>
      </trkpt>
      <trkpt lat="45.26754" lon="6.05182">
        <ele>1512.1</ele>
        <time>2013-05-04T05:24:27Z</time>
      </trkpt>
      <trkpt lat="45.26745" lon="6.05182">
        <ele>1511.6</ele>
        <time>2013-05-04T05:24:36Z</time>
      </trkpt>
      <trkpt lat="45.26744" lon="6.05182">
        <ele>1511.8</ele>
        <time>2013-05-04T05:24:37Z</time>
      </trkpt>
      <trkpt lat="45.26728" lon="6.0518">
        <ele>1513.2</ele>
        <time>2013-05-04T05:24:54Z</time>
      </trkpt>
      <trkpt lat="45.2672" lon="6.05178">
        <ele>1514.6</ele>
        <time>2013-05-04T05:25:03Z</time>
      </trkpt>
      <trkpt lat="45.26712" lon="6.05175">
        <ele>1515</ele>
        <time>2013-05-04T05:25:11Z</time>
      </trkpt>
      <trkpt lat="45.26704" lon="6.05169">
        <ele>1516</ele>
        <time>2013-05-04T05:25:20Z</time>
      </trkpt>
      <trkpt lat="45.26696" lon="6.05167">
        <ele>1518.6</ele>
        <time>2013-05-04T05:25:30Z</time>
      </trkpt>
      <trkpt lat="45.26688" lon="6.05165">
        <ele>1521.4</ele>
        <time>2013-05-04T05:25:42Z</time>
      </trkpt>
      <trkpt lat="45.26687" lon="6.05165">
        <ele>1521.6</ele>
        <time>2013-05-04T05:25:43Z</time>
      </trkpt>
      <trkpt lat="45.26679" lon="6.05144">
        <ele>1527.9</ele>
        <time>2013-05-04T05:26:08Z</time>
      </trkpt>
      <trkpt lat="45.26677" lon="6.05133">
        <ele>1531.1</ele>
        <time>2013-05-04T05:26:19Z</time>
      </trkpt>
      <trkpt lat="45.26671" lon="6.05124">
        <ele>1535.3</ele>
        <time>2013-05-04T05:26:35Z</time>
      </trkpt>
      <trkpt lat="45.26665" lon="6.05115">
        <ele>1537.6</ele>
        <time>2013-05-04T05:26:46Z</time>
      </trkpt>
      <trkpt lat="45.26664" lon="6.05115">
        <ele>1537.6</ele>
        <time>2013-05-04T05:26:47Z</time>
      </trkpt>
      <trkpt lat="45.26649" lon="6.05105">
        <ele>1541.1</ele>
        <time>2013-05-04T05:27:10Z</time>
      </trkpt>
      <trkpt lat="45.26642" lon="6.05098">
        <ele>1543.1</ele>
        <time>2013-05-04T05:27:22Z</time>
      </trkpt>
      <trkpt lat="45.26634" lon="6.05096">
        <ele>1546</ele>
        <time>2013-05-04T05:27:33Z</time>
      </trkpt>
      <trkpt lat="45.26626" lon="6.05088">
        <ele>1546.9</ele>
        <time>2013-05-04T05:28:01Z</time>
      </trkpt>
      <trkpt lat="45.26626" lon="6.05088">
        <ele>1547.1</ele>
        <time>2013-05-04T05:28:02Z</time>
      </trkpt>
      <trkpt lat="45.26613" lon="6.05073">
        <ele>1550.6</ele>
        <time>2013-05-04T05:28:30Z</time>
      </trkpt>
      <trkpt lat="45.26604" lon="6.05069">
        <ele>1552.8</ele>
        <time>2013-05-04T05:28:40Z</time>
      </trkpt>
      <trkpt lat="45.26596" lon="6.05065">
        <ele>1553.1</ele>
        <time>2013-05-04T05:28:51Z</time>
      </trkpt>
      <trkpt lat="45.26588" lon="6.05061">
        <ele>1554.8</ele>
        <time>2013-05-04T05:29:02Z</time>
      </trkpt>
      <trkpt lat="45.26588" lon="6.0506">
        <ele>1555</ele>
        <time>2013-05-04T05:29:03Z</time>
      </trkpt>
      <trkpt lat="45.26574" lon="6.05048">
        <ele>1558.2</ele>
        <time>2013-05-04T05:29:21Z</time>
      </trkpt>
      <trkpt lat="45.26572" lon="6.05036">
        <ele>1558.9</ele>
        <time>2013-05-04T05:29:29Z</time>
      </trkpt>
      <trkpt lat="45.26568" lon="6.05025">
        <ele>1561.5</ele>
        <time>2013-05-04T05:29:40Z</time>
      </trkpt>
      <trkpt lat="45.2656" lon="6.0502">
        <ele>1561.2</ele>
        <time>2013-05-04T05:29:52Z</time>
      </trkpt>
      <trkpt lat="45.26553" lon="6.05012">
        <ele>1562.4</ele>
        <time>2013-05-04T05:30:05Z</time>
      </trkpt>
      <trkpt lat="45.26553" lon="6.05012">
        <ele>1562.3</ele>
        <time>2013-05-04T05:30:06Z</time>
      </trkpt>
      <trkpt lat="45.26536" lon="6.05009">
        <ele>1566</ele>
        <time>2013-05-04T05:30:33Z</time>
      </trkpt>
      <trkpt lat="45.26527" lon="6.05013">
        <ele>1567.8</ele>
        <time>2013-05-04T05:30:45Z</time>
      </trkpt>
      <trkpt lat="45.26522" lon="6.05021">
        <ele>1568.6</ele>
        <time>2013-05-04T05:30:57Z</time>
      </trkpt>
      <trkpt lat="45.26514" lon="6.05027">
        <ele>1570.3</ele>
        <time>2013-05-04T05:31:22Z</time>
      </trkpt>
      <trkpt lat="45.26513" lon="6.05028">
        <ele>1569.8</ele>
        <time>2013-05-04T05:31:23Z</time>
      </trkpt>
      <trkpt lat="45.26498" lon="6.05021">
        <ele>1570.8</ele>
        <time>2013-05-04T05:31:38Z</time>
      </trkpt>
      <trkpt lat="45.26491" lon="6.05017">
        <ele>1571.7</ele>
        <time>2013-05-04T05:31:45Z</time>
      </trkpt>
      <trkpt lat="45.26483" lon="6.05013">
        <ele>1571.5</ele>
        <time>2013-05-04T05:31:53Z</time>
      </trkpt>
      <trkpt lat="45.26474" lon="6.05012">
        <ele>1573.1</ele>
        <time>2013-05-04T05:32:02Z</time>
      </trkpt>
      <trkpt lat="45.26467" lon="6.05006">
        <ele>1572.2</ele>
        <time>2013-05-04T05:32:20Z</time>
      </trkpt>
      <trkpt lat="45.26458" lon="6.05002">
        <ele>1571.9</ele>
        <time>2013-05-04T05:32:31Z</time>
      </trkpt>
      <trkpt lat="45.26458" lon="6.05003">
        <ele>1572.1</ele>
        <time>2013-05-04T05:32:32Z</time>
      </trkpt>
      <trkpt lat="45.2645" lon="6.04984">
        <ele>1573.2</ele>
        <time>2013-05-04T05:33:14Z</time>
      </trkpt>
      <trkpt lat="45.26442" lon="6.04977">
        <ele>1573.4</ele>
        <time>2013-05-04T05:33:22Z</time>
      </trkpt>
      <trkpt lat="45.26435" lon="6.04973">
        <ele>1574</ele>
        <time>2013-05-04T05:33:29Z</time>
      </trkpt>
      <trkpt lat="45.26426" lon="6.04971">
        <ele>1574.6</ele>
        <time>2013-05-04T05:33:38Z</time>
      </trkpt>
      <trkpt lat="45.26425" lon="6.04971">
        <ele>1574.6</ele>
        <time>2013-05-04T05:33:39Z</time>
      </trkpt>
      <trkpt lat="45.26412" lon="6.04984">
        <ele>1575</ele>
        <time>2013-05-04T05:33:50Z</time>
      </trkpt>
      <trkpt lat="45.26408" lon="6.04992">
        <ele>1576.7</ele>
        <time>2013-05-04T05:33:55Z</time>
      </trkpt>
      <trkpt lat="45.264" lon="6.04999">
        <ele>1578.2</ele>
        <time>2013-05-04T05:34:03Z</time>
      </trkpt>
      <trkpt lat="45.26392" lon="6.05002">
        <ele>1579.1</ele>
        <time>2013-05-04T05:34:11Z</time>
      </trkpt>
      <trkpt lat="45.26384" lon="6.05005">
        <ele>1580.4</ele>
        <time>2013-05-04T05:34:21Z</time>
      </trkpt>
      <trkpt lat="45.26375" lon="6.05004">
        <ele>1581.2</ele>
        <time>2013-05-04T05:34:32Z</time>
      </trkpt>
      <trkpt lat="45.26367" lon="6.04999">
        <ele>1582.6</ele>
        <time>2013-05-04T05:34:41Z</time>
      </trkpt>
      <trkpt lat="45.26366" lon="6.04998">
        <ele>1582.8</ele>
        <time>2013-05-04T05:34:42Z</time>
      </trkpt>
      <trkpt lat="45.26351" lon="6.04993">
        <ele>1586.2</ele>
        <time>2013-05-04T05:35:01Z</time>
      </trkpt>
      <trkpt lat="45.26342" lon="6.04994">
        <ele>1586.3</ele>
        <time>2013-05-04T05:35:10Z</time>
      </trkpt>
      <trkpt lat="45.26334" lon="6.04991">
        <ele>1588.1</ele>
        <time>2013-05-04T05:35:18Z</time>
      </trkpt>
      <trkpt lat="45.26326" lon="6.04991">
        <ele>1588.3</ele>
        <time>2013-05-04T05:35:25Z</time>
      </trkpt>
      <trkpt lat="45.26319" lon="6.04996">
        <ele>1589.4</ele>
        <time>2013-05-04T05:35:31Z</time>
      </trkpt>
      <trkpt lat="45.26312" lon="6.05004">
        <ele>1589.3</ele>
        <time>2013-05-04T05:35:37Z</time>
      </trkpt>
      <trkpt lat="45.26305" lon="6.05009">
        <ele>1589.1</ele>
        <time>2013-05-04T05:35:43Z</time>
      </trkpt>
      <trkpt lat="45.26304" lon="6.0501">
        <ele>1589.2</ele>
        <time>2013-05-04T05:35:44Z</time>
      </trkpt>
      <trkpt lat="45.26288" lon="6.05015">
        <ele>1593.8</ele>
        <time>2013-05-04T05:36:05Z</time>
      </trkpt>
      <trkpt lat="45.2628" lon="6.05014">
        <ele>1594.9</ele>
        <time>2013-05-04T05:36:15Z</time>
      </trkpt>
      <trkpt lat="45.26271" lon="6.05012">
        <ele>1595.9</ele>
        <time>2013-05-04T05:36:24Z</time>
      </trkpt>
      <trkpt lat="45.26264" lon="6.05006">
        <ele>1598</ele>
        <time>2013-05-04T05:36:34Z</time>
      </trkpt>
      <trkpt lat="45.26255" lon="6.05006">
        <ele>1600.4</ele>
        <time>2013-05-04T05:36:45Z</time>
      </trkpt>
      <trkpt lat="45.26254" lon="6.05006">
        <ele>1600.8</ele>
        <time>2013-05-04T05:36:46Z</time>
      </trkpt>
      <trkpt lat="45.26237" lon="6.05008">
        <ele>1605.1</ele>
        <time>2013-05-04T05:37:09Z</time>
      </trkpt>
      <trkpt lat="45.26229" lon="6.05009">
        <ele>1606.9</ele>
        <time>2013-05-04T05:37:21Z</time>
      </trkpt>
      <trkpt lat="45.2622" lon="6.05008">
        <ele>1608</ele>
        <time>2013-05-04T05:37:32Z</time>
      </trkpt>
      <trkpt lat="45.26212" lon="6.05012">
        <ele>1609.3</ele>
        <time>2013-05-04T05:37:42Z</time>
      </trkpt>
      <trkpt lat="45.26204" lon="6.05014">
        <ele>1611.8</ele>
        <time>2013-05-04T05:37:52Z</time>
      </trkpt>
      <trkpt lat="45.26203" lon="6.05014">
        <ele>1611.8</ele>
        <time>2013-05-04T05:37:53Z</time>
      </trkpt>
      <trkpt lat="45.26188" lon="6.0502">
        <ele>1614.6</ele>
        <time>2013-05-04T05:38:14Z</time>
      </trkpt>
      <trkpt lat="45.2618" lon="6.05017">
        <ele>1617.5</ele>
        <time>2013-05-04T05:38:25Z</time>
      </trkpt>
      <trkpt lat="45.26173" lon="6.0501">
        <ele>1617.8</ele>
        <time>2013-05-04T05:38:34Z</time>
      </trkpt>
      <trkpt lat="45.26166" lon="6.05006">
        <ele>1618.1</ele>
        <time>2013-05-04T05:38:42Z</time>
      </trkpt>
      <trkpt lat="45.26159" lon="6.05001">
        <ele>1618.4</ele>
        <time>2013-05-04T05:38:50Z</time>
      </trkpt>
      <trkpt lat="45.26151" lon="6.04995">
        <ele>1619.1</ele>
        <time>2013-05-04T05:38:59Z</time>
      </trkpt>
      <trkpt lat="45.2615" lon="6.04994">
        <ele>1619.1</ele>
        <time>2013-05-04T05:39:00Z</time>
      </trkpt>
      <trkpt lat="45.26138" lon="6.04979">
        <ele>1619.5</ele>
        <time>2013-05-04T05:39:15Z</time>
      </trkpt>
      <trkpt lat="45.26132" lon="6.0497">
        <ele>1620</ele>
        <time>2013-05-04T05:39:22Z</time>
      </trkpt>
      <trkpt lat="45.26128" lon="6.04961">
        <ele>1619.9</ele>
        <time>2013-05-04T05:39:28Z</time>
      </trkpt>
      <trkpt lat="45.26125" lon="6.0495">
        <ele>1620.2</ele>
        <time>2013-05-04T05:39:34Z</time>
      </trkpt>
      <trkpt lat="45.26123" lon="6.04938">
        <ele>1619.7</ele>
        <time>2013-05-04T05:39:41Z</time>
      </trkpt>
      <trkpt lat="45.2612" lon="6.04928">
        <ele>1620.5</ele>
        <time>2013-05-04T05:39:49Z</time>
      </trkpt>
      <trkpt lat="45.26117" lon="6.04916">
        <ele>1620.7</ele>
        <time>2013-05-04T05:39:57Z</time>
      </trkpt>
      <trkpt lat="45.26114" lon="6.04906">
        <ele>1621.3</ele>
        <time>2013-05-04T05:40:05Z</time>
      </trkpt>
      <trkpt lat="45.26114" lon="6.04904">
        <ele>1621.5</ele>
        <time>2013-05-04T05:40:06Z</time>
      </trkpt>
      <trkpt lat="45.26105" lon="6.04885">
        <ele>1623.3</ele>
        <time>2013-05-04T05:40:21Z</time>
      </trkpt>
      <trkpt lat="45.26101" lon="6.04874">
        <ele>1624.2</ele>
        <time>2013-05-04T05:40:30Z</time>
      </trkpt>
      <trkpt lat="45.26097" lon="6.04864">
        <ele>1625.8</ele>
        <time>2013-05-04T05:40:39Z</time>
      </trkpt>
      <trkpt lat="45.26093" lon="6.04853">
        <ele>1626.5</ele>
        <time>2013-05-04T05:40:48Z</time>
      </trkpt>
      <trkpt lat="45.26088" lon="6.04844">
        <ele>1627.4</ele>
        <time>2013-05-04T05:40:58Z</time>
      </trkpt>
      <trkpt lat="45.26083" lon="6.04833">
        <ele>1628.3</ele>
        <time>2013-05-04T05:41:08Z</time>
      </trkpt>
      <trkpt lat="45.26083" lon="6.04832">
        <ele>1628.5</ele>
        <time>2013-05-04T05:41:09Z</time>
      </trkpt>
      <trkpt lat="45.26074" lon="6.04814">
        <ele>1631.9</ele>
        <time>2013-05-04T05:41:29Z</time>
      </trkpt>
      <trkpt lat="45.26066" lon="6.04809">
        <ele>1633.1</ele>
        <time>2013-05-04T05:41:39Z</time>
      </trkpt>
      <trkpt lat="45.26058" lon="6.04808">
        <ele>1634.7</ele>
        <time>2013-05-04T05:41:48Z</time>
      </trkpt>
      <trkpt lat="45.2605" lon="6.04805">
        <ele>1635.4</ele>
        <time>2013-05-04T05:41:59Z</time>
      </trkpt>
      <trkpt lat="45.26041" lon="6.04805">
        <ele>1637</ele>
        <time>2013-05-04T05:42:09Z</time>
      </trkpt>
      <trkpt lat="45.26033" lon="6.04811">
        <ele>1638.1</ele>
        <time>2013-05-04T05:42:20Z</time>
      </trkpt>
      <trkpt lat="45.26033" lon="6.04812">
        <ele>1638.1</ele>
        <time>2013-05-04T05:42:21Z</time>
      </trkpt>
      <trkpt lat="45.2602" lon="6.04826">
        <ele>1640.5</ele>
        <time>2013-05-04T05:42:39Z</time>
      </trkpt>
      <trkpt lat="45.26014" lon="6.04834">
        <ele>1641.3</ele>
        <time>2013-05-04T05:42:49Z</time>
      </trkpt>
      <trkpt lat="45.26008" lon="6.04842">
        <ele>1643.1</ele>
        <time>2013-05-04T05:42:58Z</time>
      </trkpt>
      <trkpt lat="45.26" lon="6.04846">
        <ele>1643.6</ele>
        <time>2013-05-04T05:43:06Z</time>
      </trkpt>
      <trkpt lat="45.25992" lon="6.04843">
        <ele>1644.1</ele>
        <time>2013-05-04T05:43:16Z</time>
      </trkpt>
      <trkpt lat="45.25984" lon="6.0484">
        <ele>1645.4</ele>
        <time>2013-05-04T05:43:25Z</time>
      </trkpt>
      <trkpt lat="45.25983" lon="6.04839">
        <ele>1645.6</ele>
        <time>2013-05-04T05:43:26Z</time>
      </trkpt>
      <trkpt lat="45.25968" lon="6.04828">
        <ele>1646.3</ele>
        <time>2013-05-04T05:43:44Z</time>
      </trkpt>
      <trkpt lat="45.25961" lon="6.04822">
        <ele>1646.9</ele>
        <time>2013-05-04T05:43:52Z</time>
      </trkpt>
      <trkpt lat="45.25955" lon="6.04815">
        <ele>1647.9</ele>
        <time>2013-05-04T05:44:00Z</time>
      </trkpt>
      <trkpt lat="45.25947" lon="6.04809">
        <ele>1648.8</ele>
        <time>2013-05-04T05:44:09Z</time>
      </trkpt>
      <trkpt lat="45.2594" lon="6.04804">
        <ele>1648.7</ele>
        <time>2013-05-04T05:44:17Z</time>
      </trkpt>
      <trkpt lat="45.25932" lon="6.04799">
        <ele>1650.5</ele>
        <time>2013-05-04T05:44:26Z</time>
      </trkpt>
      <trkpt lat="45.25931" lon="6.04799">
        <ele>1650.7</ele>
        <time>2013-05-04T05:44:27Z</time>
      </trkpt>
      <trkpt lat="45.25916" lon="6.04789">
        <ele>1651.2</ele>
        <time>2013-05-04T05:44:46Z</time>
      </trkpt>
      <trkpt lat="45.25907" lon="6.04786">
        <ele>1652.4</ele>
        <time>2013-05-04T05:44:56Z</time>
      </trkpt>
      <trkpt lat="45.25899" lon="6.04787">
        <ele>1652.4</ele>
        <time>2013-05-04T05:45:05Z</time>
      </trkpt>
      <trkpt lat="45.2589" lon="6.04785">
        <ele>1654.7</ele>
        <time>2013-05-04T05:45:14Z</time>
      </trkpt>
      <trkpt lat="45.25882" lon="6.04784">
        <ele>1655.5</ele>
        <time>2013-05-04T05:45:24Z</time>
      </trkpt>
      <trkpt lat="45.25873" lon="6.04783">
        <ele>1655.6</ele>
        <time>2013-05-04T05:45:33Z</time>
      </trkpt>
      <trkpt lat="45.25872" lon="6.04783">
        <ele>1655.6</ele>
        <time>2013-05-04T05:45:34Z</time>
      </trkpt>
      <trkpt lat="45.25857" lon="6.04792">
        <ele>1657.7</ele>
        <time>2013-05-04T05:45:52Z</time>
      </trkpt>
      <trkpt lat="45.25848" lon="6.04796">
        <ele>1659.6</ele>
        <time>2013-05-04T05:46:01Z</time>
      </trkpt>
      <trkpt lat="45.2584" lon="6.04795">
        <ele>1659</ele>
        <time>2013-05-04T05:46:09Z</time>
      </trkpt>
      <trkpt lat="45.25832" lon="6.04792">
        <ele>1659.3</ele>
        <time>2013-05-04T05:46:17Z</time>
      </trkpt>
      <trkpt lat="45.25824" lon="6.04789">
        <ele>1659.8</ele>
        <time>2013-05-04T05:46:25Z</time>
      </trkpt>
      <trkpt lat="45.25816" lon="6.04788">
        <ele>1660.8</ele>
        <time>2013-05-04T05:46:33Z</time>
      </trkpt>
      <trkpt lat="45.25808" lon="6.04786">
        <ele>1661.4</ele>
        <time>2013-05-04T05:46:41Z</time>
      </trkpt>
      <trkpt lat="45.25807" lon="6.04785">
        <ele>1661.3</ele>
        <time>2013-05-04T05:46:42Z</time>
      </trkpt>
      <trkpt lat="45.25791" lon="6.04781">
        <ele>1662.5</ele>
        <time>2013-05-04T05:46:59Z</time>
      </trkpt>
      <trkpt lat="45.25782" lon="6.04779">
        <ele>1663.2</ele>
        <time>2013-05-04T05:47:07Z</time>
      </trkpt>
      <trkpt lat="45.25774" lon="6.04779">
        <ele>1663.6</ele>
        <time>2013-05-04T05:47:15Z</time>
      </trkpt>
      <trkpt lat="45.25766" lon="6.04776">
        <ele>1664.8</ele>
        <time>2013-05-04T05:47:24Z</time>
      </trkpt>
      <trkpt lat="45.25758" lon="6.04773">
        <ele>1664.3</ele>
        <time>2013-05-04T05:47:33Z</time>
      </trkpt>
      <trkpt lat="45.2575" lon="6.04772">
        <ele>1665.2</ele>
        <time>2013-05-04T05:47:42Z</time>
      </trkpt>
      <trkpt lat="45.25749" lon="6.04772">
        <ele>1664.9</ele>
        <time>2013-05-04T05:47:43Z</time>
      </trkpt>
      <trkpt lat="45.25733" lon="6.04776">
        <ele>1665.6</ele>
        <time>2013-05-04T05:47:59Z</time>
      </trkpt>
      <trkpt lat="45.25725" lon="6.0478">
        <ele>1665.9</ele>
        <time>2013-05-04T05:48:09Z</time>
      </trkpt>
      <trkpt lat="45.25717" lon="6.04783">
        <ele>1667.3</ele>
        <time>2013-05-04T05:48:49Z</time>
      </trkpt>
      <trkpt lat="45.25716" lon="6.04783">
        <ele>1667</ele>
        <time>2013-05-04T05:48:50Z</time>
      </trkpt>
      <trkpt lat="45.25708" lon="6.04786">
        <ele>1669.1</ele>
        <time>2013-05-04T05:49:51Z</time>
      </trkpt>
      <trkpt lat="45.25691" lon="6.0478">
        <ele>1668.9</ele>
        <time>2013-05-04T05:50:12Z</time>
      </trkpt>
      <trkpt lat="45.25682" lon="6.04776">
        <ele>1668.9</ele>
        <time>2013-05-04T05:50:23Z</time>
      </trkpt>
      <trkpt lat="45.25674" lon="6.04772">
        <ele>1669.5</ele>
        <time>2013-05-04T05:50:33Z</time>
      </trkpt>
      <trkpt lat="45.25667" lon="6.04767">
        <ele>1669.4</ele>
        <time>2013-05-04T05:50:43Z</time>
      </trkpt>
      <trkpt lat="45.25659" lon="6.04761">
        <ele>1668.6</ele>
        <time>2013-05-04T05:50:54Z</time>
      </trkpt>
      <trkpt lat="45.25658" lon="6.04761">
        <ele>1668.2</ele>
        <time>2013-05-04T05:50:55Z</time>
      </trkpt>
      <trkpt lat="45.25641" lon="6.04755">
        <ele>1669.2</ele>
        <time>2013-05-04T05:51:16Z</time>
      </trkpt>
      <trkpt lat="45.25633" lon="6.04753">
        <ele>1668.8</ele>
        <time>2013-05-04T05:51:27Z</time>
      </trkpt>
      <trkpt lat="45.25624" lon="6.04753">
        <ele>1670</ele>
        <time>2013-05-04T05:57:34Z</time>
      </trkpt>
      <trkpt lat="45.25624" lon="6.04753">
        <ele>1670</ele>
        <time>2013-05-04T05:57:35Z</time>
      </trkpt>
      <trkpt lat="45.25614" lon="6.04751">
        <ele>1671.1</ele>
        <time>2013-05-04T05:59:38Z</time>
      </trkpt>
      <trkpt lat="45.256" lon="6.04748">
        <ele>1672</ele>
        <time>2013-05-04T05:59:51Z</time>
      </trkpt>
      <trkpt lat="45.25592" lon="6.04748">
        <ele>1671.8</ele>
        <time>2013-05-04T05:59:58Z</time>
      </trkpt>
      <trkpt lat="45.25584" lon="6.04748">
        <ele>1672.7</ele>
        <time>2013-05-04T06:00:06Z</time>
      </trkpt>
      <trkpt lat="45.25575" lon="6.0475">
        <ele>1673.1</ele>
        <time>2013-05-04T06:00:14Z</time>
      </trkpt>
      <trkpt lat="45.25567" lon="6.04752">
        <ele>1673.8</ele>
        <time>2013-05-04T06:00:21Z</time>
      </trkpt>
      <trkpt lat="45.25559" lon="6.04754">
        <ele>1674.2</ele>
        <time>2013-05-04T06:00:29Z</time>
      </trkpt>
      <trkpt lat="45.2555" lon="6.04755">
        <ele>1673.9</ele>
        <time>2013-05-04T06:00:39Z</time>
      </trkpt>
      <trkpt lat="45.2555" lon="6.04753">
        <ele>1674.1</ele>
        <time>2013-05-04T06:00:40Z</time>
      </trkpt>
      <trkpt lat="45.25539" lon="6.04752">
        <ele>1674.4</ele>
        <time>2013-05-04T06:00:58Z</time>
      </trkpt>
      <trkpt lat="45.25533" lon="6.04759">
        <ele>1669.7</ele>
        <time>2013-05-04T06:01:08Z</time>
      </trkpt>
      <trkpt lat="45.25525" lon="6.04758">
        <ele>1668.3</ele>
        <time>2013-05-04T06:01:14Z</time>
      </trkpt>
      <trkpt lat="45.25517" lon="6.04763">
        <ele>1665.7</ele>
        <time>2013-05-04T06:01:25Z</time>
      </trkpt>
      <trkpt lat="45.25517" lon="6.04774">
        <ele>1667.3</ele>
        <time>2013-05-04T06:01:35Z</time>
      </trkpt>
      <trkpt lat="45.25516" lon="6.04786">
        <ele>1669.4</ele>
        <time>2013-05-04T06:01:45Z</time>
      </trkpt>
      <trkpt lat="45.25515" lon="6.04787">
        <ele>1669.5</ele>
        <time>2013-05-04T06:01:46Z</time>
      </trkpt>
      <trkpt lat="45.25511" lon="6.04807">
        <ele>1672.1</ele>
        <time>2013-05-04T06:03:09Z</time>
      </trkpt>
      <trkpt lat="45.2551" lon="6.04807">
        <ele>1671.8</ele>
        <time>2013-05-04T06:03:10Z</time>
      </trkpt>
      <trkpt lat="45.25496" lon="6.04816">
        <ele>1674.7</ele>
        <time>2013-05-04T06:03:23Z</time>
      </trkpt>
      <trkpt lat="45.25489" lon="6.04821">
        <ele>1674.3</ele>
        <time>2013-05-04T06:03:29Z</time>
      </trkpt>
      <trkpt lat="45.25481" lon="6.04826">
        <ele>1674.2</ele>
        <time>2013-05-04T06:03:35Z</time>
      </trkpt>
      <trkpt lat="45.25475" lon="6.04835">
        <ele>1675.7</ele>
        <time>2013-05-04T06:03:43Z</time>
      </trkpt>
      <trkpt lat="45.2547" lon="6.04844">
        <ele>1675.6</ele>
        <time>2013-05-04T06:03:50Z</time>
      </trkpt>
      <trkpt lat="45.25463" lon="6.0485">
        <ele>1676.8</ele>
        <time>2013-05-04T06:03:57Z</time>
      </trkpt>
      <trkpt lat="45.25456" lon="6.04857">
        <ele>1676.9</ele>
        <time>2013-05-04T06:04:03Z</time>
      </trkpt>
      <trkpt lat="45.25451" lon="6.04865">
        <ele>1676.5</ele>
        <time>2013-05-04T06:04:10Z</time>
      </trkpt>
      <trkpt lat="45.2545" lon="6.04867">
        <ele>1676.4</ele>
        <time>2013-05-04T06:04:11Z</time>
      </trkpt>
      <trkpt lat="45.2544" lon="6.04885">
        <ele>1679.8</ele>
        <time>2013-05-04T06:04:26Z</time>
      </trkpt>
      <trkpt lat="45.25434" lon="6.04894">
        <ele>1680.7</ele>
        <time>2013-05-04T06:04:33Z</time>
      </trkpt>
      <trkpt lat="45.25434" lon="6.04905">
        <ele>1679.7</ele>
        <time>2013-05-04T06:04:42Z</time>
      </trkpt>
      <trkpt lat="45.25442" lon="6.04908">
        <ele>1680.4</ele>
        <time>2013-05-04T06:04:45Z</time>
      </trkpt>
      <trkpt lat="45.25446" lon="6.04915">
        <ele>1679.3</ele>
        <time>2013-05-04T06:04:47Z</time>
      </trkpt>
      <trkpt lat="45.25444" lon="6.04928">
        <ele>1674.4</ele>
        <time>2013-05-04T06:04:52Z</time>
      </trkpt>
      <trkpt lat="45.25442" lon="6.0494">
        <ele>1671.6</ele>
        <time>2013-05-04T06:05:02Z</time>
      </trkpt>
      <trkpt lat="45.25439" lon="6.04952">
        <ele>1672.5</ele>
        <time>2013-05-04T06:05:14Z</time>
      </trkpt>
      <trkpt lat="45.25439" lon="6.04952">
        <ele>1672.4</ele>
        <time>2013-05-04T06:05:15Z</time>
      </trkpt>
      <trkpt lat="45.25432" lon="6.04973">
        <ele>1678.8</ele>
        <time>2013-05-04T06:05:41Z</time>
      </trkpt>
      <trkpt lat="45.25428" lon="6.04984">
        <ele>1682.3</ele>
        <time>2013-05-04T06:05:55Z</time>
      </trkpt>
      <trkpt lat="45.25422" lon="6.04993">
        <ele>1685.3</ele>
        <time>2013-05-04T06:06:09Z</time>
      </trkpt>
      <trkpt lat="45.25418" lon="6.05004">
        <ele>1688.3</ele>
        <time>2013-05-04T06:06:24Z</time>
      </trkpt>
      <trkpt lat="45.25418" lon="6.05005">
        <ele>1688.1</ele>
        <time>2013-05-04T06:06:25Z</time>
      </trkpt>
      <trkpt lat="45.25405" lon="6.05019">
        <ele>1691.3</ele>
        <time>2013-05-04T06:06:48Z</time>
      </trkpt>
      <trkpt lat="45.25401" lon="6.0503">
        <ele>1693.9</ele>
        <time>2013-05-04T06:07:01Z</time>
      </trkpt>
      <trkpt lat="45.25401" lon="6.05042">
        <ele>1696.6</ele>
        <time>2013-05-04T06:07:17Z</time>
      </trkpt>
      <trkpt lat="45.25403" lon="6.05053">
        <ele>1699.1</ele>
        <time>2013-05-04T06:07:29Z</time>
      </trkpt>
      <trkpt lat="45.25404" lon="6.05055">
        <ele>1699.2</ele>
        <time>2013-05-04T06:07:30Z</time>
      </trkpt>
      <trkpt lat="45.25407" lon="6.05076">
        <ele>1704.6</ele>
        <time>2013-05-04T06:07:56Z</time>
      </trkpt>
      <trkpt lat="45.254" lon="6.05084">
        <ele>1706.8</ele>
        <time>2013-05-04T06:08:12Z</time>
      </trkpt>
      <trkpt lat="45.25394" lon="6.05091">
        <ele>1708.3</ele>
        <time>2013-05-04T06:08:25Z</time>
      </trkpt>
      <trkpt lat="45.25388" lon="6.051">
        <ele>1711.1</ele>
        <time>2013-05-04T06:08:38Z</time>
      </trkpt>
      <trkpt lat="45.25388" lon="6.05101">
        <ele>1711.3</ele>
        <time>2013-05-04T06:08:39Z</time>
      </trkpt>
      <trkpt lat="45.25381" lon="6.05121">
        <ele>1716</ele>
        <time>2013-05-04T06:09:24Z</time>
      </trkpt>
      <trkpt lat="45.25372" lon="6.05125">
        <ele>1717.5</ele>
        <time>2013-05-04T06:09:36Z</time>
      </trkpt>
      <trkpt lat="45.25366" lon="6.05133">
        <ele>1719.7</ele>
        <time>2013-05-04T06:09:49Z</time>
      </trkpt>
      <trkpt lat="45.25365" lon="6.05133">
        <ele>1719.9</ele>
        <time>2013-05-04T06:09:50Z</time>
      </trkpt>
      <trkpt lat="45.25355" lon="6.0515">
        <ele>1725</ele>
        <time>2013-05-04T06:10:12Z</time>
      </trkpt>
      <trkpt lat="45.25352" lon="6.05162">
        <ele>1726.8</ele>
        <time>2013-05-04T06:10:24Z</time>
      </trkpt>
      <trkpt lat="45.25347" lon="6.05172">
        <ele>1729.8</ele>
        <time>2013-05-04T06:12:51Z</time>
      </trkpt>
      <trkpt lat="45.25347" lon="6.05172">
        <ele>1729.9</ele>
        <time>2013-05-04T06:12:52Z</time>
      </trkpt>
      <trkpt lat="45.25352" lon="6.0519">
        <ele>1731.4</ele>
        <time>2013-05-04T06:14:01Z</time>
      </trkpt>
      <trkpt lat="45.25352" lon="6.0519">
        <ele>1731.6</ele>
        <time>2013-05-04T06:14:02Z</time>
      </trkpt>
      <trkpt lat="45.25343" lon="6.05209">
        <ele>1735.5</ele>
        <time>2013-05-04T06:14:23Z</time>
      </trkpt>
      <trkpt lat="45.2534" lon="6.05221">
        <ele>1738</ele>
        <time>2013-05-04T06:14:38Z</time>
      </trkpt>
      <trkpt lat="45.25336" lon="6.05232">
        <ele>1741.3</ele>
        <time>2013-05-04T06:14:53Z</time>
      </trkpt>
      <trkpt lat="45.25335" lon="6.05245">
        <ele>1743.6</ele>
        <time>2013-05-04T06:15:06Z</time>
      </trkpt>
      <trkpt lat="45.25334" lon="6.05246">
        <ele>1743.9</ele>
        <time>2013-05-04T06:15:07Z</time>
      </trkpt>
      <trkpt lat="45.25329" lon="6.05268">
        <ele>1748.8</ele>
        <time>2013-05-04T06:15:33Z</time>
      </trkpt>
      <trkpt lat="45.25329" lon="6.0528">
        <ele>1751.3</ele>
        <time>2013-05-04T06:15:48Z</time>
      </trkpt>
      <trkpt lat="45.25326" lon="6.05292">
        <ele>1753.8</ele>
        <time>2013-05-04T06:16:01Z</time>
      </trkpt>
      <trkpt lat="45.25326" lon="6.05304">
        <ele>1756.6</ele>
        <time>2013-05-04T06:16:13Z</time>
      </trkpt>
      <trkpt lat="45.25326" lon="6.05305">
        <ele>1756.4</ele>
        <time>2013-05-04T06:16:14Z</time>
      </trkpt>
      <trkpt lat="45.25328" lon="6.05329">
        <ele>1760.9</ele>
        <time>2013-05-04T06:16:39Z</time>
      </trkpt>
      <trkpt lat="45.25328" lon="6.05341">
        <ele>1763.3</ele>
        <time>2013-05-04T06:16:51Z</time>
      </trkpt>
      <trkpt lat="45.25327" lon="6.05354">
        <ele>1766.1</ele>
        <time>2013-05-04T06:17:05Z</time>
      </trkpt>
      <trkpt lat="45.25324" lon="6.05365">
        <ele>1768.3</ele>
        <time>2013-05-04T06:17:19Z</time>
      </trkpt>
      <trkpt lat="45.25324" lon="6.05366">
        <ele>1768.7</ele>
        <time>2013-05-04T06:17:20Z</time>
      </trkpt>
      <trkpt lat="45.25323" lon="6.05389">
        <ele>1774.7</ele>
        <time>2013-05-04T06:17:52Z</time>
      </trkpt>
      <trkpt lat="45.25321" lon="6.05401">
        <ele>1776.8</ele>
        <time>2013-05-04T06:18:06Z</time>
      </trkpt>
      <trkpt lat="45.25319" lon="6.05414">
        <ele>1778.9</ele>
        <time>2013-05-04T06:18:21Z</time>
      </trkpt>
      <trkpt lat="45.25319" lon="6.05414">
        <ele>1779.3</ele>
        <time>2013-05-04T06:18:22Z</time>
      </trkpt>
      <trkpt lat="45.2532" lon="6.05438">
        <ele>1784.4</ele>
        <time>2013-05-04T06:18:56Z</time>
      </trkpt>
      <trkpt lat="45.25325" lon="6.05447">
        <ele>1787.1</ele>
        <time>2013-05-04T06:19:07Z</time>
      </trkpt>
      <trkpt lat="45.25318" lon="6.05454">
        <ele>1789.5</ele>
        <time>2013-05-04T06:19:30Z</time>
      </trkpt>
      <trkpt lat="45.25317" lon="6.05454">
        <ele>1789.8</ele>
        <time>2013-05-04T06:19:31Z</time>
      </trkpt>
      <trkpt lat="45.25306" lon="6.05438">
        <ele>1792.8</ele>
        <time>2013-05-04T06:19:51Z</time>
      </trkpt>
      <trkpt lat="45.253" lon="6.05428">
        <ele>1795.3</ele>
        <time>2013-05-04T06:20:04Z</time>
      </trkpt>
      <trkpt lat="45.25294" lon="6.0542">
        <ele>1796.3</ele>
        <time>2013-05-04T06:20:13Z</time>
      </trkpt>
      <trkpt lat="45.25287" lon="6.05412">
        <ele>1798.1</ele>
        <time>2013-05-04T06:20:23Z</time>
      </trkpt>
      <trkpt lat="45.25283" lon="6.05401">
        <ele>1800.7</ele>
        <time>2013-05-04T06:20:33Z</time>
      </trkpt>
      <trkpt lat="45.25283" lon="6.054">
        <ele>1801</ele>
        <time>2013-05-04T06:20:34Z</time>
      </trkpt>
      <trkpt lat="45.25267" lon="6.05396">
        <ele>1809.4</ele>
        <time>2013-05-04T06:21:19Z</time>
      </trkpt>
      <trkpt lat="45.2526" lon="6.0539">
        <ele>1812.3</ele>
        <time>2013-05-04T06:21:31Z</time>
      </trkpt>
      <trkpt lat="45.25254" lon="6.05381">
        <ele>1815.3</ele>
        <time>2013-05-04T06:21:48Z</time>
      </trkpt>
      <trkpt lat="45.25254" lon="6.05381">
        <ele>1815.3</ele>
        <time>2013-05-04T06:21:49Z</time>
      </trkpt>
      <trkpt lat="45.25238" lon="6.05373">
        <ele>1820.3</ele>
        <time>2013-05-04T06:22:21Z</time>
      </trkpt>
      <trkpt lat="45.2523" lon="6.05367">
        <ele>1822.6</ele>
        <time>2013-05-04T06:22:34Z</time>
      </trkpt>
      <trkpt lat="45.25222" lon="6.05363">
        <ele>1825.4</ele>
        <time>2013-05-04T06:22:47Z</time>
      </trkpt>
      <trkpt lat="45.25213" lon="6.0536">
        <ele>1827.4</ele>
        <time>2013-05-04T06:22:58Z</time>
      </trkpt>
      <trkpt lat="45.25212" lon="6.0536">
        <ele>1827.6</ele>
        <time>2013-05-04T06:22:59Z</time>
      </trkpt>
      <trkpt lat="45.25204" lon="6.0534">
        <ele>1834.5</ele>
        <time>2013-05-04T06:23:35Z</time>
      </trkpt>
      <trkpt lat="45.25197" lon="6.05333">
        <ele>1840.6</ele>
        <time>2013-05-04T06:24:08Z</time>
      </trkpt>
      <trkpt lat="45.25196" lon="6.05333">
        <ele>1840.3</ele>
        <time>2013-05-04T06:24:09Z</time>
      </trkpt>
      <trkpt lat="45.25182" lon="6.05327">
        <ele>1844.8</ele>
        <time>2013-05-04T06:24:34Z</time>
      </trkpt>
      <trkpt lat="45.25179" lon="6.05315">
        <ele>1848.6</ele>
        <time>2013-05-04T06:24:48Z</time>
      </trkpt>
      <trkpt lat="45.25174" lon="6.05306">
        <ele>1849.9</ele>
        <time>2013-05-04T06:24:58Z</time>
      </trkpt>
      <trkpt lat="45.25168" lon="6.05297">
        <ele>1854.6</ele>
        <time>2013-05-04T06:25:20Z</time>
      </trkpt>
      <trkpt lat="45.25167" lon="6.05297">
        <ele>1855</ele>
        <time>2013-05-04T06:25:21Z</time>
      </trkpt>
      <trkpt lat="45.25151" lon="6.053">
        <ele>1859.4</ele>
        <time>2013-05-04T06:25:51Z</time>
      </trkpt>
      <trkpt lat="45.25143" lon="6.05297">
        <ele>1861.3</ele>
        <time>2013-05-04T06:26:03Z</time>
      </trkpt>
      <trkpt lat="45.25135" lon="6.0529">
        <ele>1861.7</ele>
        <time>2013-05-04T06:26:15Z</time>
      </trkpt>
      <trkpt lat="45.25139" lon="6.05278">
        <ele>1864.3</ele>
        <time>2013-05-04T06:26:30Z</time>
      </trkpt>
      <trkpt lat="45.25139" lon="6.05277">
        <ele>1864.1</ele>
        <time>2013-05-04T06:26:31Z</time>
      </trkpt>
      <trkpt lat="45.25135" lon="6.05302">
        <ele>1873.3</ele>
        <time>2013-05-04T06:27:28Z</time>
      </trkpt>
      <trkpt lat="45.25129" lon="6.0531">
        <ele>1874.8</ele>
        <time>2013-05-04T06:27:47Z</time>
      </trkpt>
      <trkpt lat="45.25128" lon="6.05311">
        <ele>1875</ele>
        <time>2013-05-04T06:27:48Z</time>
      </trkpt>
      <trkpt lat="45.2512" lon="6.05295">
        <ele>1880</ele>
        <time>2013-05-04T06:28:25Z</time>
      </trkpt>
      <trkpt lat="45.25117" lon="6.05283">
        <ele>1882.4</ele>
        <time>2013-05-04T06:28:41Z</time>
      </trkpt>
      <trkpt lat="45.25112" lon="6.05272">
        <ele>1885.3</ele>
        <time>2013-05-04T06:28:54Z</time>
      </trkpt>
      <trkpt lat="45.25112" lon="6.05271">
        <ele>1885.7</ele>
        <time>2013-05-04T06:28:55Z</time>
      </trkpt>
      <trkpt lat="45.25101" lon="6.05276">
        <ele>1891.9</ele>
        <time>2013-05-04T06:29:39Z</time>
      </trkpt>
      <trkpt lat="45.25095" lon="6.05286">
        <ele>1894.1</ele>
        <time>2013-05-04T06:29:53Z</time>
      </trkpt>
      <trkpt lat="45.25089" lon="6.05294">
        <ele>1895.9</ele>
        <time>2013-05-04T06:30:06Z</time>
      </trkpt>
      <trkpt lat="45.25089" lon="6.05295">
        <ele>1895.6</ele>
        <time>2013-05-04T06:30:07Z</time>
      </trkpt>
      <trkpt lat="45.25074" lon="6.05296">
        <ele>1898.4</ele>
        <time>2013-05-04T06:30:28Z</time>
      </trkpt>
      <trkpt lat="45.25076" lon="6.05284">
        <ele>1900.6</ele>
        <time>2013-05-04T06:30:51Z</time>
      </trkpt>
      <trkpt lat="45.25074" lon="6.05272">
        <ele>1902.9</ele>
        <time>2013-05-04T06:31:06Z</time>
      </trkpt>
      <trkpt lat="45.25069" lon="6.05283">
        <ele>1908.1</ele>
        <time>2013-05-04T06:31:30Z</time>
      </trkpt>
      <trkpt lat="45.25069" lon="6.05284">
        <ele>1908.3</ele>
        <time>2013-05-04T06:31:31Z</time>
      </trkpt>
      <trkpt lat="45.25055" lon="6.05297">
        <ele>1912.6</ele>
        <time>2013-05-04T06:31:55Z</time>
      </trkpt>
      <trkpt lat="45.25055" lon="6.05309">
        <ele>1915.2</ele>
        <time>2013-05-04T06:32:09Z</time>
      </trkpt>
      <trkpt lat="45.25049" lon="6.05301">
        <ele>1918.2</ele>
        <time>2013-05-04T06:32:43Z</time>
      </trkpt>
      <trkpt lat="45.25048" lon="6.053">
        <ele>1918.2</ele>
        <time>2013-05-04T06:32:44Z</time>
      </trkpt>
      <trkpt lat="45.25036" lon="6.05285">
        <ele>1921.1</ele>
        <time>2013-05-04T06:33:00Z</time>
      </trkpt>
      <trkpt lat="45.25032" lon="6.05275">
        <ele>1923.3</ele>
        <time>2013-05-04T06:33:11Z</time>
      </trkpt>
      <trkpt lat="45.25033" lon="6.05262">
        <ele>1925.3</ele>
        <time>2013-05-04T06:33:25Z</time>
      </trkpt>
      <trkpt lat="45.25032" lon="6.0525">
        <ele>1929.1</ele>
        <time>2013-05-04T06:33:41Z</time>
      </trkpt>
      <trkpt lat="45.25029" lon="6.05238">
        <ele>1931.9</ele>
        <time>2013-05-04T06:33:55Z</time>
      </trkpt>
      <trkpt lat="45.25028" lon="6.05237">
        <ele>1932</ele>
        <time>2013-05-04T06:33:56Z</time>
      </trkpt>
      <trkpt lat="45.25019" lon="6.05219">
        <ele>1935</ele>
        <time>2013-05-04T06:34:18Z</time>
      </trkpt>
      <trkpt lat="45.2501" lon="6.05219">
        <ele>1939.8</ele>
        <time>2013-05-04T06:34:46Z</time>
      </trkpt>
      <trkpt lat="45.25002" lon="6.05222">
        <ele>1941.8</ele>
        <time>2013-05-04T06:35:09Z</time>
      </trkpt>
      <trkpt lat="45.25002" lon="6.05223">
        <ele>1941.7</ele>
        <time>2013-05-04T06:35:10Z</time>
      </trkpt>
      <trkpt lat="45.24993" lon="6.05244">
        <ele>1946.6</ele>
        <time>2013-05-04T06:35:51Z</time>
      </trkpt>
      <trkpt lat="45.24991" lon="6.05255">
        <ele>1949.8</ele>
        <time>2013-05-04T06:36:14Z</time>
      </trkpt>
      <trkpt lat="45.2499" lon="6.05256">
        <ele>1950.1</ele>
        <time>2013-05-04T06:36:15Z</time>
      </trkpt>
      <trkpt lat="45.24978" lon="6.05271">
        <ele>1954.5</ele>
        <time>2013-05-04T06:36:45Z</time>
      </trkpt>
      <trkpt lat="45.24975" lon="6.05259">
        <ele>1960.2</ele>
        <time>2013-05-04T06:37:12Z</time>
      </trkpt>
      <trkpt lat="45.24971" lon="6.05248">
        <ele>1961.8</ele>
        <time>2013-05-04T06:37:26Z</time>
      </trkpt>
      <trkpt lat="45.2497" lon="6.05247">
        <ele>1962.1</ele>
        <time>2013-05-04T06:37:27Z</time>
      </trkpt>
      <trkpt lat="45.24953" lon="6.05246">
        <ele>1971.6</ele>
        <time>2013-05-04T06:38:21Z</time>
      </trkpt>
      <trkpt lat="45.24945" lon="6.05246">
        <ele>1974.2</ele>
        <time>2013-05-04T06:39:00Z</time>
      </trkpt>
      <trkpt lat="45.24944" lon="6.05245">
        <ele>1973.9</ele>
        <time>2013-05-04T06:39:01Z</time>
      </trkpt>
      <trkpt lat="45.24928" lon="6.05244">
        <ele>1973.7</ele>
        <time>2013-05-04T06:43:15Z</time>
      </trkpt>
      <trkpt lat="45.24927" lon="6.05244">
        <ele>1973.8</ele>
        <time>2013-05-04T06:43:16Z</time>
      </trkpt>
      <trkpt lat="45.2493" lon="6.05267">
        <ele>1976.8</ele>
        <time>2013-05-04T06:43:37Z</time>
      </trkpt>
      <trkpt lat="45.24923" lon="6.0526">
        <ele>1979.2</ele>
        <time>2013-05-04T06:44:11Z</time>
      </trkpt>
      <trkpt lat="45.24916" lon="6.05254">
        <ele>1980.9</ele>
        <time>2013-05-04T06:44:24Z</time>
      </trkpt>
      <trkpt lat="45.24915" lon="6.05253">
        <ele>1980.7</ele>
        <time>2013-05-04T06:44:25Z</time>
      </trkpt>
      <trkpt lat="45.24907" lon="6.05234">
        <ele>1983.7</ele>
        <time>2013-05-04T06:44:49Z</time>
      </trkpt>
      <trkpt lat="45.24902" lon="6.05225">
        <ele>1984.7</ele>
        <time>2013-05-04T06:44:58Z</time>
      </trkpt>
      <trkpt lat="45.24894" lon="6.05214">
        <ele>1987</ele>
        <time>2013-05-04T06:45:07Z</time>
      </trkpt>
      <trkpt lat="45.24886" lon="6.05212">
        <ele>1989.2</ele>
        <time>2013-05-04T06:45:21Z</time>
      </trkpt>
      <trkpt lat="45.24882" lon="6.05222">
        <ele>1989.5</ele>
        <time>2013-05-04T06:45:29Z</time>
      </trkpt>
      <trkpt lat="45.24882" lon="6.05224">
        <ele>1989.8</ele>
        <time>2013-05-04T06:45:30Z</time>
      </trkpt>
      <trkpt lat="45.24879" lon="6.05247">
        <ele>1992.9</ele>
        <time>2013-05-04T06:45:54Z</time>
      </trkpt>
      <trkpt lat="45.24878" lon="6.05259">
        <ele>1994.5</ele>
        <time>2013-05-04T06:46:10Z</time>
      </trkpt>
      <trkpt lat="45.24874" lon="6.0527">
        <ele>1997.7</ele>
        <time>2013-05-04T06:46:25Z</time>
      </trkpt>
      <trkpt lat="45.24867" lon="6.05277">
        <ele>1998.9</ele>
        <time>2013-05-04T06:46:38Z</time>
      </trkpt>
      <trkpt lat="45.24867" lon="6.05278">
        <ele>1999.4</ele>
        <time>2013-05-04T06:46:39Z</time>
      </trkpt>
      <trkpt lat="45.24852" lon="6.05288">
        <ele>2005.6</ele>
        <time>2013-05-04T06:47:10Z</time>
      </trkpt>
      <trkpt lat="45.24844" lon="6.05289">
        <ele>2008</ele>
        <time>2013-05-04T06:47:20Z</time>
      </trkpt>
      <trkpt lat="45.24835" lon="6.05287">
        <ele>2011.3</ele>
        <time>2013-05-04T06:47:33Z</time>
      </trkpt>
      <trkpt lat="45.24827" lon="6.05286">
        <ele>2013.5</ele>
        <time>2013-05-04T06:47:47Z</time>
      </trkpt>
      <trkpt lat="45.24826" lon="6.05286">
        <ele>2013.9</ele>
        <time>2013-05-04T06:47:48Z</time>
      </trkpt>
      <trkpt lat="45.24811" lon="6.05278">
        <ele>2020.9</ele>
        <time>2013-05-04T06:48:22Z</time>
      </trkpt>
      <trkpt lat="45.24802" lon="6.05277">
        <ele>2024.7</ele>
        <time>2013-05-04T06:48:39Z</time>
      </trkpt>
      <trkpt lat="45.24794" lon="6.05275">
        <ele>2027.2</ele>
        <time>2013-05-04T06:48:57Z</time>
      </trkpt>
      <trkpt lat="45.24793" lon="6.05275">
        <ele>2027.1</ele>
        <time>2013-05-04T06:48:58Z</time>
      </trkpt>
      <trkpt lat="45.24778" lon="6.05267">
        <ele>2031.9</ele>
        <time>2013-05-04T06:49:20Z</time>
      </trkpt>
      <trkpt lat="45.24771" lon="6.05261">
        <ele>2034.6</ele>
        <time>2013-05-04T06:49:32Z</time>
      </trkpt>
      <trkpt lat="45.24764" lon="6.05253">
        <ele>2040.1</ele>
        <time>2013-05-04T06:50:07Z</time>
      </trkpt>
      <trkpt lat="45.24764" lon="6.05252">
        <ele>2039.9</ele>
        <time>2013-05-04T06:50:08Z</time>
      </trkpt>
      <trkpt lat="45.24756" lon="6.05231">
        <ele>2042.8</ele>
        <time>2013-05-04T06:50:32Z</time>
      </trkpt>
      <trkpt lat="45.24748" lon="6.05229">
        <ele>2048.6</ele>
        <time>2013-05-04T06:51:00Z</time>
      </trkpt>
      <trkpt lat="45.2474" lon="6.05231">
        <ele>2050.3</ele>
        <time>2013-05-04T06:51:10Z</time>
      </trkpt>
      <trkpt lat="45.24738" lon="6.05231">
        <ele>2050.4</ele>
        <time>2013-05-04T06:51:11Z</time>
      </trkpt>
      <trkpt lat="45.24727" lon="6.05224">
        <ele>2057.1</ele>
        <time>2013-05-04T06:51:41Z</time>
      </trkpt>
      <trkpt lat="45.24724" lon="6.05213">
        <ele>2059.1</ele>
        <time>2013-05-04T06:51:54Z</time>
      </trkpt>
      <trkpt lat="45.24718" lon="6.05204">
        <ele>2061.3</ele>
        <time>2013-05-04T06:52:06Z</time>
      </trkpt>
      <trkpt lat="45.24713" lon="6.05195">
        <ele>2063.7</ele>
        <time>2013-05-04T06:52:24Z</time>
      </trkpt>
      <trkpt lat="45.24712" lon="6.05194">
        <ele>2064.1</ele>
        <time>2013-05-04T06:52:25Z</time>
      </trkpt>
      <trkpt lat="45.24705" lon="6.05173">
        <ele>2070.2</ele>
        <time>2013-05-04T06:53:02Z</time>
      </trkpt>
      <trkpt lat="45.24699" lon="6.05164">
        <ele>2071.7</ele>
        <time>2013-05-04T06:53:12Z</time>
      </trkpt>
      <trkpt lat="45.24696" lon="6.05153">
        <ele>2073.8</ele>
        <time>2013-05-04T06:53:25Z</time>
      </trkpt>
      <trkpt lat="45.2469" lon="6.05143">
        <ele>2075.1</ele>
        <time>2013-05-04T06:53:36Z</time>
      </trkpt>
      <trkpt lat="45.2469" lon="6.05143">
        <ele>2074.9</ele>
        <time>2013-05-04T06:53:37Z</time>
      </trkpt>
      <trkpt lat="45.24681" lon="6.05122">
        <ele>2078.9</ele>
        <time>2013-05-04T06:54:07Z</time>
      </trkpt>
      <trkpt lat="45.24681" lon="6.0511">
        <ele>2079.8</ele>
        <time>2013-05-04T06:54:19Z</time>
      </trkpt>
      <trkpt lat="45.24672" lon="6.05112">
        <ele>2085.6</ele>
        <time>2013-05-04T06:54:54Z</time>
      </trkpt>
      <trkpt lat="45.24672" lon="6.05113">
        <ele>2085.8</ele>
        <time>2013-05-04T06:54:55Z</time>
      </trkpt>
      <trkpt lat="45.2466" lon="6.05111">
        <ele>2091.2</ele>
        <time>2013-05-04T06:55:40Z</time>
      </trkpt>
      <trkpt lat="45.24659" lon="6.05099">
        <ele>2094.6</ele>
        <time>2013-05-04T06:55:56Z</time>
      </trkpt>
      <trkpt lat="45.24659" lon="6.05099">
        <ele>2095.2</ele>
        <time>2013-05-04T06:55:57Z</time>
      </trkpt>
      <trkpt lat="45.24666" lon="6.05076">
        <ele>2099.7</ele>
        <time>2013-05-04T06:56:24Z</time>
      </trkpt>
      <trkpt lat="45.24661" lon="6.05066">
        <ele>2104.7</ele>
        <time>2013-05-04T06:57:18Z</time>
      </trkpt>
      <trkpt lat="45.2466" lon="6.05065">
        <ele>2104.7</ele>
        <time>2013-05-04T06:57:19Z</time>
      </trkpt>
      <trkpt lat="45.24644" lon="6.05063">
        <ele>2110.5</ele>
        <time>2013-05-04T06:57:46Z</time>
      </trkpt>
      <trkpt lat="45.24636" lon="6.05061">
        <ele>2113.1</ele>
        <time>2013-05-04T06:57:58Z</time>
      </trkpt>
      <trkpt lat="45.24627" lon="6.05062">
        <ele>2116.1</ele>
        <time>2013-05-04T06:58:13Z</time>
      </trkpt>
      <trkpt lat="45.24618" lon="6.05063">
        <ele>2120.6</ele>
        <time>2013-05-04T06:59:02Z</time>
      </trkpt>
      <trkpt lat="45.24618" lon="6.05063">
        <ele>2120.9</ele>
        <time>2013-05-04T06:59:03Z</time>
      </trkpt>
      <trkpt lat="45.24601" lon="6.05059">
        <ele>2129.8</ele>
        <time>2013-05-04T06:59:46Z</time>
      </trkpt>
      <trkpt lat="45.24593" lon="6.05058">
        <ele>2133.3</ele>
        <time>2013-05-04T07:00:35Z</time>
      </trkpt>
      <trkpt lat="45.24592" lon="6.05058">
        <ele>2133.4</ele>
        <time>2013-05-04T07:00:36Z</time>
      </trkpt>
      <trkpt lat="45.24575" lon="6.05053">
        <ele>2139.3</ele>
        <time>2013-05-04T07:01:03Z</time>
      </trkpt>
      <trkpt lat="45.24567" lon="6.05051">
        <ele>2142.3</ele>
        <time>2013-05-04T07:01:33Z</time>
      </trkpt>
      <trkpt lat="45.24559" lon="6.05049">
        <ele>2146.5</ele>
        <time>2013-05-04T07:01:48Z</time>
      </trkpt>
      <trkpt lat="45.24558" lon="6.05049">
        <ele>2146.5</ele>
        <time>2013-05-04T07:01:49Z</time>
      </trkpt>
      <trkpt lat="45.24542" lon="6.05048">
        <ele>2152.8</ele>
        <time>2013-05-04T07:02:18Z</time>
      </trkpt>
      <trkpt lat="45.24533" lon="6.05045">
        <ele>2156.3</ele>
        <time>2013-05-04T07:02:38Z</time>
      </trkpt>
      <trkpt lat="45.24525" lon="6.05039">
        <ele>2161.3</ele>
        <time>2013-05-04T07:03:24Z</time>
      </trkpt>
      <trkpt lat="45.24525" lon="6.05039">
        <ele>2161.4</ele>
        <time>2013-05-04T07:03:25Z</time>
      </trkpt>
      <trkpt lat="45.24508" lon="6.05033">
        <ele>2169.3</ele>
        <time>2013-05-04T07:04:00Z</time>
      </trkpt>
      <trkpt lat="45.245" lon="6.05031">
        <ele>2170.3</ele>
        <time>2013-05-04T07:04:12Z</time>
      </trkpt>
      <trkpt lat="45.24492" lon="6.0503">
        <ele>2173</ele>
        <time>2013-05-04T07:04:24Z</time>
      </trkpt>
      <trkpt lat="45.24483" lon="6.05028">
        <ele>2175.3</ele>
        <time>2013-05-04T07:04:38Z</time>
      </trkpt>
      <trkpt lat="45.24483" lon="6.05028">
        <ele>2175.4</ele>
        <time>2013-05-04T07:04:39Z</time>
      </trkpt>
      <trkpt lat="45.24469" lon="6.05015">
        <ele>2181.4</ele>
        <time>2013-05-04T07:05:11Z</time>
      </trkpt>
      <trkpt lat="45.2446" lon="6.05011">
        <ele>2183.8</ele>
        <time>2013-05-04T07:05:26Z</time>
      </trkpt>
      <trkpt lat="45.24452" lon="6.05005">
        <ele>2186.1</ele>
        <time>2013-05-04T07:05:40Z</time>
      </trkpt>
      <trkpt lat="45.24452" lon="6.05005">
        <ele>2186.6</ele>
        <time>2013-05-04T07:05:41Z</time>
      </trkpt>
      <trkpt lat="45.24439" lon="6.0499">
        <ele>2192.1</ele>
        <time>2013-05-04T07:06:09Z</time>
      </trkpt>
      <trkpt lat="45.24432" lon="6.04983">
        <ele>2195.1</ele>
        <time>2013-05-04T07:06:23Z</time>
      </trkpt>
      <trkpt lat="45.24425" lon="6.04976">
        <ele>2199.6</ele>
        <time>2013-05-04T07:07:04Z</time>
      </trkpt>
      <trkpt lat="45.24425" lon="6.04976">
        <ele>2199.5</ele>
        <time>2013-05-04T07:07:05Z</time>
      </trkpt>
      <trkpt lat="45.2441" lon="6.04966">
        <ele>2204.1</ele>
        <time>2013-05-04T07:07:32Z</time>
      </trkpt>
      <trkpt lat="45.24401" lon="6.04963">
        <ele>2206.2</ele>
        <time>2013-05-04T07:07:46Z</time>
      </trkpt>
      <trkpt lat="45.24393" lon="6.0496">
        <ele>2208.2</ele>
        <time>2013-05-04T07:07:57Z</time>
      </trkpt>
      <trkpt lat="45.24386" lon="6.04955">
        <ele>2210</ele>
        <time>2013-05-04T07:08:09Z</time>
      </trkpt>
      <trkpt lat="45.24385" lon="6.04955">
        <ele>2209.9</ele>
        <time>2013-05-04T07:08:10Z</time>
      </trkpt>
      <trkpt lat="45.24372" lon="6.04941">
        <ele>2212.7</ele>
        <time>2013-05-04T07:08:32Z</time>
      </trkpt>
      <trkpt lat="45.24364" lon="6.04934">
        <ele>2214.6</ele>
        <time>2013-05-04T07:08:45Z</time>
      </trkpt>
      <trkpt lat="45.24356" lon="6.04928">
        <ele>2217.8</ele>
        <time>2013-05-04T07:09:02Z</time>
      </trkpt>
      <trkpt lat="45.2435" lon="6.04921">
        <ele>2220.1</ele>
        <time>2013-05-04T07:09:15Z</time>
      </trkpt>
      <trkpt lat="45.24349" lon="6.0492">
        <ele>2220.2</ele>
        <time>2013-05-04T07:09:16Z</time>
      </trkpt>
      <trkpt lat="45.24335" lon="6.04906">
        <ele>2224.3</ele>
        <time>2013-05-04T07:09:41Z</time>
      </trkpt>
      <trkpt lat="45.24327" lon="6.04901">
        <ele>2226.3</ele>
        <time>2013-05-04T07:09:56Z</time>
      </trkpt>
      <trkpt lat="45.24321" lon="6.04893">
        <ele>2229.6</ele>
        <time>2013-05-04T07:10:14Z</time>
      </trkpt>
      <trkpt lat="45.24313" lon="6.04887">
        <ele>2231</ele>
        <time>2013-05-04T07:10:30Z</time>
      </trkpt>
      <trkpt lat="45.24312" lon="6.04887">
        <ele>2231.2</ele>
        <time>2013-05-04T07:10:31Z</time>
      </trkpt>
      <trkpt lat="45.24296" lon="6.04877">
        <ele>2236.4</ele>
        <time>2013-05-04T07:11:03Z</time>
      </trkpt>
      <trkpt lat="45.2429" lon="6.04869">
        <ele>2238.9</ele>
        <time>2013-05-04T07:11:19Z</time>
      </trkpt>
      <trkpt lat="45.24282" lon="6.04863">
        <ele>2242.4</ele>
        <time>2013-05-04T07:12:02Z</time>
      </trkpt>
      <trkpt lat="45.24281" lon="6.04863">
        <ele>2242.6</ele>
        <time>2013-05-04T07:12:03Z</time>
      </trkpt>
      <trkpt lat="45.24265" lon="6.04856">
        <ele>2248.3</ele>
        <time>2013-05-04T07:12:37Z</time>
      </trkpt>
      <trkpt lat="45.24256" lon="6.04855">
        <ele>2251.7</ele>
        <time>2013-05-04T07:12:51Z</time>
      </trkpt>
      <trkpt lat="45.24248" lon="6.04852">
        <ele>2254.2</ele>
        <time>2013-05-04T07:13:07Z</time>
      </trkpt>
      <trkpt lat="45.24247" lon="6.04851">
        <ele>2254</ele>
        <time>2013-05-04T07:13:08Z</time>
      </trkpt>
      <trkpt lat="45.24232" lon="6.04842">
        <ele>2259.6</ele>
        <time>2013-05-04T07:13:37Z</time>
      </trkpt>
      <trkpt lat="45.24225" lon="6.04836">
        <ele>2262.2</ele>
        <time>2013-05-04T07:13:50Z</time>
      </trkpt>
      <trkpt lat="45.24219" lon="6.04845">
        <ele>2268.4</ele>
        <time>2013-05-04T07:14:58Z</time>
      </trkpt>
      <trkpt lat="45.24218" lon="6.04846">
        <ele>2268.4</ele>
        <time>2013-05-04T07:14:59Z</time>
      </trkpt>
      <trkpt lat="45.24209" lon="6.04866">
        <ele>2272.9</ele>
        <time>2013-05-04T07:15:25Z</time>
      </trkpt>
      <trkpt lat="45.242" lon="6.04866">
        <ele>2278.3</ele>
        <time>2013-05-04T07:16:55Z</time>
      </trkpt>
      <trkpt lat="45.24199" lon="6.04866">
        <ele>2278.5</ele>
        <time>2013-05-04T07:16:56Z</time>
      </trkpt>
      <trkpt lat="45.24187" lon="6.0485">
        <ele>2283.7</ele>
        <time>2013-05-04T07:17:34Z</time>
      </trkpt>
      <trkpt lat="45.2418" lon="6.04842">
        <ele>2287.4</ele>
        <time>2013-05-04T07:18:05Z</time>
      </trkpt>
      <trkpt lat="45.2418" lon="6.04842">
        <ele>2287.2</ele>
        <time>2013-05-04T07:18:06Z</time>
      </trkpt>
      <trkpt lat="45.24175" lon="6.04854">
        <ele>2289.8</ele>
        <time>2013-05-04T07:24:08Z</time>
      </trkpt>
      <trkpt lat="45.24164" lon="6.04872">
        <ele>2295.2</ele>
        <time>2013-05-04T07:24:35Z</time>
      </trkpt>
      <trkpt lat="45.2416" lon="6.04883">
        <ele>2298.5</ele>
        <time>2013-05-04T07:24:50Z</time>
      </trkpt>
      <trkpt lat="45.24158" lon="6.04895">
        <ele>2302.4</ele>
        <time>2013-05-04T07:25:05Z</time>
      </trkpt>
      <trkpt lat="45.24153" lon="6.04905">
        <ele>2305.6</ele>
        <time>2013-05-04T07:25:20Z</time>
      </trkpt>
      <trkpt lat="45.24153" lon="6.04906">
        <ele>2305.9</ele>
        <time>2013-05-04T07:25:21Z</time>
      </trkpt>
      <trkpt lat="45.2414" lon="6.04907">
        <ele>2310.2</ele>
        <time>2013-05-04T07:26:11Z</time>
      </trkpt>
      <trkpt lat="45.24132" lon="6.04901">
        <ele>2314.3</ele>
        <time>2013-05-04T07:26:31Z</time>
      </trkpt>
      <trkpt lat="45.24132" lon="6.049">
        <ele>2314.5</ele>
        <time>2013-05-04T07:26:32Z</time>
      </trkpt>
      <trkpt lat="45.24118" lon="6.04887">
        <ele>2321.8</ele>
        <time>2013-05-04T07:27:00Z</time>
      </trkpt>
      <trkpt lat="45.24113" lon="6.04897">
        <ele>2326.9</ele>
        <time>2013-05-04T07:27:52Z</time>
      </trkpt>
      <trkpt lat="45.24112" lon="6.04898">
        <ele>2327</ele>
        <time>2013-05-04T07:27:53Z</time>
      </trkpt>
      <trkpt lat="45.24106" lon="6.04899">
        <ele>2332</ele>
        <time>2013-05-04T07:28:28Z</time>
      </trkpt>
      <trkpt lat="45.241" lon="6.04889">
        <ele>2334.8</ele>
        <time>2013-05-04T07:28:42Z</time>
      </trkpt>
      <trkpt lat="45.24094" lon="6.0488">
        <ele>2337.6</ele>
        <time>2013-05-04T07:28:54Z</time>
      </trkpt>
      <trkpt lat="45.24094" lon="6.04879">
        <ele>2337.9</ele>
        <time>2013-05-04T07:28:55Z</time>
      </trkpt>
      <trkpt lat="45.2408" lon="6.04876">
        <ele>2345.4</ele>
        <time>2013-05-04T07:29:45Z</time>
      </trkpt>
      <trkpt lat="45.24071" lon="6.04875">
        <ele>2349.1</ele>
        <time>2013-05-04T07:30:24Z</time>
      </trkpt>
      <trkpt lat="45.24071" lon="6.04874">
        <ele>2349.3</ele>
        <time>2013-05-04T07:30:25Z</time>
      </trkpt>
      <trkpt lat="45.24067" lon="6.04852">
        <ele>2353.4</ele>
        <time>2013-05-04T07:30:49Z</time>
      </trkpt>
      <trkpt lat="45.24059" lon="6.04856">
        <ele>2361.1</ele>
        <time>2013-05-04T07:31:45Z</time>
      </trkpt>
      <trkpt lat="45.24059" lon="6.04857">
        <ele>2361</ele>
        <time>2013-05-04T07:31:46Z</time>
      </trkpt>
      <trkpt lat="45.24053" lon="6.04879">
        <ele>2364.3</ele>
        <time>2013-05-04T07:32:10Z</time>
      </trkpt>
      <trkpt lat="45.24045" lon="6.04875">
        <ele>2369</ele>
        <time>2013-05-04T07:32:50Z</time>
      </trkpt>
      <trkpt lat="45.24044" lon="6.04874">
        <ele>2369.5</ele>
        <time>2013-05-04T07:32:51Z</time>
      </trkpt>
      <trkpt lat="45.24036" lon="6.0487">
        <ele>2375</ele>
        <time>2013-05-04T07:33:32Z</time>
      </trkpt>
      <trkpt lat="45.2403" lon="6.04879">
        <ele>2378.4</ele>
        <time>2013-05-04T07:33:45Z</time>
      </trkpt>
      <trkpt lat="45.24025" lon="6.04889">
        <ele>2381</ele>
        <time>2013-05-04T07:33:59Z</time>
      </trkpt>
      <trkpt lat="45.24025" lon="6.0489">
        <ele>2381</ele>
        <time>2013-05-04T07:34:00Z</time>
      </trkpt>
      <trkpt lat="45.24016" lon="6.04886">
        <ele>2387.7</ele>
        <time>2013-05-04T07:35:16Z</time>
      </trkpt>
      <trkpt lat="45.24011" lon="6.04864">
        <ele>2393.1</ele>
        <time>2013-05-04T07:35:41Z</time>
      </trkpt>
      <trkpt lat="45.24003" lon="6.04868">
        <ele>2398.4</ele>
        <time>2013-05-04T07:36:34Z</time>
      </trkpt>
      <trkpt lat="45.24003" lon="6.04868">
        <ele>2398.7</ele>
        <time>2013-05-04T07:36:35Z</time>
      </trkpt>
      <trkpt lat="45.23993" lon="6.04888">
        <ele>2402.6</ele>
        <time>2013-05-04T07:36:59Z</time>
      </trkpt>
      <trkpt lat="45.23989" lon="6.04899">
        <ele>2405.4</ele>
        <time>2013-05-04T07:37:12Z</time>
      </trkpt>
      <trkpt lat="45.23986" lon="6.04911">
        <ele>2408.7</ele>
        <time>2013-05-04T07:37:25Z</time>
      </trkpt>
      <trkpt lat="45.23978" lon="6.04908">
        <ele>2414.1</ele>
        <time>2013-05-04T07:38:28Z</time>
      </trkpt>
      <trkpt lat="45.23977" lon="6.04908">
        <ele>2414.1</ele>
        <time>2013-05-04T07:38:29Z</time>
      </trkpt>
      <trkpt lat="45.23965" lon="6.04919">
        <ele>2419.6</ele>
        <time>2013-05-04T07:38:59Z</time>
      </trkpt>
      <trkpt lat="45.23965" lon="6.04931">
        <ele>2422</ele>
        <time>2013-05-04T07:39:13Z</time>
      </trkpt>
      <trkpt lat="45.23967" lon="6.04943">
        <ele>2423.5</ele>
        <time>2013-05-04T07:39:49Z</time>
      </trkpt>
      <trkpt lat="45.23966" lon="6.04944">
        <ele>2423.3</ele>
        <time>2013-05-04T07:39:50Z</time>
      </trkpt>
      <trkpt lat="45.23958" lon="6.04965">
        <ele>2429.7</ele>
        <time>2013-05-04T07:40:22Z</time>
      </trkpt>
      <trkpt lat="45.23953" lon="6.04975">
        <ele>2434.1</ele>
        <time>2013-05-04T07:41:08Z</time>
      </trkpt>
      <trkpt lat="45.23953" lon="6.04976">
        <ele>2434.1</ele>
        <time>2013-05-04T07:41:09Z</time>
      </trkpt>
      <trkpt lat="45.23947" lon="6.04998">
        <ele>2440.4</ele>
        <time>2013-05-04T07:41:49Z</time>
      </trkpt>
      <trkpt lat="45.23943" lon="6.05009">
        <ele>2443.3</ele>
        <time>2013-05-04T07:42:05Z</time>
      </trkpt>
      <trkpt lat="45.23939" lon="6.0502">
        <ele>2446.6</ele>
        <time>2013-05-04T07:42:21Z</time>
      </trkpt>
      <trkpt lat="45.23938" lon="6.05021">
        <ele>2446.7</ele>
        <time>2013-05-04T07:42:22Z</time>
      </trkpt>
      <trkpt lat="45.23932" lon="6.05043">
        <ele>2453.6</ele>
        <time>2013-05-04T07:43:23Z</time>
      </trkpt>
      <trkpt lat="45.23931" lon="6.05044">
        <ele>2454</ele>
        <time>2013-05-04T07:43:24Z</time>
      </trkpt>
      <trkpt lat="45.23929" lon="6.05067">
        <ele>2461.4</ele>
        <time>2013-05-04T07:44:27Z</time>
      </trkpt>
      <trkpt lat="45.23929" lon="6.05068">
        <ele>2461.7</ele>
        <time>2013-05-04T07:44:28Z</time>
      </trkpt>
      <trkpt lat="45.23926" lon="6.05088">
        <ele>2468.5</ele>
        <time>2013-05-04T07:45:05Z</time>
      </trkpt>
      <trkpt lat="45.23918" lon="6.05089">
        <ele>2471.3</ele>
        <time>2013-05-04T07:45:19Z</time>
      </trkpt>
      <trkpt lat="45.23909" lon="6.0509">
        <ele>2474</ele>
        <time>2013-05-04T07:45:43Z</time>
      </trkpt>
      <trkpt lat="45.23909" lon="6.0509">
        <ele>2473.8</ele>
        <time>2013-05-04T07:45:44Z</time>
      </trkpt>
      <trkpt lat="45.23913" lon="6.05114">
        <ele>2478.5</ele>
        <time>2013-05-04T07:46:21Z</time>
      </trkpt>
      <trkpt lat="45.23919" lon="6.05122">
        <ele>2481.6</ele>
        <time>2013-05-04T07:46:34Z</time>
      </trkpt>
      <trkpt lat="45.23926" lon="6.0513">
        <ele>2483.1</ele>
        <time>2013-05-04T07:46:46Z</time>
      </trkpt>
      <trkpt lat="45.23926" lon="6.0513">
        <ele>2483.1</ele>
        <time>2013-05-04T07:46:47Z</time>
      </trkpt>
      <trkpt lat="45.23915" lon="6.05146">
        <ele>2488.8</ele>
        <time>2013-05-04T07:47:35Z</time>
      </trkpt>
      <trkpt lat="45.23914" lon="6.05158">
        <ele>2494.7</ele>
        <time>2013-05-04T07:48:22Z</time>
      </trkpt>
      <trkpt lat="45.23915" lon="6.05159">
        <ele>2495.2</ele>
        <time>2013-05-04T07:48:23Z</time>
      </trkpt>
      <trkpt lat="45.23899" lon="6.05168">
        <ele>2500.4</ele>
        <time>2013-05-04T07:49:01Z</time>
      </trkpt>
      <trkpt lat="45.2389" lon="6.05169">
        <ele>2502.1</ele>
        <time>2013-05-04T07:49:15Z</time>
      </trkpt>
      <trkpt lat="45.23882" lon="6.0517">
        <ele>2504</ele>
        <time>2013-05-04T07:49:26Z</time>
      </trkpt>
      <trkpt lat="45.23881" lon="6.0517">
        <ele>2504.5</ele>
        <time>2013-05-04T07:49:27Z</time>
      </trkpt>
      <trkpt lat="45.23893" lon="6.05187">
        <ele>2510.1</ele>
        <time>2013-05-04T07:50:06Z</time>
      </trkpt>
      <trkpt lat="45.23888" lon="6.05197">
        <ele>2514.7</ele>
        <time>2013-05-04T07:50:53Z</time>
      </trkpt>
      <trkpt lat="45.23887" lon="6.05198">
        <ele>2514.8</ele>
        <time>2013-05-04T07:50:54Z</time>
      </trkpt>
      <trkpt lat="45.2387" lon="6.05197">
        <ele>2518.9</ele>
        <time>2013-05-04T07:51:17Z</time>
      </trkpt>
      <trkpt lat="45.23861" lon="6.05195">
        <ele>2521.2</ele>
        <time>2013-05-04T07:51:30Z</time>
      </trkpt>
      <trkpt lat="45.23867" lon="6.05205">
        <ele>2524.3</ele>
        <time>2013-05-04T07:52:17Z</time>
      </trkpt>
      <trkpt lat="45.23867" lon="6.05205">
        <ele>2524.5</ele>
        <time>2013-05-04T07:52:18Z</time>
      </trkpt>
      <trkpt lat="45.23879" lon="6.05222">
        <ele>2528.6</ele>
        <time>2013-05-04T07:52:41Z</time>
      </trkpt>
      <trkpt lat="45.23871" lon="6.05229">
        <ele>2532.2</ele>
        <time>2013-05-04T07:53:31Z</time>
      </trkpt>
      <trkpt lat="45.2387" lon="6.05229">
        <ele>2532.6</ele>
        <time>2013-05-04T07:53:32Z</time>
      </trkpt>
      <trkpt lat="45.23855" lon="6.05231">
        <ele>2537.5</ele>
        <time>2013-05-04T07:53:54Z</time>
      </trkpt>
      <trkpt lat="45.2386" lon="6.05242">
        <ele>2543</ele>
        <time>2013-05-04T07:54:34Z</time>
      </trkpt>
      <trkpt lat="45.2386" lon="6.05242">
        <ele>2543.1</ele>
        <time>2013-05-04T07:54:35Z</time>
      </trkpt>
      <trkpt lat="45.23858" lon="6.05257">
        <ele>2549</ele>
        <time>2013-05-04T07:55:31Z</time>
      </trkpt>
      <trkpt lat="45.2385" lon="6.05257">
        <ele>2550.7</ele>
        <time>2013-05-04T07:55:42Z</time>
      </trkpt>
      <trkpt lat="45.23849" lon="6.05257">
        <ele>2550.9</ele>
        <time>2013-05-04T07:55:43Z</time>
      </trkpt>
      <trkpt lat="45.23847" lon="6.05266">
        <ele>2559.7</ele>
        <time>2013-05-04T07:56:54Z</time>
      </trkpt>
      <trkpt lat="45.23848" lon="6.05266">
        <ele>2560</ele>
        <time>2013-05-04T07:56:55Z</time>
      </trkpt>
      <trkpt lat="45.23845" lon="6.05277">
        <ele>2566.3</ele>
        <time>2013-05-04T07:57:54Z</time>
      </trkpt>
      <trkpt lat="45.23836" lon="6.05275">
        <ele>2567.7</ele>
        <time>2013-05-04T07:58:05Z</time>
      </trkpt>
      <trkpt lat="45.23835" lon="6.05274">
        <ele>2567.6</ele>
        <time>2013-05-04T07:58:06Z</time>
      </trkpt>
      <trkpt lat="45.23833" lon="6.05279">
        <ele>2572</ele>
        <time>2013-05-04T07:58:41Z</time>
      </trkpt>
      <trkpt lat="45.23839" lon="6.05288">
        <ele>2573.7</ele>
        <time>2013-05-04T07:58:53Z</time>
      </trkpt>
      <trkpt lat="45.23846" lon="6.05294">
        <ele>2575.1</ele>
        <time>2013-05-04T07:59:03Z</time>
      </trkpt>
      <trkpt lat="45.23853" lon="6.05301">
        <ele>2576.4</ele>
        <time>2013-05-04T07:59:20Z</time>
      </trkpt>
      <trkpt lat="45.23854" lon="6.05301">
        <ele>2577</ele>
        <time>2013-05-04T07:59:21Z</time>
      </trkpt>
      <trkpt lat="45.23848" lon="6.05311">
        <ele>2581.2</ele>
        <time>2013-05-04T08:00:24Z</time>
      </trkpt>
      <trkpt lat="45.23832" lon="6.05321">
        <ele>2591.7</ele>
        <time>2013-05-04T08:02:10Z</time>
      </trkpt>
      <trkpt lat="45.23832" lon="6.05321">
        <ele>2592.1</ele>
        <time>2013-05-04T08:02:11Z</time>
      </trkpt>
      <trkpt lat="45.23815" lon="6.0532">
        <ele>2597.8</ele>
        <time>2013-05-04T08:02:49Z</time>
      </trkpt>
      <trkpt lat="45.23821" lon="6.0533">
        <ele>2601.9</ele>
        <time>2013-05-04T08:03:27Z</time>
      </trkpt>
      <trkpt lat="45.23821" lon="6.05331">
        <ele>2601.9</ele>
        <time>2013-05-04T08:03:28Z</time>
      </trkpt>
      <trkpt lat="45.23804" lon="6.05327">
        <ele>2610.1</ele>
        <time>2013-05-04T08:04:30Z</time>
      </trkpt>
      <trkpt lat="45.23803" lon="6.05327">
        <ele>2610.1</ele>
        <time>2013-05-04T08:04:31Z</time>
      </trkpt>
      <trkpt lat="45.23796" lon="6.0534">
        <ele>2615.2</ele>
        <time>2013-05-04T08:05:23Z</time>
      </trkpt>
      <trkpt lat="45.23793" lon="6.05352">
        <ele>2623.4</ele>
        <time>2013-05-04T08:06:26Z</time>
      </trkpt>
      <trkpt lat="45.23793" lon="6.05352">
        <ele>2623.7</ele>
        <time>2013-05-04T08:06:27Z</time>
      </trkpt>
      <trkpt lat="45.23779" lon="6.05337">
        <ele>2627.6</ele>
        <time>2013-05-04T08:07:13Z</time>
      </trkpt>
      <trkpt lat="45.23781" lon="6.0535">
        <ele>2632</ele>
        <time>2013-05-04T08:08:09Z</time>
      </trkpt>
      <trkpt lat="45.23781" lon="6.05351">
        <ele>2632.5</ele>
        <time>2013-05-04T08:08:10Z</time>
      </trkpt>
      <trkpt lat="45.23774" lon="6.05357">
        <ele>2638.1</ele>
        <time>2013-05-04T08:09:17Z</time>
      </trkpt>
      <trkpt lat="45.23773" lon="6.05356">
        <ele>2638.3</ele>
        <time>2013-05-04T08:09:18Z</time>
      </trkpt>
      <trkpt lat="45.23763" lon="6.05339">
        <ele>2645.3</ele>
        <time>2013-05-04T08:10:46Z</time>
      </trkpt>
      <trkpt lat="45.23762" lon="6.05338">
        <ele>2645.4</ele>
        <time>2013-05-04T08:10:47Z</time>
      </trkpt>
      <trkpt lat="45.23756" lon="6.05347">
        <ele>2648.8</ele>
        <time>2013-05-04T08:14:39Z</time>
      </trkpt>
      <trkpt lat="45.23749" lon="6.05355">
        <ele>2653.7</ele>
        <time>2013-05-04T08:16:12Z</time>
      </trkpt>
      <trkpt lat="45.23744" lon="6.05365">
        <ele>2662.9</ele>
        <time>2013-05-04T08:17:43Z</time>
      </trkpt>
      <trkpt lat="45.23737" lon="6.05373">
        <ele>2671.8</ele>
        <time>2013-05-04T08:19:08Z</time>
      </trkpt>
      <trkpt lat="45.23728" lon="6.05377">
        <ele>2681</ele>
        <time>2013-05-04T08:20:37Z</time>
      </trkpt>
      <trkpt lat="45.23715" lon="6.05389">
        <ele>2695.8</ele>
        <time>2013-05-04T08:22:05Z</time>
      </trkpt>
      <trkpt lat="45.23714" lon="6.05389">
        <ele>2696</ele>
        <time>2013-05-04T08:22:06Z</time>
      </trkpt>
      <trkpt lat="45.23705" lon="6.05392">
        <ele>2702.5</ele>
        <time>2013-05-04T08:23:10Z</time>
      </trkpt>
      <trkpt lat="45.2369" lon="6.05385">
        <ele>2714.5</ele>
        <time>2013-05-04T08:38:53Z</time>
      </trkpt>
      <trkpt lat="45.2369" lon="6.05385">
        <ele>2714.4</ele>
        <time>2013-05-04T08:38:54Z</time>
      </trkpt>
      <trkpt lat="45.23694" lon="6.05397">
        <ele>2711.3</ele>
        <time>2013-05-04T08:41:01Z</time>
      </trkpt>
      <trkpt lat="45.23711" lon="6.054">
        <ele>2703.9</ele>
        <time>2013-05-04T08:45:06Z</time>
      </trkpt>
      <trkpt lat="45.23711" lon="6.054">
        <ele>2703.6</ele>
        <time>2013-05-04T08:45:07Z</time>
      </trkpt>
      <trkpt lat="45.23702" lon="6.05397">
        <ele>2703.9</ele>
        <time>2013-05-04T08:47:17Z</time>
      </trkpt>
      <trkpt lat="45.23702" lon="6.05397">
        <ele>2707.5</ele>
        <time>2013-05-04T08:59:23Z</time>
      </trkpt>
      <trkpt lat="45.23702" lon="6.05398">
        <ele>2707.4</ele>
        <time>2013-05-04T08:59:24Z</time>
      </trkpt>
      <trkpt lat="45.23694" lon="6.05391">
        <ele>2710.1</ele>
        <time>2013-05-04T09:01:19Z</time>
      </trkpt>
      <trkpt lat="45.23701" lon="6.05401">
        <ele>2720.7</ele>
        <time>2013-05-04T09:37:02Z</time>
      </trkpt>
      <trkpt lat="45.23714" lon="6.05407">
        <ele>2716.5</ele>
        <time>2013-05-04T09:37:06Z</time>
      </trkpt>
      <trkpt lat="45.23722" lon="6.0541">
        <ele>2713.7</ele>
        <time>2013-05-04T09:37:08Z</time>
      </trkpt>
      <trkpt lat="45.23729" lon="6.05416">
        <ele>2710.5</ele>
        <time>2013-05-04T09:37:10Z</time>
      </trkpt>
      <trkpt lat="45.23734" lon="6.05416">
        <ele>2708.1</ele>
        <time>2013-05-04T09:37:11Z</time>
      </trkpt>
      <trkpt lat="45.23737" lon="6.05421">
        <ele>2706.4</ele>
        <time>2013-05-04T09:37:12Z</time>
      </trkpt>
      <trkpt lat="45.23741" lon="6.05426">
        <ele>2703.3</ele>
        <time>2013-05-04T09:37:13Z</time>
      </trkpt>
      <trkpt lat="45.23746" lon="6.05427">
        <ele>2701.1</ele>
        <time>2013-05-04T09:37:14Z</time>
      </trkpt>
      <trkpt lat="45.2375" lon="6.05432">
        <ele>2699.3</ele>
        <time>2013-05-04T09:37:15Z</time>
      </trkpt>
      <trkpt lat="45.23754" lon="6.05438">
        <ele>2696.9</ele>
        <time>2013-05-04T09:37:16Z</time>
      </trkpt>
      <trkpt lat="45.23759" lon="6.05441">
        <ele>2695</ele>
        <time>2013-05-04T09:37:17Z</time>
      </trkpt>
      <trkpt lat="45.23762" lon="6.05447">
        <ele>2692.3</ele>
        <time>2013-05-04T09:37:18Z</time>
      </trkpt>
      <trkpt lat="45.23766" lon="6.05452">
        <ele>2690.3</ele>
        <time>2013-05-04T09:37:19Z</time>
      </trkpt>
      <trkpt lat="45.23771" lon="6.05454">
        <ele>2688.8</ele>
        <time>2013-05-04T09:37:20Z</time>
      </trkpt>
      <trkpt lat="45.23776" lon="6.05458">
        <ele>2686.6</ele>
        <time>2013-05-04T09:37:21Z</time>
      </trkpt>
      <trkpt lat="45.23779" lon="6.05465">
        <ele>2685</ele>
        <time>2013-05-04T09:37:22Z</time>
      </trkpt>
      <trkpt lat="45.23783" lon="6.05471">
        <ele>2682.8</ele>
        <time>2013-05-04T09:37:23Z</time>
      </trkpt>
      <trkpt lat="45.23788" lon="6.05477">
        <ele>2681.3</ele>
        <time>2013-05-04T09:37:24Z</time>
      </trkpt>
      <trkpt lat="45.23795" lon="6.05485">
        <ele>2678</ele>
        <time>2013-05-04T09:37:26Z</time>
      </trkpt>
      <trkpt lat="45.23799" lon="6.05475">
        <ele>2672.1</ele>
        <time>2013-05-04T09:37:49Z</time>
      </trkpt>
      <trkpt lat="45.23796" lon="6.05463">
        <ele>2672.2</ele>
        <time>2013-05-04T09:37:53Z</time>
      </trkpt>
      <trkpt lat="45.23792" lon="6.05456">
        <ele>2671.4</ele>
        <time>2013-05-04T09:37:55Z</time>
      </trkpt>
      <trkpt lat="45.23787" lon="6.05446">
        <ele>2670</ele>
        <time>2013-05-04T09:37:57Z</time>
      </trkpt>
      <trkpt lat="45.23783" lon="6.05436">
        <ele>2669.2</ele>
        <time>2013-05-04T09:37:59Z</time>
      </trkpt>
      <trkpt lat="45.23779" lon="6.05428">
        <ele>2668.5</ele>
        <time>2013-05-04T09:38:01Z</time>
      </trkpt>
      <trkpt lat="45.23781" lon="6.05419">
        <ele>2666.2</ele>
        <time>2013-05-04T09:38:05Z</time>
      </trkpt>
      <trkpt lat="45.23782" lon="6.05416">
        <ele>2665.1</ele>
        <time>2013-05-04T09:38:06Z</time>
      </trkpt>
      <trkpt lat="45.23793" lon="6.05405">
        <ele>2653.9</ele>
        <time>2013-05-04T09:38:13Z</time>
      </trkpt>
      <trkpt lat="45.238" lon="6.054">
        <ele>2646.8</ele>
        <time>2013-05-04T09:38:17Z</time>
      </trkpt>
      <trkpt lat="45.23807" lon="6.05396">
        <ele>2637.7</ele>
        <time>2013-05-04T09:38:21Z</time>
      </trkpt>
      <trkpt lat="45.23813" lon="6.05389">
        <ele>2631.1</ele>
        <time>2013-05-04T09:38:24Z</time>
      </trkpt>
      <trkpt lat="45.23817" lon="6.05381">
        <ele>2624.8</ele>
        <time>2013-05-04T09:38:27Z</time>
      </trkpt>
      <trkpt lat="45.23818" lon="6.05374">
        <ele>2623.2</ele>
        <time>2013-05-04T09:38:28Z</time>
      </trkpt>
      <trkpt lat="45.23818" lon="6.05366">
        <ele>2621</ele>
        <time>2013-05-04T09:38:29Z</time>
      </trkpt>
      <trkpt lat="45.23818" lon="6.05358">
        <ele>2619.3</ele>
        <time>2013-05-04T09:38:30Z</time>
      </trkpt>
      <trkpt lat="45.23818" lon="6.0535">
        <ele>2618.1</ele>
        <time>2013-05-04T09:38:31Z</time>
      </trkpt>
      <trkpt lat="45.23818" lon="6.05339">
        <ele>2615.6</ele>
        <time>2013-05-04T09:38:33Z</time>
      </trkpt>
      <trkpt lat="45.23822" lon="6.0533">
        <ele>2613.1</ele>
        <time>2013-05-04T09:39:54Z</time>
      </trkpt>
      <trkpt lat="45.23823" lon="6.05326">
        <ele>2612.5</ele>
        <time>2013-05-04T09:39:55Z</time>
      </trkpt>
      <trkpt lat="45.23833" lon="6.05316">
        <ele>2611</ele>
        <time>2013-05-04T09:39:59Z</time>
      </trkpt>
      <trkpt lat="45.2384" lon="6.0531">
        <ele>2606.1</ele>
        <time>2013-05-04T09:40:02Z</time>
      </trkpt>
      <trkpt lat="45.23845" lon="6.053">
        <ele>2599.5</ele>
        <time>2013-05-04T09:40:05Z</time>
      </trkpt>
      <trkpt lat="45.23851" lon="6.05294">
        <ele>2594.7</ele>
        <time>2013-05-04T09:40:07Z</time>
      </trkpt>
      <trkpt lat="45.23856" lon="6.05284">
        <ele>2587.7</ele>
        <time>2013-05-04T09:40:10Z</time>
      </trkpt>
      <trkpt lat="45.23861" lon="6.05277">
        <ele>2582.4</ele>
        <time>2013-05-04T09:40:12Z</time>
      </trkpt>
      <trkpt lat="45.23864" lon="6.0527">
        <ele>2578.5</ele>
        <time>2013-05-04T09:40:14Z</time>
      </trkpt>
      <trkpt lat="45.23869" lon="6.0526">
        <ele>2572.1</ele>
        <time>2013-05-04T09:40:17Z</time>
      </trkpt>
      <trkpt lat="45.23878" lon="6.05256">
        <ele>2566</ele>
        <time>2013-05-04T09:40:20Z</time>
      </trkpt>
      <trkpt lat="45.23884" lon="6.0525">
        <ele>2558.5</ele>
        <time>2013-05-04T09:40:23Z</time>
      </trkpt>
      <trkpt lat="45.23891" lon="6.05242">
        <ele>2552</ele>
        <time>2013-05-04T09:40:26Z</time>
      </trkpt>
      <trkpt lat="45.23893" lon="6.05232">
        <ele>2547.6</ele>
        <time>2013-05-04T09:40:28Z</time>
      </trkpt>
      <trkpt lat="45.23898" lon="6.05225">
        <ele>2542.8</ele>
        <time>2013-05-04T09:40:30Z</time>
      </trkpt>
      <trkpt lat="45.23901" lon="6.05215">
        <ele>2539</ele>
        <time>2013-05-04T09:40:32Z</time>
      </trkpt>
      <trkpt lat="45.23904" lon="6.05203">
        <ele>2534.8</ele>
        <time>2013-05-04T09:40:34Z</time>
      </trkpt>
      <trkpt lat="45.2391" lon="6.05197">
        <ele>2518.8</ele>
        <time>2013-05-04T09:40:55Z</time>
      </trkpt>
      <trkpt lat="45.23912" lon="6.05196">
        <ele>2518.7</ele>
        <time>2013-05-04T09:40:56Z</time>
      </trkpt>
      <trkpt lat="45.23919" lon="6.05183">
        <ele>2517.2</ele>
        <time>2013-05-04T09:41:00Z</time>
      </trkpt>
      <trkpt lat="45.23925" lon="6.05178">
        <ele>2514.2</ele>
        <time>2013-05-04T09:41:02Z</time>
      </trkpt>
      <trkpt lat="45.2393" lon="6.05169">
        <ele>2511.6</ele>
        <time>2013-05-04T09:41:04Z</time>
      </trkpt>
      <trkpt lat="45.23934" lon="6.05159">
        <ele>2508.1</ele>
        <time>2013-05-04T09:41:06Z</time>
      </trkpt>
      <trkpt lat="45.23939" lon="6.05156">
        <ele>2506.4</ele>
        <time>2013-05-04T09:41:07Z</time>
      </trkpt>
      <trkpt lat="45.2394" lon="6.0515">
        <ele>2503.6</ele>
        <time>2013-05-04T09:41:08Z</time>
      </trkpt>
      <trkpt lat="45.23942" lon="6.05142">
        <ele>2501.5</ele>
        <time>2013-05-04T09:41:09Z</time>
      </trkpt>
      <trkpt lat="45.23948" lon="6.05141">
        <ele>2499.9</ele>
        <time>2013-05-04T09:41:10Z</time>
      </trkpt>
      <trkpt lat="45.23954" lon="6.05135">
        <ele>2494.9</ele>
        <time>2013-05-04T09:41:12Z</time>
      </trkpt>
      <trkpt lat="45.23954" lon="6.05129">
        <ele>2492.2</ele>
        <time>2013-05-04T09:41:13Z</time>
      </trkpt>
      <trkpt lat="45.23963" lon="6.05125">
        <ele>2488.7</ele>
        <time>2013-05-04T09:41:15Z</time>
      </trkpt>
      <trkpt lat="45.23968" lon="6.05118">
        <ele>2484.1</ele>
        <time>2013-05-04T09:41:17Z</time>
      </trkpt>
      <trkpt lat="45.23969" lon="6.05111">
        <ele>2481</ele>
        <time>2013-05-04T09:41:18Z</time>
      </trkpt>
      <trkpt lat="45.2397" lon="6.05104">
        <ele>2478.7</ele>
        <time>2013-05-04T09:41:19Z</time>
      </trkpt>
      <trkpt lat="45.23971" lon="6.05098">
        <ele>2476.5</ele>
        <time>2013-05-04T09:41:20Z</time>
      </trkpt>
      <trkpt lat="45.23971" lon="6.05085">
        <ele>2473.6</ele>
        <time>2013-05-04T09:41:22Z</time>
      </trkpt>
      <trkpt lat="45.23975" lon="6.05075">
        <ele>2471.4</ele>
        <time>2013-05-04T09:41:24Z</time>
      </trkpt>
      <trkpt lat="45.23982" lon="6.05073">
        <ele>2467.3</ele>
        <time>2013-05-04T09:41:26Z</time>
      </trkpt>
      <trkpt lat="45.23986" lon="6.05065">
        <ele>2464.5</ele>
        <time>2013-05-04T09:41:28Z</time>
      </trkpt>
      <trkpt lat="45.23995" lon="6.05067">
        <ele>2452.2</ele>
        <time>2013-05-04T09:41:36Z</time>
      </trkpt>
      <trkpt lat="45.23995" lon="6.05056">
        <ele>2449.2</ele>
        <time>2013-05-04T09:43:32Z</time>
      </trkpt>
      <trkpt lat="45.23996" lon="6.05051">
        <ele>2448.5</ele>
        <time>2013-05-04T09:43:33Z</time>
      </trkpt>
      <trkpt lat="45.24003" lon="6.05042">
        <ele>2445.7</ele>
        <time>2013-05-04T09:43:36Z</time>
      </trkpt>
      <trkpt lat="45.24004" lon="6.05032">
        <ele>2442.4</ele>
        <time>2013-05-04T09:43:38Z</time>
      </trkpt>
      <trkpt lat="45.2401" lon="6.05026">
        <ele>2438.5</ele>
        <time>2013-05-04T09:43:40Z</time>
      </trkpt>
      <trkpt lat="45.24013" lon="6.05016">
        <ele>2435.2</ele>
        <time>2013-05-04T09:43:42Z</time>
      </trkpt>
      <trkpt lat="45.2402" lon="6.05012">
        <ele>2431.4</ele>
        <time>2013-05-04T09:43:44Z</time>
      </trkpt>
      <trkpt lat="45.24022" lon="6.05001">
        <ele>2425.4</ele>
        <time>2013-05-04T09:43:46Z</time>
      </trkpt>
      <trkpt lat="45.24028" lon="6.04998">
        <ele>2420.2</ele>
        <time>2013-05-04T09:43:48Z</time>
      </trkpt>
      <trkpt lat="45.24032" lon="6.0499">
        <ele>2415.7</ele>
        <time>2013-05-04T09:43:50Z</time>
      </trkpt>
      <trkpt lat="45.24039" lon="6.0499">
        <ele>2410.4</ele>
        <time>2013-05-04T09:43:52Z</time>
      </trkpt>
      <trkpt lat="45.24045" lon="6.04985">
        <ele>2406.2</ele>
        <time>2013-05-04T09:43:54Z</time>
      </trkpt>
      <trkpt lat="45.24052" lon="6.04984">
        <ele>2400.4</ele>
        <time>2013-05-04T09:43:56Z</time>
      </trkpt>
      <trkpt lat="45.24058" lon="6.04977">
        <ele>2395.3</ele>
        <time>2013-05-04T09:43:58Z</time>
      </trkpt>
      <trkpt lat="45.24066" lon="6.0497">
        <ele>2387.7</ele>
        <time>2013-05-04T09:44:01Z</time>
      </trkpt>
      <trkpt lat="45.24072" lon="6.04968">
        <ele>2383.3</ele>
        <time>2013-05-04T09:44:03Z</time>
      </trkpt>
      <trkpt lat="45.24076" lon="6.0496">
        <ele>2377.4</ele>
        <time>2013-05-04T09:44:05Z</time>
      </trkpt>
      <trkpt lat="45.24081" lon="6.04951">
        <ele>2369.8</ele>
        <time>2013-05-04T09:44:08Z</time>
      </trkpt>
      <trkpt lat="45.24087" lon="6.04949">
        <ele>2365.9</ele>
        <time>2013-05-04T09:44:10Z</time>
      </trkpt>
      <trkpt lat="45.24091" lon="6.04939">
        <ele>2361.2</ele>
        <time>2013-05-04T09:44:12Z</time>
      </trkpt>
      <trkpt lat="45.24098" lon="6.0494">
        <ele>2357.6</ele>
        <time>2013-05-04T09:44:14Z</time>
      </trkpt>
      <trkpt lat="45.24103" lon="6.04931">
        <ele>2353.4</ele>
        <time>2013-05-04T09:44:16Z</time>
      </trkpt>
      <trkpt lat="45.2411" lon="6.04931">
        <ele>2348.7</ele>
        <time>2013-05-04T09:44:18Z</time>
      </trkpt>
      <trkpt lat="45.24119" lon="6.0493">
        <ele>2342.7</ele>
        <time>2013-05-04T09:44:21Z</time>
      </trkpt>
      <trkpt lat="45.24127" lon="6.04927">
        <ele>2336.6</ele>
        <time>2013-05-04T09:44:24Z</time>
      </trkpt>
      <trkpt lat="45.24132" lon="6.04919">
        <ele>2331.8</ele>
        <time>2013-05-04T09:44:26Z</time>
      </trkpt>
      <trkpt lat="45.2414" lon="6.04916">
        <ele>2328.4</ele>
        <time>2013-05-04T09:44:28Z</time>
      </trkpt>
      <trkpt lat="45.24148" lon="6.04913">
        <ele>2323.3</ele>
        <time>2013-05-04T09:44:31Z</time>
      </trkpt>
      <trkpt lat="45.24154" lon="6.04904">
        <ele>2319.9</ele>
        <time>2013-05-04T09:44:33Z</time>
      </trkpt>
      <trkpt lat="45.24158" lon="6.04907">
        <ele>2318.3</ele>
        <time>2013-05-04T09:44:34Z</time>
      </trkpt>
      <trkpt lat="45.24166" lon="6.04914">
        <ele>2313.3</ele>
        <time>2013-05-04T09:44:36Z</time>
      </trkpt>
      <trkpt lat="45.24172" lon="6.04904">
        <ele>2309.1</ele>
        <time>2013-05-04T09:44:38Z</time>
      </trkpt>
      <trkpt lat="45.24176" lon="6.04905">
        <ele>2307.8</ele>
        <time>2013-05-04T09:44:39Z</time>
      </trkpt>
      <trkpt lat="45.24181" lon="6.04909">
        <ele>2305.6</ele>
        <time>2013-05-04T09:44:40Z</time>
      </trkpt>
      <trkpt lat="45.24188" lon="6.04904">
        <ele>2301.5</ele>
        <time>2013-05-04T09:44:42Z</time>
      </trkpt>
      <trkpt lat="45.2419" lon="6.04892">
        <ele>2297.6</ele>
        <time>2013-05-04T09:44:44Z</time>
      </trkpt>
      <trkpt lat="45.24196" lon="6.04886">
        <ele>2294.8</ele>
        <time>2013-05-04T09:44:46Z</time>
      </trkpt>
      <trkpt lat="45.24202" lon="6.04895">
        <ele>2291.4</ele>
        <time>2013-05-04T09:44:48Z</time>
      </trkpt>
      <trkpt lat="45.24208" lon="6.04889">
        <ele>2288.3</ele>
        <time>2013-05-04T09:44:50Z</time>
      </trkpt>
      <trkpt lat="45.24216" lon="6.04888">
        <ele>2284.9</ele>
        <time>2013-05-04T09:44:52Z</time>
      </trkpt>
      <trkpt lat="45.24223" lon="6.04895">
        <ele>2281.2</ele>
        <time>2013-05-04T09:44:54Z</time>
      </trkpt>
      <trkpt lat="45.24229" lon="6.04891">
        <ele>2277.8</ele>
        <time>2013-05-04T09:44:56Z</time>
      </trkpt>
      <trkpt lat="45.24233" lon="6.04886">
        <ele>2276.5</ele>
        <time>2013-05-04T09:44:57Z</time>
      </trkpt>
      <trkpt lat="45.2424" lon="6.04889">
        <ele>2273.5</ele>
        <time>2013-05-04T09:44:59Z</time>
      </trkpt>
      <trkpt lat="45.24244" lon="6.04897">
        <ele>2270.4</ele>
        <time>2013-05-04T09:45:01Z</time>
      </trkpt>
      <trkpt lat="45.24248" lon="6.04908">
        <ele>2267</ele>
        <time>2013-05-04T09:45:04Z</time>
      </trkpt>
      <trkpt lat="45.24255" lon="6.0491">
        <ele>2265.5</ele>
        <time>2013-05-04T09:45:06Z</time>
      </trkpt>
      <trkpt lat="45.24258" lon="6.04904">
        <ele>2264.9</ele>
        <time>2013-05-04T09:45:07Z</time>
      </trkpt>
      <trkpt lat="45.24267" lon="6.04903">
        <ele>2263</ele>
        <time>2013-05-04T09:45:09Z</time>
      </trkpt>
      <trkpt lat="45.2427" lon="6.04908">
        <ele>2262.4</ele>
        <time>2013-05-04T09:45:10Z</time>
      </trkpt>
      <trkpt lat="45.24272" lon="6.04913">
        <ele>2260.5</ele>
        <time>2013-05-04T09:45:11Z</time>
      </trkpt>
      <trkpt lat="45.24275" lon="6.04919">
        <ele>2259.1</ele>
        <time>2013-05-04T09:45:12Z</time>
      </trkpt>
      <trkpt lat="45.24278" lon="6.04924">
        <ele>2257.8</ele>
        <time>2013-05-04T09:45:13Z</time>
      </trkpt>
      <trkpt lat="45.24287" lon="6.04928">
        <ele>2255.4</ele>
        <time>2013-05-04T09:45:15Z</time>
      </trkpt>
      <trkpt lat="45.24294" lon="6.04924">
        <ele>2253.6</ele>
        <time>2013-05-04T09:45:17Z</time>
      </trkpt>
      <trkpt lat="45.24298" lon="6.04928">
        <ele>2252.5</ele>
        <time>2013-05-04T09:45:18Z</time>
      </trkpt>
      <trkpt lat="45.24301" lon="6.04933">
        <ele>2251.6</ele>
        <time>2013-05-04T09:45:19Z</time>
      </trkpt>
      <trkpt lat="45.24306" lon="6.04942">
        <ele>2249</ele>
        <time>2013-05-04T09:45:21Z</time>
      </trkpt>
      <trkpt lat="45.24312" lon="6.04948">
        <ele>2244.5</ele>
        <time>2013-05-04T09:46:07Z</time>
      </trkpt>
      <trkpt lat="45.24315" lon="6.04945">
        <ele>2244</ele>
        <time>2013-05-04T09:46:08Z</time>
      </trkpt>
      <trkpt lat="45.2432" lon="6.04931">
        <ele>2242.9</ele>
        <time>2013-05-04T09:46:11Z</time>
      </trkpt>
      <trkpt lat="45.24326" lon="6.04934">
        <ele>2240.2</ele>
        <time>2013-05-04T09:46:13Z</time>
      </trkpt>
      <trkpt lat="45.24333" lon="6.04927">
        <ele>2238.4</ele>
        <time>2013-05-04T09:46:15Z</time>
      </trkpt>
      <trkpt lat="45.24334" lon="6.0492">
        <ele>2237.7</ele>
        <time>2013-05-04T09:46:16Z</time>
      </trkpt>
      <trkpt lat="45.24341" lon="6.04913">
        <ele>2235.4</ele>
        <time>2013-05-04T09:46:18Z</time>
      </trkpt>
      <trkpt lat="45.24349" lon="6.04912">
        <ele>2232.2</ele>
        <time>2013-05-04T09:46:20Z</time>
      </trkpt>
      <trkpt lat="45.24352" lon="6.04906">
        <ele>2231.2</ele>
        <time>2013-05-04T09:46:21Z</time>
      </trkpt>
      <trkpt lat="45.24357" lon="6.04901">
        <ele>2229.6</ele>
        <time>2013-05-04T09:46:22Z</time>
      </trkpt>
      <trkpt lat="45.24362" lon="6.04903">
        <ele>2228.4</ele>
        <time>2013-05-04T09:46:23Z</time>
      </trkpt>
      <trkpt lat="45.2437" lon="6.04903">
        <ele>2224.5</ele>
        <time>2013-05-04T09:46:25Z</time>
      </trkpt>
      <trkpt lat="45.24374" lon="6.04898">
        <ele>2222.4</ele>
        <time>2013-05-04T09:46:26Z</time>
      </trkpt>
      <trkpt lat="45.24379" lon="6.04898">
        <ele>2220.9</ele>
        <time>2013-05-04T09:46:27Z</time>
      </trkpt>
      <trkpt lat="45.24384" lon="6.04902">
        <ele>2219.7</ele>
        <time>2013-05-04T09:46:28Z</time>
      </trkpt>
      <trkpt lat="45.24392" lon="6.04903">
        <ele>2216.5</ele>
        <time>2013-05-04T09:46:30Z</time>
      </trkpt>
      <trkpt lat="45.24396" lon="6.04897">
        <ele>2214.4</ele>
        <time>2013-05-04T09:46:31Z</time>
      </trkpt>
      <trkpt lat="45.24404" lon="6.04898">
        <ele>2211.7</ele>
        <time>2013-05-04T09:46:33Z</time>
      </trkpt>
      <trkpt lat="45.24411" lon="6.04904">
        <ele>2208</ele>
        <time>2013-05-04T09:46:35Z</time>
      </trkpt>
      <trkpt lat="45.24414" lon="6.04901">
        <ele>2206.2</ele>
        <time>2013-05-04T09:46:36Z</time>
      </trkpt>
      <trkpt lat="45.24418" lon="6.04896">
        <ele>2204.9</ele>
        <time>2013-05-04T09:46:37Z</time>
      </trkpt>
      <trkpt lat="45.24422" lon="6.04893">
        <ele>2202.8</ele>
        <time>2013-05-04T09:46:38Z</time>
      </trkpt>
      <trkpt lat="45.24427" lon="6.04897">
        <ele>2201.2</ele>
        <time>2013-05-04T09:46:39Z</time>
      </trkpt>
      <trkpt lat="45.24434" lon="6.04902">
        <ele>2198</ele>
        <time>2013-05-04T09:46:41Z</time>
      </trkpt>
      <trkpt lat="45.2444" lon="6.04893">
        <ele>2194.1</ele>
        <time>2013-05-04T09:46:43Z</time>
      </trkpt>
      <trkpt lat="45.24444" lon="6.04888">
        <ele>2192.2</ele>
        <time>2013-05-04T09:46:44Z</time>
      </trkpt>
      <trkpt lat="45.24452" lon="6.04888">
        <ele>2189.4</ele>
        <time>2013-05-04T09:46:46Z</time>
      </trkpt>
      <trkpt lat="45.24455" lon="6.04892">
        <ele>2188.5</ele>
        <time>2013-05-04T09:46:47Z</time>
      </trkpt>
      <trkpt lat="45.24461" lon="6.04891">
        <ele>2186.7</ele>
        <time>2013-05-04T09:46:48Z</time>
      </trkpt>
      <trkpt lat="45.24465" lon="6.04888">
        <ele>2185.4</ele>
        <time>2013-05-04T09:46:49Z</time>
      </trkpt>
      <trkpt lat="45.24468" lon="6.04883">
        <ele>2183.6</ele>
        <time>2013-05-04T09:46:50Z</time>
      </trkpt>
      <trkpt lat="45.24475" lon="6.04875">
        <ele>2181.1</ele>
        <time>2013-05-04T09:46:52Z</time>
      </trkpt>
      <trkpt lat="45.24479" lon="6.04866">
        <ele>2178.8</ele>
        <time>2013-05-04T09:46:54Z</time>
      </trkpt>
      <trkpt lat="45.24481" lon="6.04857">
        <ele>2177.5</ele>
        <time>2013-05-04T09:46:56Z</time>
      </trkpt>
      <trkpt lat="45.24484" lon="6.04848">
        <ele>2175.4</ele>
        <time>2013-05-04T09:46:59Z</time>
      </trkpt>
      <trkpt lat="45.24488" lon="6.04837">
        <ele>2173.9</ele>
        <time>2013-05-04T09:47:04Z</time>
      </trkpt>
      <trkpt lat="45.24495" lon="6.04829">
        <ele>2171.5</ele>
        <time>2013-05-04T09:49:40Z</time>
      </trkpt>
      <trkpt lat="45.24495" lon="6.04829">
        <ele>2171.9</ele>
        <time>2013-05-04T09:49:41Z</time>
      </trkpt>
      <trkpt lat="45.24486" lon="6.04829">
        <ele>2171.1</ele>
        <time>2013-05-04T09:52:45Z</time>
      </trkpt>
      <trkpt lat="45.24478" lon="6.04814">
        <ele>2176.7</ele>
        <time>2013-05-04T09:53:28Z</time>
      </trkpt>
      <trkpt lat="45.2447" lon="6.0481">
        <ele>2180.4</ele>
        <time>2013-05-04T09:53:44Z</time>
      </trkpt>
      <trkpt lat="45.24467" lon="6.04799">
        <ele>2185</ele>
        <time>2013-05-04T09:54:02Z</time>
      </trkpt>
      <trkpt lat="45.24467" lon="6.04798">
        <ele>2185.2</ele>
        <time>2013-05-04T09:54:03Z</time>
      </trkpt>
      <trkpt lat="45.24462" lon="6.04775">
        <ele>2191.7</ele>
        <time>2013-05-04T09:54:57Z</time>
      </trkpt>
      <trkpt lat="45.24463" lon="6.04763">
        <ele>2195</ele>
        <time>2013-05-04T09:55:19Z</time>
      </trkpt>
      <trkpt lat="45.24462" lon="6.04762">
        <ele>2195.1</ele>
        <time>2013-05-04T09:55:20Z</time>
      </trkpt>
      <trkpt lat="45.24458" lon="6.04747">
        <ele>2200.5</ele>
        <time>2013-05-04T09:56:01Z</time>
      </trkpt>
      <trkpt lat="45.24458" lon="6.04735">
        <ele>2206.7</ele>
        <time>2013-05-04T09:56:55Z</time>
      </trkpt>
      <trkpt lat="45.24457" lon="6.04734">
        <ele>2206.7</ele>
        <time>2013-05-04T09:56:56Z</time>
      </trkpt>
      <trkpt lat="45.24447" lon="6.04716">
        <ele>2211.8</ele>
        <time>2013-05-04T09:57:22Z</time>
      </trkpt>
      <trkpt lat="45.24451" lon="6.04706">
        <ele>2216.8</ele>
        <time>2013-05-04T09:58:53Z</time>
      </trkpt>
      <trkpt lat="45.24451" lon="6.04705">
        <ele>2217</ele>
        <time>2013-05-04T09:58:54Z</time>
      </trkpt>
      <trkpt lat="45.24455" lon="6.04691">
        <ele>2224.6</ele>
        <time>2013-05-04T09:59:57Z</time>
      </trkpt>
      <trkpt lat="45.24456" lon="6.04692">
        <ele>2224.9</ele>
        <time>2013-05-04T09:59:58Z</time>
      </trkpt>
      <trkpt lat="45.24472" lon="6.04698">
        <ele>2229</ele>
        <time>2013-05-04T10:00:37Z</time>
      </trkpt>
      <trkpt lat="45.24468" lon="6.04687">
        <ele>2233.3</ele>
        <time>2013-05-04T10:01:12Z</time>
      </trkpt>
      <trkpt lat="45.24467" lon="6.04686">
        <ele>2233.3</ele>
        <time>2013-05-04T10:01:13Z</time>
      </trkpt>
      <trkpt lat="45.24468" lon="6.04668">
        <ele>2239.9</ele>
        <time>2013-05-04T10:02:14Z</time>
      </trkpt>
      <trkpt lat="45.24469" lon="6.04668">
        <ele>2240.1</ele>
        <time>2013-05-04T10:02:15Z</time>
      </trkpt>
      <trkpt lat="45.24485" lon="6.04668">
        <ele>2243.6</ele>
        <time>2013-05-04T10:02:37Z</time>
      </trkpt>
      <trkpt lat="45.24493" lon="6.04667">
        <ele>2246</ele>
        <time>2013-05-04T10:02:48Z</time>
      </trkpt>
      <trkpt lat="45.24488" lon="6.04657">
        <ele>2248.6</ele>
        <time>2013-05-04T10:03:33Z</time>
      </trkpt>
      <trkpt lat="45.24487" lon="6.04656">
        <ele>2248.9</ele>
        <time>2013-05-04T10:03:34Z</time>
      </trkpt>
      <trkpt lat="45.24473" lon="6.04644">
        <ele>2251.7</ele>
        <time>2013-05-04T10:03:54Z</time>
      </trkpt>
      <trkpt lat="45.24468" lon="6.04634">
        <ele>2253.9</ele>
        <time>2013-05-04T10:04:07Z</time>
      </trkpt>
      <trkpt lat="45.24463" lon="6.04624">
        <ele>2256.3</ele>
        <time>2013-05-04T10:04:46Z</time>
      </trkpt>
      <trkpt lat="45.24462" lon="6.04624">
        <ele>2256.4</ele>
        <time>2013-05-04T10:04:47Z</time>
      </trkpt>
      <trkpt lat="45.24448" lon="6.04612">
        <ele>2260.6</ele>
        <time>2013-05-04T10:05:12Z</time>
      </trkpt>
      <trkpt lat="45.24439" lon="6.04608">
        <ele>2265.4</ele>
        <time>2013-05-04T10:14:45Z</time>
      </trkpt>
      <trkpt lat="45.24439" lon="6.04608">
        <ele>2264.9</ele>
        <time>2013-05-04T10:14:46Z</time>
      </trkpt>
      <trkpt lat="45.24448" lon="6.04604">
        <ele>2258</ele>
        <time>2013-05-04T10:15:49Z</time>
      </trkpt>
      <trkpt lat="45.24449" lon="6.04605">
        <ele>2257.8</ele>
        <time>2013-05-04T10:15:50Z</time>
      </trkpt>
      <trkpt lat="45.2446" lon="6.0462">
        <ele>2257.4</ele>
        <time>2013-05-04T10:15:59Z</time>
      </trkpt>
      <trkpt lat="45.24466" lon="6.04613">
        <ele>2250.2</ele>
        <time>2013-05-04T10:16:07Z</time>
      </trkpt>
      <trkpt lat="45.24474" lon="6.04614">
        <ele>2244.7</ele>
        <time>2013-05-04T10:16:12Z</time>
      </trkpt>
      <trkpt lat="45.24482" lon="6.04614">
        <ele>2239.8</ele>
        <time>2013-05-04T10:16:16Z</time>
      </trkpt>
      <trkpt lat="45.2449" lon="6.04614">
        <ele>2234.2</ele>
        <time>2013-05-04T10:16:21Z</time>
      </trkpt>
      <trkpt lat="45.24496" lon="6.04608">
        <ele>2230.1</ele>
        <time>2013-05-04T10:16:24Z</time>
      </trkpt>
      <trkpt lat="45.24502" lon="6.04604">
        <ele>2226.9</ele>
        <time>2013-05-04T10:16:26Z</time>
      </trkpt>
      <trkpt lat="45.24506" lon="6.04599">
        <ele>2225.9</ele>
        <time>2013-05-04T10:16:27Z</time>
      </trkpt>
      <trkpt lat="45.24512" lon="6.04597">
        <ele>2223.8</ele>
        <time>2013-05-04T10:16:28Z</time>
      </trkpt>
      <trkpt lat="45.24517" lon="6.046">
        <ele>2222.3</ele>
        <time>2013-05-04T10:16:29Z</time>
      </trkpt>
      <trkpt lat="45.24522" lon="6.04607">
        <ele>2220.5</ele>
        <time>2013-05-04T10:16:30Z</time>
      </trkpt>
      <trkpt lat="45.24527" lon="6.04615">
        <ele>2219.2</ele>
        <time>2013-05-04T10:16:31Z</time>
      </trkpt>
      <trkpt lat="45.2453" lon="6.04624">
        <ele>2217.1</ele>
        <time>2013-05-04T10:16:32Z</time>
      </trkpt>
      <trkpt lat="45.24533" lon="6.04631">
        <ele>2215.5</ele>
        <time>2013-05-04T10:16:33Z</time>
      </trkpt>
      <trkpt lat="45.24537" lon="6.04638">
        <ele>2213</ele>
        <time>2013-05-04T10:16:35Z</time>
      </trkpt>
      <trkpt lat="45.24544" lon="6.04646">
        <ele>2209.1</ele>
        <time>2013-05-04T10:16:39Z</time>
      </trkpt>
      <trkpt lat="45.2455" lon="6.04651">
        <ele>2206</ele>
        <time>2013-05-04T10:17:10Z</time>
      </trkpt>
      <trkpt lat="45.24552" lon="6.04652">
        <ele>2205.8</ele>
        <time>2013-05-04T10:17:11Z</time>
      </trkpt>
      <trkpt lat="45.24565" lon="6.04646">
        <ele>2201.8</ele>
        <time>2013-05-04T10:17:16Z</time>
      </trkpt>
      <trkpt lat="45.24571" lon="6.04647">
        <ele>2198.4</ele>
        <time>2013-05-04T10:17:18Z</time>
      </trkpt>
      <trkpt lat="45.24577" lon="6.04641">
        <ele>2195.4</ele>
        <time>2013-05-04T10:17:20Z</time>
      </trkpt>
      <trkpt lat="45.24585" lon="6.04641">
        <ele>2191.7</ele>
        <time>2013-05-04T10:17:22Z</time>
      </trkpt>
      <trkpt lat="45.24592" lon="6.04649">
        <ele>2188.7</ele>
        <time>2013-05-04T10:17:24Z</time>
      </trkpt>
      <trkpt lat="45.24596" lon="6.0464">
        <ele>2185.3</ele>
        <time>2013-05-04T10:17:26Z</time>
      </trkpt>
      <trkpt lat="45.24604" lon="6.04638">
        <ele>2181.8</ele>
        <time>2013-05-04T10:17:28Z</time>
      </trkpt>
      <trkpt lat="45.24612" lon="6.04635">
        <ele>2176.1</ele>
        <time>2013-05-04T10:17:30Z</time>
      </trkpt>
      <trkpt lat="45.24613" lon="6.04628">
        <ele>2174.3</ele>
        <time>2013-05-04T10:17:31Z</time>
      </trkpt>
      <trkpt lat="45.24615" lon="6.04622">
        <ele>2172</ele>
        <time>2013-05-04T10:17:32Z</time>
      </trkpt>
      <trkpt lat="45.24623" lon="6.04619">
        <ele>2168.4</ele>
        <time>2013-05-04T10:17:34Z</time>
      </trkpt>
      <trkpt lat="45.24629" lon="6.04626">
        <ele>2164.7</ele>
        <time>2013-05-04T10:17:36Z</time>
      </trkpt>
      <trkpt lat="45.24636" lon="6.04619">
        <ele>2153.2</ele>
        <time>2013-05-04T10:18:15Z</time>
      </trkpt>
      <trkpt lat="45.24638" lon="6.04618">
        <ele>2153.1</ele>
        <time>2013-05-04T10:18:16Z</time>
      </trkpt>
      <trkpt lat="45.24647" lon="6.04605">
        <ele>2146.3</ele>
        <time>2013-05-04T10:18:32Z</time>
      </trkpt>
      <trkpt lat="45.24652" lon="6.046">
        <ele>2142.6</ele>
        <time>2013-05-04T10:18:37Z</time>
      </trkpt>
      <trkpt lat="45.24658" lon="6.04598">
        <ele>2140.2</ele>
        <time>2013-05-04T10:18:39Z</time>
      </trkpt>
      <trkpt lat="45.2466" lon="6.04589">
        <ele>2135.6</ele>
        <time>2013-05-04T10:18:42Z</time>
      </trkpt>
      <trkpt lat="45.24665" lon="6.04582">
        <ele>2128.6</ele>
        <time>2013-05-04T10:18:46Z</time>
      </trkpt>
      <trkpt lat="45.24666" lon="6.04573">
        <ele>2125.4</ele>
        <time>2013-05-04T10:18:48Z</time>
      </trkpt>
      <trkpt lat="45.24673" lon="6.04567">
        <ele>2119.4</ele>
        <time>2013-05-04T10:18:51Z</time>
      </trkpt>
      <trkpt lat="45.2468" lon="6.04571">
        <ele>2116.1</ele>
        <time>2013-05-04T10:18:53Z</time>
      </trkpt>
      <trkpt lat="45.2468" lon="6.04561">
        <ele>2105.9</ele>
        <time>2013-05-04T10:19:12Z</time>
      </trkpt>
      <trkpt lat="45.24688" lon="6.0456">
        <ele>2103.5</ele>
        <time>2013-05-04T10:19:15Z</time>
      </trkpt>
      <trkpt lat="45.24693" lon="6.04551">
        <ele>2096.7</ele>
        <time>2013-05-04T10:19:20Z</time>
      </trkpt>
      <trkpt lat="45.24693" lon="6.04545">
        <ele>2095.2</ele>
        <time>2013-05-04T10:19:21Z</time>
      </trkpt>
      <trkpt lat="45.24705" lon="6.04533">
        <ele>2087</ele>
        <time>2013-05-04T10:19:28Z</time>
      </trkpt>
      <trkpt lat="45.2471" lon="6.04539">
        <ele>2083.1</ele>
        <time>2013-05-04T10:19:31Z</time>
      </trkpt>
      <trkpt lat="45.24714" lon="6.04546">
        <ele>2081</ele>
        <time>2013-05-04T10:19:33Z</time>
      </trkpt>
      <trkpt lat="45.24718" lon="6.04555">
        <ele>2078.4</ele>
        <time>2013-05-04T10:19:36Z</time>
      </trkpt>
      <trkpt lat="45.24717" lon="6.04566">
        <ele>2073.6</ele>
        <time>2013-05-04T10:19:59Z</time>
      </trkpt>
      <trkpt lat="45.24721" lon="6.04576">
        <ele>2073.2</ele>
        <time>2013-05-04T10:20:03Z</time>
      </trkpt>
      <trkpt lat="45.24723" lon="6.04584">
        <ele>2071.2</ele>
        <time>2013-05-04T10:20:06Z</time>
      </trkpt>
      <trkpt lat="45.24727" lon="6.04593">
        <ele>2069.9</ele>
        <time>2013-05-04T10:20:08Z</time>
      </trkpt>
      <trkpt lat="45.24729" lon="6.04599">
        <ele>2069.4</ele>
        <time>2013-05-04T10:20:09Z</time>
      </trkpt>
      <trkpt lat="45.24735" lon="6.04608">
        <ele>2068</ele>
        <time>2013-05-04T10:20:11Z</time>
      </trkpt>
      <trkpt lat="45.24741" lon="6.04617">
        <ele>2065.2</ele>
        <time>2013-05-04T10:20:14Z</time>
      </trkpt>
      <trkpt lat="45.24744" lon="6.04607">
        <ele>2061.6</ele>
        <time>2013-05-04T10:20:17Z</time>
      </trkpt>
      <trkpt lat="45.24752" lon="6.04602">
        <ele>2058</ele>
        <time>2013-05-04T10:20:20Z</time>
      </trkpt>
      <trkpt lat="45.24752" lon="6.04592">
        <ele>2054.5</ele>
        <time>2013-05-04T10:20:22Z</time>
      </trkpt>
      <trkpt lat="45.24753" lon="6.04587">
        <ele>2053</ele>
        <time>2013-05-04T10:20:23Z</time>
      </trkpt>
      <trkpt lat="45.24762" lon="6.04581">
        <ele>2045.6</ele>
        <time>2013-05-04T10:20:28Z</time>
      </trkpt>
      <trkpt lat="45.24769" lon="6.04575">
        <ele>2043.4</ele>
        <time>2013-05-04T10:20:30Z</time>
      </trkpt>
      <trkpt lat="45.24774" lon="6.04576">
        <ele>2042.4</ele>
        <time>2013-05-04T10:20:31Z</time>
      </trkpt>
      <trkpt lat="45.24778" lon="6.04569">
        <ele>2038.6</ele>
        <time>2013-05-04T10:20:33Z</time>
      </trkpt>
      <trkpt lat="45.2478" lon="6.04557">
        <ele>2035.4</ele>
        <time>2013-05-04T10:20:35Z</time>
      </trkpt>
      <trkpt lat="45.24788" lon="6.04555">
        <ele>2026.4</ele>
        <time>2013-05-04T10:20:53Z</time>
      </trkpt>
      <trkpt lat="45.24795" lon="6.04547">
        <ele>2023.2</ele>
        <time>2013-05-04T10:22:21Z</time>
      </trkpt>
      <trkpt lat="45.24795" lon="6.04543">
        <ele>2022.9</ele>
        <time>2013-05-04T10:22:22Z</time>
      </trkpt>
      <trkpt lat="45.24808" lon="6.0454">
        <ele>2020.2</ele>
        <time>2013-05-04T10:22:26Z</time>
      </trkpt>
      <trkpt lat="45.2481" lon="6.04531">
        <ele>2018.2</ele>
        <time>2013-05-04T10:22:28Z</time>
      </trkpt>
      <trkpt lat="45.24818" lon="6.04527">
        <ele>2016.8</ele>
        <time>2013-05-04T10:22:30Z</time>
      </trkpt>
      <trkpt lat="45.24825" lon="6.04529">
        <ele>2012.9</ele>
        <time>2013-05-04T10:22:32Z</time>
      </trkpt>
      <trkpt lat="45.24827" lon="6.04517">
        <ele>2009.7</ele>
        <time>2013-05-04T10:22:34Z</time>
      </trkpt>
      <trkpt lat="45.24824" lon="6.04506">
        <ele>2005.9</ele>
        <time>2013-05-04T10:22:36Z</time>
      </trkpt>
      <trkpt lat="45.24827" lon="6.04496">
        <ele>2003.1</ele>
        <time>2013-05-04T10:22:38Z</time>
      </trkpt>
      <trkpt lat="45.24834" lon="6.04491">
        <ele>1999.8</ele>
        <time>2013-05-04T10:22:40Z</time>
      </trkpt>
      <trkpt lat="45.24833" lon="6.04479">
        <ele>1997.1</ele>
        <time>2013-05-04T10:22:42Z</time>
      </trkpt>
      <trkpt lat="45.2483" lon="6.04469">
        <ele>1994.1</ele>
        <time>2013-05-04T10:22:44Z</time>
      </trkpt>
      <trkpt lat="45.24827" lon="6.0446">
        <ele>1991.6</ele>
        <time>2013-05-04T10:22:46Z</time>
      </trkpt>
      <trkpt lat="45.24823" lon="6.04452">
        <ele>1989.2</ele>
        <time>2013-05-04T10:22:48Z</time>
      </trkpt>
      <trkpt lat="45.24817" lon="6.04444">
        <ele>1987.7</ele>
        <time>2013-05-04T10:22:50Z</time>
      </trkpt>
      <trkpt lat="45.24812" lon="6.04435">
        <ele>1986</ele>
        <time>2013-05-04T10:22:52Z</time>
      </trkpt>
      <trkpt lat="45.24808" lon="6.04424">
        <ele>1984.2</ele>
        <time>2013-05-04T10:22:54Z</time>
      </trkpt>
      <trkpt lat="45.24814" lon="6.0442">
        <ele>1983.1</ele>
        <time>2013-05-04T10:22:56Z</time>
      </trkpt>
      <trkpt lat="45.24818" lon="6.04414">
        <ele>1979.7</ele>
        <time>2013-05-04T10:22:58Z</time>
      </trkpt>
      <trkpt lat="45.24823" lon="6.04408">
        <ele>1975.6</ele>
        <time>2013-05-04T10:23:00Z</time>
      </trkpt>
      <trkpt lat="45.24829" lon="6.04401">
        <ele>1970.3</ele>
        <time>2013-05-04T10:23:03Z</time>
      </trkpt>
      <trkpt lat="45.24835" lon="6.04395">
        <ele>1967</ele>
        <time>2013-05-04T10:23:05Z</time>
      </trkpt>
      <trkpt lat="45.24841" lon="6.04387">
        <ele>1957.8</ele>
        <time>2013-05-04T10:23:09Z</time>
      </trkpt>
      <trkpt lat="45.24846" lon="6.04396">
        <ele>1944.9</ele>
        <time>2013-05-04T10:23:21Z</time>
      </trkpt>
      <trkpt lat="45.24846" lon="6.04409">
        <ele>1946.1</ele>
        <time>2013-05-04T10:23:53Z</time>
      </trkpt>
      <trkpt lat="45.24846" lon="6.04409">
        <ele>1945.8</ele>
        <time>2013-05-04T10:23:54Z</time>
      </trkpt>
      <trkpt lat="45.2486" lon="6.04409">
        <ele>1942.8</ele>
        <time>2013-05-04T10:24:05Z</time>
      </trkpt>
      <trkpt lat="45.24866" lon="6.04415">
        <ele>1940.2</ele>
        <time>2013-05-04T10:24:07Z</time>
      </trkpt>
      <trkpt lat="45.24874" lon="6.04413">
        <ele>1935.6</ele>
        <time>2013-05-04T10:24:10Z</time>
      </trkpt>
      <trkpt lat="45.24881" lon="6.0441">
        <ele>1931.5</ele>
        <time>2013-05-04T10:24:13Z</time>
      </trkpt>
      <trkpt lat="45.24886" lon="6.04406">
        <ele>1926.8</ele>
        <time>2013-05-04T10:24:16Z</time>
      </trkpt>
      <trkpt lat="45.24894" lon="6.04405">
        <ele>1922.4</ele>
        <time>2013-05-04T10:24:19Z</time>
      </trkpt>
      <trkpt lat="45.24886" lon="6.04407">
        <ele>1914.5</ele>
        <time>2013-05-04T10:26:17Z</time>
      </trkpt>
      <trkpt lat="45.24885" lon="6.04407">
        <ele>1914.5</ele>
        <time>2013-05-04T10:26:18Z</time>
      </trkpt>
      <trkpt lat="45.24873" lon="6.0442">
        <ele>1914.2</ele>
        <time>2013-05-04T10:27:02Z</time>
      </trkpt>
      <trkpt lat="45.24867" lon="6.04427">
        <ele>1914.9</ele>
        <time>2013-05-04T10:27:08Z</time>
      </trkpt>
      <trkpt lat="45.24873" lon="6.04433">
        <ele>1914.3</ele>
        <time>2013-05-04T10:27:24Z</time>
      </trkpt>
      <trkpt lat="45.24875" lon="6.04436">
        <ele>1914.1</ele>
        <time>2013-05-04T10:27:25Z</time>
      </trkpt>
      <trkpt lat="45.24885" lon="6.04432">
        <ele>1911</ele>
        <time>2013-05-04T10:27:29Z</time>
      </trkpt>
      <trkpt lat="45.2489" lon="6.04423">
        <ele>1909.3</ele>
        <time>2013-05-04T10:27:31Z</time>
      </trkpt>
      <trkpt lat="45.24898" lon="6.04423">
        <ele>1906.8</ele>
        <time>2013-05-04T10:27:33Z</time>
      </trkpt>
      <trkpt lat="45.24905" lon="6.04415">
        <ele>1903</ele>
        <time>2013-05-04T10:27:35Z</time>
      </trkpt>
      <trkpt lat="45.24911" lon="6.04408">
        <ele>1900.1</ele>
        <time>2013-05-04T10:27:37Z</time>
      </trkpt>
      <trkpt lat="45.24919" lon="6.04411">
        <ele>1896.7</ele>
        <time>2013-05-04T10:27:39Z</time>
      </trkpt>
      <trkpt lat="45.24924" lon="6.0441">
        <ele>1895.2</ele>
        <time>2013-05-04T10:27:40Z</time>
      </trkpt>
      <trkpt lat="45.24928" lon="6.04404">
        <ele>1894</ele>
        <time>2013-05-04T10:27:41Z</time>
      </trkpt>
      <trkpt lat="45.24933" lon="6.04397">
        <ele>1892.6</ele>
        <time>2013-05-04T10:27:42Z</time>
      </trkpt>
      <trkpt lat="45.24939" lon="6.0439">
        <ele>1891.6</ele>
        <time>2013-05-04T10:27:43Z</time>
      </trkpt>
      <trkpt lat="45.24944" lon="6.04385">
        <ele>1889.6</ele>
        <time>2013-05-04T10:27:44Z</time>
      </trkpt>
      <trkpt lat="45.24949" lon="6.04381">
        <ele>1888.1</ele>
        <time>2013-05-04T10:27:45Z</time>
      </trkpt>
      <trkpt lat="45.24954" lon="6.04377">
        <ele>1886.5</ele>
        <time>2013-05-04T10:27:46Z</time>
      </trkpt>
      <trkpt lat="45.24958" lon="6.04372">
        <ele>1885.3</ele>
        <time>2013-05-04T10:27:47Z</time>
      </trkpt>
      <trkpt lat="45.24962" lon="6.04366">
        <ele>1884.4</ele>
        <time>2013-05-04T10:27:48Z</time>
      </trkpt>
      <trkpt lat="45.24966" lon="6.04362">
        <ele>1882.3</ele>
        <time>2013-05-04T10:27:49Z</time>
      </trkpt>
      <trkpt lat="45.2497" lon="6.04359">
        <ele>1880.8</ele>
        <time>2013-05-04T10:27:50Z</time>
      </trkpt>
      <trkpt lat="45.24975" lon="6.04356">
        <ele>1880</ele>
        <time>2013-05-04T10:27:51Z</time>
      </trkpt>
      <trkpt lat="45.2498" lon="6.04355">
        <ele>1879.4</ele>
        <time>2013-05-04T10:27:52Z</time>
      </trkpt>
      <trkpt lat="45.24985" lon="6.04353">
        <ele>1878</ele>
        <time>2013-05-04T10:27:53Z</time>
      </trkpt>
      <trkpt lat="45.24991" lon="6.04352">
        <ele>1877</ele>
        <time>2013-05-04T10:27:54Z</time>
      </trkpt>
      <trkpt lat="45.24997" lon="6.04352">
        <ele>1876.2</ele>
        <time>2013-05-04T10:27:55Z</time>
      </trkpt>
      <trkpt lat="45.25003" lon="6.04351">
        <ele>1874.5</ele>
        <time>2013-05-04T10:27:56Z</time>
      </trkpt>
      <trkpt lat="45.2501" lon="6.0435">
        <ele>1873.3</ele>
        <time>2013-05-04T10:27:57Z</time>
      </trkpt>
      <trkpt lat="45.25017" lon="6.04354">
        <ele>1871</ele>
        <time>2013-05-04T10:27:58Z</time>
      </trkpt>
      <trkpt lat="45.25022" lon="6.04361">
        <ele>1869.3</ele>
        <time>2013-05-04T10:27:59Z</time>
      </trkpt>
      <trkpt lat="45.25027" lon="6.04366">
        <ele>1866.7</ele>
        <time>2013-05-04T10:28:00Z</time>
      </trkpt>
      <trkpt lat="45.25034" lon="6.04366">
        <ele>1864.7</ele>
        <time>2013-05-04T10:28:01Z</time>
      </trkpt>
      <trkpt lat="45.2504" lon="6.04363">
        <ele>1863.3</ele>
        <time>2013-05-04T10:28:02Z</time>
      </trkpt>
      <trkpt lat="45.25046" lon="6.04363">
        <ele>1861.6</ele>
        <time>2013-05-04T10:28:03Z</time>
      </trkpt>
      <trkpt lat="45.25052" lon="6.04367">
        <ele>1860.4</ele>
        <time>2013-05-04T10:28:04Z</time>
      </trkpt>
      <trkpt lat="45.25057" lon="6.04372">
        <ele>1858.2</ele>
        <time>2013-05-04T10:28:05Z</time>
      </trkpt>
      <trkpt lat="45.25063" lon="6.04376">
        <ele>1856.6</ele>
        <time>2013-05-04T10:28:06Z</time>
      </trkpt>
      <trkpt lat="45.2507" lon="6.04379">
        <ele>1855.4</ele>
        <time>2013-05-04T10:28:07Z</time>
      </trkpt>
      <trkpt lat="45.25078" lon="6.0438">
        <ele>1853.2</ele>
        <time>2013-05-04T10:28:08Z</time>
      </trkpt>
      <trkpt lat="45.25087" lon="6.0438">
        <ele>1851.5</ele>
        <time>2013-05-04T10:28:09Z</time>
      </trkpt>
      <trkpt lat="45.25095" lon="6.0438">
        <ele>1849.1</ele>
        <time>2013-05-04T10:28:10Z</time>
      </trkpt>
      <trkpt lat="45.25103" lon="6.04379">
        <ele>1847.3</ele>
        <time>2013-05-04T10:28:11Z</time>
      </trkpt>
      <trkpt lat="45.25111" lon="6.04377">
        <ele>1845.3</ele>
        <time>2013-05-04T10:28:12Z</time>
      </trkpt>
      <trkpt lat="45.25118" lon="6.04374">
        <ele>1843.8</ele>
        <time>2013-05-04T10:28:13Z</time>
      </trkpt>
      <trkpt lat="45.25124" lon="6.0437">
        <ele>1842.7</ele>
        <time>2013-05-04T10:28:14Z</time>
      </trkpt>
      <trkpt lat="45.2513" lon="6.04362">
        <ele>1839.9</ele>
        <time>2013-05-04T10:28:16Z</time>
      </trkpt>
      <trkpt lat="45.25136" lon="6.04367">
        <ele>1835</ele>
        <time>2013-05-04T10:29:00Z</time>
      </trkpt>
      <trkpt lat="45.25139" lon="6.0437">
        <ele>1834.6</ele>
        <time>2013-05-04T10:29:01Z</time>
      </trkpt>
      <trkpt lat="45.25147" lon="6.04379">
        <ele>1833.9</ele>
        <time>2013-05-04T10:29:03Z</time>
      </trkpt>
      <trkpt lat="45.25152" lon="6.04384">
        <ele>1833.7</ele>
        <time>2013-05-04T10:29:04Z</time>
      </trkpt>
      <trkpt lat="45.25161" lon="6.04385">
        <ele>1831.3</ele>
        <time>2013-05-04T10:29:06Z</time>
      </trkpt>
      <trkpt lat="45.2517" lon="6.04387">
        <ele>1828.9</ele>
        <time>2013-05-04T10:29:08Z</time>
      </trkpt>
      <trkpt lat="45.25176" lon="6.04396">
        <ele>1827.5</ele>
        <time>2013-05-04T10:29:10Z</time>
      </trkpt>
      <trkpt lat="45.25183" lon="6.04403">
        <ele>1825.4</ele>
        <time>2013-05-04T10:29:12Z</time>
      </trkpt>
      <trkpt lat="45.25188" lon="6.04403">
        <ele>1824.2</ele>
        <time>2013-05-04T10:29:13Z</time>
      </trkpt>
      <trkpt lat="45.25193" lon="6.04402">
        <ele>1823.1</ele>
        <time>2013-05-04T10:29:14Z</time>
      </trkpt>
      <trkpt lat="45.25198" lon="6.044">
        <ele>1822.3</ele>
        <time>2013-05-04T10:29:15Z</time>
      </trkpt>
      <trkpt lat="45.25204" lon="6.04401">
        <ele>1820.6</ele>
        <time>2013-05-04T10:29:16Z</time>
      </trkpt>
      <trkpt lat="45.25208" lon="6.04405">
        <ele>1819.4</ele>
        <time>2013-05-04T10:29:17Z</time>
      </trkpt>
      <trkpt lat="45.25212" lon="6.04416">
        <ele>1817.2</ele>
        <time>2013-05-04T10:29:19Z</time>
      </trkpt>
      <trkpt lat="45.25217" lon="6.04416">
        <ele>1816.2</ele>
        <time>2013-05-04T10:29:20Z</time>
      </trkpt>
      <trkpt lat="45.25222" lon="6.04418">
        <ele>1815.2</ele>
        <time>2013-05-04T10:29:21Z</time>
      </trkpt>
      <trkpt lat="45.25226" lon="6.04422">
        <ele>1814.5</ele>
        <time>2013-05-04T10:29:22Z</time>
      </trkpt>
      <trkpt lat="45.25228" lon="6.04429">
        <ele>1814</ele>
        <time>2013-05-04T10:29:23Z</time>
      </trkpt>
      <trkpt lat="45.25237" lon="6.04431">
        <ele>1810.2</ele>
        <time>2013-05-04T10:29:25Z</time>
      </trkpt>
      <trkpt lat="45.25242" lon="6.04434">
        <ele>1808.5</ele>
        <time>2013-05-04T10:29:26Z</time>
      </trkpt>
      <trkpt lat="45.25245" lon="6.04439">
        <ele>1807.2</ele>
        <time>2013-05-04T10:29:27Z</time>
      </trkpt>
      <trkpt lat="45.25249" lon="6.04443">
        <ele>1805.1</ele>
        <time>2013-05-04T10:29:28Z</time>
      </trkpt>
      <trkpt lat="45.25254" lon="6.04443">
        <ele>1803.5</ele>
        <time>2013-05-04T10:29:29Z</time>
      </trkpt>
      <trkpt lat="45.25259" lon="6.04445">
        <ele>1802.3</ele>
        <time>2013-05-04T10:29:30Z</time>
      </trkpt>
      <trkpt lat="45.25263" lon="6.0445">
        <ele>1800.2</ele>
        <time>2013-05-04T10:29:31Z</time>
      </trkpt>
      <trkpt lat="45.25266" lon="6.04456">
        <ele>1798.7</ele>
        <time>2013-05-04T10:29:32Z</time>
      </trkpt>
      <trkpt lat="45.2527" lon="6.04459">
        <ele>1796.8</ele>
        <time>2013-05-04T10:29:33Z</time>
      </trkpt>
      <trkpt lat="45.25276" lon="6.0446">
        <ele>1795.4</ele>
        <time>2013-05-04T10:29:34Z</time>
      </trkpt>
      <trkpt lat="45.25281" lon="6.04465">
        <ele>1793.2</ele>
        <time>2013-05-04T10:29:35Z</time>
      </trkpt>
      <trkpt lat="45.25284" lon="6.04471">
        <ele>1791.6</ele>
        <time>2013-05-04T10:29:36Z</time>
      </trkpt>
      <trkpt lat="45.25288" lon="6.04475">
        <ele>1790.4</ele>
        <time>2013-05-04T10:29:37Z</time>
      </trkpt>
      <trkpt lat="45.25293" lon="6.04476">
        <ele>1789.1</ele>
        <time>2013-05-04T10:29:38Z</time>
      </trkpt>
      <trkpt lat="45.25299" lon="6.04477">
        <ele>1788</ele>
        <time>2013-05-04T10:29:39Z</time>
      </trkpt>
      <trkpt lat="45.25304" lon="6.0448">
        <ele>1785.9</ele>
        <time>2013-05-04T10:29:40Z</time>
      </trkpt>
      <trkpt lat="45.25307" lon="6.04485">
        <ele>1784.3</ele>
        <time>2013-05-04T10:29:41Z</time>
      </trkpt>
      <trkpt lat="45.25309" lon="6.04492">
        <ele>1783.1</ele>
        <time>2013-05-04T10:29:42Z</time>
      </trkpt>
      <trkpt lat="45.25313" lon="6.04497">
        <ele>1781.3</ele>
        <time>2013-05-04T10:29:43Z</time>
      </trkpt>
      <trkpt lat="45.25318" lon="6.04499">
        <ele>1779.9</ele>
        <time>2013-05-04T10:29:44Z</time>
      </trkpt>
      <trkpt lat="45.25324" lon="6.04502">
        <ele>1777.8</ele>
        <time>2013-05-04T10:29:45Z</time>
      </trkpt>
      <trkpt lat="45.25329" lon="6.04506">
        <ele>1776.1</ele>
        <time>2013-05-04T10:29:46Z</time>
      </trkpt>
      <trkpt lat="45.25335" lon="6.0451">
        <ele>1774.1</ele>
        <time>2013-05-04T10:29:47Z</time>
      </trkpt>
      <trkpt lat="45.2534" lon="6.04512">
        <ele>1772.5</ele>
        <time>2013-05-04T10:29:48Z</time>
      </trkpt>
      <trkpt lat="45.25346" lon="6.04514">
        <ele>1771.4</ele>
        <time>2013-05-04T10:29:49Z</time>
      </trkpt>
      <trkpt lat="45.25351" lon="6.04515">
        <ele>1769.7</ele>
        <time>2013-05-04T10:29:50Z</time>
      </trkpt>
      <trkpt lat="45.25357" lon="6.04517">
        <ele>1768.5</ele>
        <time>2013-05-04T10:29:51Z</time>
      </trkpt>
      <trkpt lat="45.25362" lon="6.0452">
        <ele>1767.3</ele>
        <time>2013-05-04T10:29:52Z</time>
      </trkpt>
      <trkpt lat="45.25368" lon="6.04522">
        <ele>1766.4</ele>
        <time>2013-05-04T10:29:53Z</time>
      </trkpt>
      <trkpt lat="45.25374" lon="6.04524">
        <ele>1764.5</ele>
        <time>2013-05-04T10:29:54Z</time>
      </trkpt>
      <trkpt lat="45.25379" lon="6.04525">
        <ele>1763.1</ele>
        <time>2013-05-04T10:29:55Z</time>
      </trkpt>
      <trkpt lat="45.25388" lon="6.04524">
        <ele>1757.5</ele>
        <time>2013-05-04T10:30:04Z</time>
      </trkpt>
      <trkpt lat="45.25389" lon="6.04524">
        <ele>1757.6</ele>
        <time>2013-05-04T10:30:05Z</time>
      </trkpt>
      <trkpt lat="45.25399" lon="6.04527">
        <ele>1757.4</ele>
        <time>2013-05-04T10:30:09Z</time>
      </trkpt>
      <trkpt lat="45.25406" lon="6.04529">
        <ele>1756.9</ele>
        <time>2013-05-04T10:30:10Z</time>
      </trkpt>
      <trkpt lat="45.25411" lon="6.04534">
        <ele>1755.6</ele>
        <time>2013-05-04T10:30:11Z</time>
      </trkpt>
      <trkpt lat="45.25412" lon="6.0454">
        <ele>1754.6</ele>
        <time>2013-05-04T10:30:12Z</time>
      </trkpt>
      <trkpt lat="45.25413" lon="6.04547">
        <ele>1753.2</ele>
        <time>2013-05-04T10:30:13Z</time>
      </trkpt>
      <trkpt lat="45.25414" lon="6.04554">
        <ele>1752.1</ele>
        <time>2013-05-04T10:30:14Z</time>
      </trkpt>
      <trkpt lat="45.2542" lon="6.04562">
        <ele>1749.7</ele>
        <time>2013-05-04T10:30:16Z</time>
      </trkpt>
      <trkpt lat="45.25425" lon="6.04561">
        <ele>1748.5</ele>
        <time>2013-05-04T10:30:17Z</time>
      </trkpt>
      <trkpt lat="45.25431" lon="6.04561">
        <ele>1746.7</ele>
        <time>2013-05-04T10:30:18Z</time>
      </trkpt>
      <trkpt lat="45.25436" lon="6.04564">
        <ele>1745.4</ele>
        <time>2013-05-04T10:30:19Z</time>
      </trkpt>
      <trkpt lat="45.2544" lon="6.04569">
        <ele>1744</ele>
        <time>2013-05-04T10:30:20Z</time>
      </trkpt>
      <trkpt lat="45.25441" lon="6.04576">
        <ele>1743</ele>
        <time>2013-05-04T10:30:21Z</time>
      </trkpt>
      <trkpt lat="45.25446" lon="6.04585">
        <ele>1740.1</ele>
        <time>2013-05-04T10:30:23Z</time>
      </trkpt>
      <trkpt lat="45.2545" lon="6.04585">
        <ele>1738.5</ele>
        <time>2013-05-04T10:30:24Z</time>
      </trkpt>
      <trkpt lat="45.25455" lon="6.04586">
        <ele>1736.8</ele>
        <time>2013-05-04T10:30:25Z</time>
      </trkpt>
      <trkpt lat="45.2546" lon="6.04589">
        <ele>1735.5</ele>
        <time>2013-05-04T10:30:26Z</time>
      </trkpt>
      <trkpt lat="45.25462" lon="6.04594">
        <ele>1734.6</ele>
        <time>2013-05-04T10:30:27Z</time>
      </trkpt>
      <trkpt lat="45.25468" lon="6.04604">
        <ele>1731.9</ele>
        <time>2013-05-04T10:30:29Z</time>
      </trkpt>
      <trkpt lat="45.25473" lon="6.04604">
        <ele>1730.4</ele>
        <time>2013-05-04T10:30:30Z</time>
      </trkpt>
      <trkpt lat="45.25478" lon="6.04605">
        <ele>1729.3</ele>
        <time>2013-05-04T10:30:31Z</time>
      </trkpt>
      <trkpt lat="45.25483" lon="6.04609">
        <ele>1727.6</ele>
        <time>2013-05-04T10:30:32Z</time>
      </trkpt>
      <trkpt lat="45.25485" lon="6.04615">
        <ele>1726.2</ele>
        <time>2013-05-04T10:30:33Z</time>
      </trkpt>
      <trkpt lat="45.25486" lon="6.04622">
        <ele>1725.2</ele>
        <time>2013-05-04T10:30:34Z</time>
      </trkpt>
      <trkpt lat="45.25488" lon="6.04629">
        <ele>1723.3</ele>
        <time>2013-05-04T10:30:35Z</time>
      </trkpt>
      <trkpt lat="45.25493" lon="6.04632">
        <ele>1721.8</ele>
        <time>2013-05-04T10:30:36Z</time>
      </trkpt>
      <trkpt lat="45.25498" lon="6.04633">
        <ele>1719.7</ele>
        <time>2013-05-04T10:30:37Z</time>
      </trkpt>
      <trkpt lat="45.25504" lon="6.04633">
        <ele>1718.1</ele>
        <time>2013-05-04T10:30:38Z</time>
      </trkpt>
      <trkpt lat="45.25509" lon="6.04632">
        <ele>1716.9</ele>
        <time>2013-05-04T10:30:39Z</time>
      </trkpt>
      <trkpt lat="45.25515" lon="6.0463">
        <ele>1715.7</ele>
        <time>2013-05-04T10:30:40Z</time>
      </trkpt>
      <trkpt lat="45.2552" lon="6.0463">
        <ele>1714.9</ele>
        <time>2013-05-04T10:30:41Z</time>
      </trkpt>
      <trkpt lat="45.25526" lon="6.04633">
        <ele>1713.4</ele>
        <time>2013-05-04T10:30:42Z</time>
      </trkpt>
      <trkpt lat="45.25529" lon="6.0464">
        <ele>1712.3</ele>
        <time>2013-05-04T10:30:43Z</time>
      </trkpt>
      <trkpt lat="45.2553" lon="6.04649">
        <ele>1710.1</ele>
        <time>2013-05-04T10:30:44Z</time>
      </trkpt>
      <trkpt lat="45.25533" lon="6.04659">
        <ele>1708.5</ele>
        <time>2013-05-04T10:30:45Z</time>
      </trkpt>
      <trkpt lat="45.2554" lon="6.04666">
        <ele>1707.3</ele>
        <time>2013-05-04T10:30:46Z</time>
      </trkpt>
      <trkpt lat="45.25547" lon="6.04673">
        <ele>1704.2</ele>
        <time>2013-05-04T10:30:47Z</time>
      </trkpt>
      <trkpt lat="45.25555" lon="6.04681">
        <ele>1701.8</ele>
        <time>2013-05-04T10:30:48Z</time>
      </trkpt>
      <trkpt lat="45.25563" lon="6.04689">
        <ele>1699.6</ele>
        <time>2013-05-04T10:30:49Z</time>
      </trkpt>
      <trkpt lat="45.25571" lon="6.04698">
        <ele>1698</ele>
        <time>2013-05-04T10:30:50Z</time>
      </trkpt>
      <trkpt lat="45.2558" lon="6.04707">
        <ele>1695.1</ele>
        <time>2013-05-04T10:30:51Z</time>
      </trkpt>
      <trkpt lat="45.25589" lon="6.04716">
        <ele>1692.9</ele>
        <time>2013-05-04T10:30:52Z</time>
      </trkpt>
      <trkpt lat="45.25598" lon="6.04725">
        <ele>1691.2</ele>
        <time>2013-05-04T10:30:53Z</time>
      </trkpt>
      <trkpt lat="45.25608" lon="6.04734">
        <ele>1688.7</ele>
        <time>2013-05-04T10:30:54Z</time>
      </trkpt>
      <trkpt lat="45.25618" lon="6.04744">
        <ele>1686.8</ele>
        <time>2013-05-04T10:30:55Z</time>
      </trkpt>
      <trkpt lat="45.25629" lon="6.04751">
        <ele>1684.1</ele>
        <time>2013-05-04T10:30:56Z</time>
      </trkpt>
      <trkpt lat="45.2564" lon="6.04758">
        <ele>1682.1</ele>
        <time>2013-05-04T10:30:57Z</time>
      </trkpt>
      <trkpt lat="45.2565" lon="6.04762">
        <ele>1678.9</ele>
        <time>2013-05-04T10:30:58Z</time>
      </trkpt>
      <trkpt lat="45.25659" lon="6.04766">
        <ele>1676.6</ele>
        <time>2013-05-04T10:30:59Z</time>
      </trkpt>
      <trkpt lat="45.25668" lon="6.0477">
        <ele>1674.8</ele>
        <time>2013-05-04T10:31:00Z</time>
      </trkpt>
      <trkpt lat="45.25675" lon="6.04773">
        <ele>1673.4</ele>
        <time>2013-05-04T10:31:01Z</time>
      </trkpt>
      <trkpt lat="45.25681" lon="6.04776">
        <ele>1672.4</ele>
        <time>2013-05-04T10:31:02Z</time>
      </trkpt>
      <trkpt lat="45.25686" lon="6.04778">
        <ele>1671.3</ele>
        <time>2013-05-04T10:31:03Z</time>
      </trkpt>
      <trkpt lat="45.25694" lon="6.0478">
        <ele>1669.8</ele>
        <time>2013-05-04T10:31:05Z</time>
      </trkpt>
      <trkpt lat="45.25701" lon="6.04781">
        <ele>1669</ele>
        <time>2013-05-04T10:31:07Z</time>
      </trkpt>
      <trkpt lat="45.25705" lon="6.04782">
        <ele>1668.6</ele>
        <time>2013-05-04T10:31:08Z</time>
      </trkpt>
      <trkpt lat="45.25718" lon="6.04782">
        <ele>1667</ele>
        <time>2013-05-04T10:31:13Z</time>
      </trkpt>
      <trkpt lat="45.25726" lon="6.04779">
        <ele>1666.7</ele>
        <time>2013-05-04T10:31:16Z</time>
      </trkpt>
      <trkpt lat="45.25734" lon="6.04775">
        <ele>1665.8</ele>
        <time>2013-05-04T10:31:19Z</time>
      </trkpt>
      <trkpt lat="45.25743" lon="6.04772">
        <ele>1666.7</ele>
        <time>2013-05-04T10:31:22Z</time>
      </trkpt>
      <trkpt lat="45.2575" lon="6.04772">
        <ele>1666.3</ele>
        <time>2013-05-04T10:31:26Z</time>
      </trkpt>
      <trkpt lat="45.25759" lon="6.04772">
        <ele>1664.9</ele>
        <time>2013-05-04T10:31:30Z</time>
      </trkpt>
      <trkpt lat="45.25767" lon="6.04775">
        <ele>1664.1</ele>
        <time>2013-05-04T10:31:33Z</time>
      </trkpt>
      <trkpt lat="45.25773" lon="6.04777">
        <ele>1664.1</ele>
        <time>2013-05-04T10:31:35Z</time>
      </trkpt>
      <trkpt lat="45.2578" lon="6.04778">
        <ele>1663.5</ele>
        <time>2013-05-04T10:31:37Z</time>
      </trkpt>
      <trkpt lat="45.25787" lon="6.0478">
        <ele>1662.6</ele>
        <time>2013-05-04T10:31:39Z</time>
      </trkpt>
      <trkpt lat="45.25793" lon="6.04781">
        <ele>1662.3</ele>
        <time>2013-05-04T10:31:41Z</time>
      </trkpt>
      <trkpt lat="45.25799" lon="6.04783">
        <ele>1662.3</ele>
        <time>2013-05-04T10:31:43Z</time>
      </trkpt>
      <trkpt lat="45.25807" lon="6.04785">
        <ele>1662.5</ele>
        <time>2013-05-04T10:31:46Z</time>
      </trkpt>
      <trkpt lat="45.25816" lon="6.04788">
        <ele>1661.7</ele>
        <time>2013-05-04T10:31:49Z</time>
      </trkpt>
      <trkpt lat="45.25823" lon="6.04791">
        <ele>1660.9</ele>
        <time>2013-05-04T10:31:52Z</time>
      </trkpt>
      <trkpt lat="45.2583" lon="6.04792">
        <ele>1659.7</ele>
        <time>2013-05-04T10:31:55Z</time>
      </trkpt>
      <trkpt lat="45.25837" lon="6.04792">
        <ele>1659.4</ele>
        <time>2013-05-04T10:31:58Z</time>
      </trkpt>
      <trkpt lat="45.25846" lon="6.04792">
        <ele>1658.8</ele>
        <time>2013-05-04T10:32:01Z</time>
      </trkpt>
      <trkpt lat="45.25854" lon="6.0479">
        <ele>1658.6</ele>
        <time>2013-05-04T10:32:04Z</time>
      </trkpt>
      <trkpt lat="45.25861" lon="6.04785">
        <ele>1657.8</ele>
        <time>2013-05-04T10:32:08Z</time>
      </trkpt>
      <trkpt lat="45.25869" lon="6.04783">
        <ele>1657.3</ele>
        <time>2013-05-04T10:32:10Z</time>
      </trkpt>
      <trkpt lat="45.25873" lon="6.04784">
        <ele>1656.9</ele>
        <time>2013-05-04T10:32:11Z</time>
      </trkpt>
      <trkpt lat="45.25885" lon="6.04788">
        <ele>1655.3</ele>
        <time>2013-05-04T10:32:14Z</time>
      </trkpt>
      <trkpt lat="45.25893" lon="6.04789">
        <ele>1654.7</ele>
        <time>2013-05-04T10:32:16Z</time>
      </trkpt>
      <trkpt lat="45.25901" lon="6.04789">
        <ele>1653.9</ele>
        <time>2013-05-04T10:32:18Z</time>
      </trkpt>
      <trkpt lat="45.25908" lon="6.0479">
        <ele>1653.4</ele>
        <time>2013-05-04T10:32:20Z</time>
      </trkpt>
      <trkpt lat="45.25917" lon="6.04793">
        <ele>1653</ele>
        <time>2013-05-04T10:32:22Z</time>
      </trkpt>
      <trkpt lat="45.25923" lon="6.04797">
        <ele>1652.4</ele>
        <time>2013-05-04T10:32:24Z</time>
      </trkpt>
      <trkpt lat="45.2593" lon="6.048">
        <ele>1651.7</ele>
        <time>2013-05-04T10:32:26Z</time>
      </trkpt>
      <trkpt lat="45.25939" lon="6.04803">
        <ele>1651.2</ele>
        <time>2013-05-04T10:32:28Z</time>
      </trkpt>
      <trkpt lat="45.25947" lon="6.04807">
        <ele>1649.9</ele>
        <time>2013-05-04T10:32:30Z</time>
      </trkpt>
      <trkpt lat="45.25955" lon="6.04812">
        <ele>1649.1</ele>
        <time>2013-05-04T10:32:32Z</time>
      </trkpt>
      <trkpt lat="45.25962" lon="6.04817">
        <ele>1648.1</ele>
        <time>2013-05-04T10:32:34Z</time>
      </trkpt>
      <trkpt lat="45.25969" lon="6.04821">
        <ele>1647.6</ele>
        <time>2013-05-04T10:32:36Z</time>
      </trkpt>
      <trkpt lat="45.25976" lon="6.04824">
        <ele>1647.4</ele>
        <time>2013-05-04T10:32:38Z</time>
      </trkpt>
      <trkpt lat="45.25982" lon="6.04829">
        <ele>1647.3</ele>
        <time>2013-05-04T10:32:40Z</time>
      </trkpt>
      <trkpt lat="45.25988" lon="6.04832">
        <ele>1646.3</ele>
        <time>2013-05-04T10:32:42Z</time>
      </trkpt>
      <trkpt lat="45.25996" lon="6.04835">
        <ele>1644.7</ele>
        <time>2013-05-04T10:32:45Z</time>
      </trkpt>
      <trkpt lat="45.26005" lon="6.04832">
        <ele>1644.1</ele>
        <time>2013-05-04T10:32:48Z</time>
      </trkpt>
      <trkpt lat="45.26012" lon="6.04826">
        <ele>1643.3</ele>
        <time>2013-05-04T10:32:51Z</time>
      </trkpt>
      <trkpt lat="45.26018" lon="6.04818">
        <ele>1642.6</ele>
        <time>2013-05-04T10:32:53Z</time>
      </trkpt>
      <trkpt lat="45.26022" lon="6.04813">
        <ele>1642.4</ele>
        <time>2013-05-04T10:32:54Z</time>
      </trkpt>
      <trkpt lat="45.26026" lon="6.04809">
        <ele>1642</ele>
        <time>2013-05-04T10:32:55Z</time>
      </trkpt>
      <trkpt lat="45.2603" lon="6.04805">
        <ele>1641.7</ele>
        <time>2013-05-04T10:32:56Z</time>
      </trkpt>
      <trkpt lat="45.26035" lon="6.04801">
        <ele>1640.8</ele>
        <time>2013-05-04T10:32:57Z</time>
      </trkpt>
      <trkpt lat="45.2604" lon="6.04799">
        <ele>1640.1</ele>
        <time>2013-05-04T10:32:58Z</time>
      </trkpt>
      <trkpt lat="45.26044" lon="6.04798">
        <ele>1639.3</ele>
        <time>2013-05-04T10:32:59Z</time>
      </trkpt>
      <trkpt lat="45.26049" lon="6.048">
        <ele>1638.7</ele>
        <time>2013-05-04T10:33:00Z</time>
      </trkpt>
      <trkpt lat="45.26054" lon="6.04802">
        <ele>1638.3</ele>
        <time>2013-05-04T10:33:01Z</time>
      </trkpt>
      <trkpt lat="45.2606" lon="6.04805">
        <ele>1637.5</ele>
        <time>2013-05-04T10:33:02Z</time>
      </trkpt>
      <trkpt lat="45.26065" lon="6.04808">
        <ele>1637</ele>
        <time>2013-05-04T10:33:03Z</time>
      </trkpt>
      <trkpt lat="45.26071" lon="6.04813">
        <ele>1636.3</ele>
        <time>2013-05-04T10:33:04Z</time>
      </trkpt>
      <trkpt lat="45.26075" lon="6.04818">
        <ele>1635.9</ele>
        <time>2013-05-04T10:33:05Z</time>
      </trkpt>
      <trkpt lat="45.2608" lon="6.04825">
        <ele>1635.5</ele>
        <time>2013-05-04T10:33:06Z</time>
      </trkpt>
      <trkpt lat="45.26084" lon="6.04832">
        <ele>1634.5</ele>
        <time>2013-05-04T10:33:07Z</time>
      </trkpt>
      <trkpt lat="45.26088" lon="6.0484">
        <ele>1633.7</ele>
        <time>2013-05-04T10:33:08Z</time>
      </trkpt>
      <trkpt lat="45.26093" lon="6.04847">
        <ele>1632.4</ele>
        <time>2013-05-04T10:33:09Z</time>
      </trkpt>
      <trkpt lat="45.26097" lon="6.04855">
        <ele>1631.3</ele>
        <time>2013-05-04T10:33:10Z</time>
      </trkpt>
      <trkpt lat="45.26101" lon="6.04862">
        <ele>1630.1</ele>
        <time>2013-05-04T10:33:11Z</time>
      </trkpt>
      <trkpt lat="45.26104" lon="6.0487">
        <ele>1629.1</ele>
        <time>2013-05-04T10:33:12Z</time>
      </trkpt>
      <trkpt lat="45.26107" lon="6.04877">
        <ele>1628.4</ele>
        <time>2013-05-04T10:33:13Z</time>
      </trkpt>
      <trkpt lat="45.2611" lon="6.04885">
        <ele>1627.6</ele>
        <time>2013-05-04T10:33:14Z</time>
      </trkpt>
      <trkpt lat="45.26112" lon="6.04891">
        <ele>1627</ele>
        <time>2013-05-04T10:33:15Z</time>
      </trkpt>
      <trkpt lat="45.26115" lon="6.04898">
        <ele>1625.7</ele>
        <time>2013-05-04T10:33:16Z</time>
      </trkpt>
      <trkpt lat="45.26118" lon="6.04904">
        <ele>1624.7</ele>
        <time>2013-05-04T10:33:17Z</time>
      </trkpt>
      <trkpt lat="45.26121" lon="6.04911">
        <ele>1624.1</ele>
        <time>2013-05-04T10:33:18Z</time>
      </trkpt>
      <trkpt lat="45.26123" lon="6.04916">
        <ele>1623.6</ele>
        <time>2013-05-04T10:33:19Z</time>
      </trkpt>
      <trkpt lat="45.26129" lon="6.04926">
        <ele>1623</ele>
        <time>2013-05-04T10:33:21Z</time>
      </trkpt>
      <trkpt lat="45.26132" lon="6.04934">
        <ele>1622.1</ele>
        <time>2013-05-04T10:33:23Z</time>
      </trkpt>
      <trkpt lat="45.26136" lon="6.04944">
        <ele>1620.8</ele>
        <time>2013-05-04T10:33:26Z</time>
      </trkpt>
      <trkpt lat="45.26141" lon="6.04952">
        <ele>1620.4</ele>
        <time>2013-05-04T10:33:29Z</time>
      </trkpt>
      <trkpt lat="45.26144" lon="6.04962">
        <ele>1618.8</ele>
        <time>2013-05-04T10:33:32Z</time>
      </trkpt>
      <trkpt lat="45.26149" lon="6.04972">
        <ele>1618.3</ele>
        <time>2013-05-04T10:33:37Z</time>
      </trkpt>
      <trkpt lat="45.26155" lon="6.04981">
        <ele>1619.5</ele>
        <time>2013-05-04T10:33:42Z</time>
      </trkpt>
      <trkpt lat="45.26162" lon="6.04989">
        <ele>1619.8</ele>
        <time>2013-05-04T10:33:48Z</time>
      </trkpt>
      <trkpt lat="45.26169" lon="6.04993">
        <ele>1618.9</ele>
        <time>2013-05-04T10:33:54Z</time>
      </trkpt>
      <trkpt lat="45.26177" lon="6.04997">
        <ele>1618.1</ele>
        <time>2013-05-04T10:33:59Z</time>
      </trkpt>
      <trkpt lat="45.26185" lon="6.04997">
        <ele>1617.7</ele>
        <time>2013-05-04T10:34:03Z</time>
      </trkpt>
      <trkpt lat="45.26192" lon="6.04996">
        <ele>1617.3</ele>
        <time>2013-05-04T10:34:05Z</time>
      </trkpt>
      <trkpt lat="45.262" lon="6.04994">
        <ele>1616.3</ele>
        <time>2013-05-04T10:34:07Z</time>
      </trkpt>
      <trkpt lat="45.26208" lon="6.04995">
        <ele>1614.8</ele>
        <time>2013-05-04T10:34:09Z</time>
      </trkpt>
      <trkpt lat="45.26215" lon="6.04994">
        <ele>1613.3</ele>
        <time>2013-05-04T10:34:11Z</time>
      </trkpt>
      <trkpt lat="45.26223" lon="6.04993">
        <ele>1611.7</ele>
        <time>2013-05-04T10:34:13Z</time>
      </trkpt>
      <trkpt lat="45.26232" lon="6.04995">
        <ele>1610</ele>
        <time>2013-05-04T10:34:15Z</time>
      </trkpt>
      <trkpt lat="45.26236" lon="6.04993">
        <ele>1609.3</ele>
        <time>2013-05-04T10:34:16Z</time>
      </trkpt>
      <trkpt lat="45.26243" lon="6.04989">
        <ele>1607.8</ele>
        <time>2013-05-04T10:34:18Z</time>
      </trkpt>
      <trkpt lat="45.2625" lon="6.04988">
        <ele>1607.1</ele>
        <time>2013-05-04T10:34:19Z</time>
      </trkpt>
      <trkpt lat="45.26256" lon="6.04987">
        <ele>1605.4</ele>
        <time>2013-05-04T10:34:20Z</time>
      </trkpt>
      <trkpt lat="45.26262" lon="6.0499">
        <ele>1604.2</ele>
        <time>2013-05-04T10:34:21Z</time>
      </trkpt>
      <trkpt lat="45.26268" lon="6.04994">
        <ele>1603.2</ele>
        <time>2013-05-04T10:34:22Z</time>
      </trkpt>
      <trkpt lat="45.26275" lon="6.04996">
        <ele>1601.9</ele>
        <time>2013-05-04T10:34:23Z</time>
      </trkpt>
      <trkpt lat="45.26282" lon="6.04996">
        <ele>1600.9</ele>
        <time>2013-05-04T10:34:24Z</time>
      </trkpt>
      <trkpt lat="45.26289" lon="6.04995">
        <ele>1599.5</ele>
        <time>2013-05-04T10:34:25Z</time>
      </trkpt>
      <trkpt lat="45.26297" lon="6.04993">
        <ele>1598.4</ele>
        <time>2013-05-04T10:34:26Z</time>
      </trkpt>
      <trkpt lat="45.26305" lon="6.04992">
        <ele>1596.9</ele>
        <time>2013-05-04T10:34:27Z</time>
      </trkpt>
      <trkpt lat="45.26314" lon="6.04993">
        <ele>1595.8</ele>
        <time>2013-05-04T10:34:28Z</time>
      </trkpt>
      <trkpt lat="45.26321" lon="6.04993">
        <ele>1595</ele>
        <time>2013-05-04T10:34:29Z</time>
      </trkpt>
      <trkpt lat="45.26327" lon="6.04992">
        <ele>1593.7</ele>
        <time>2013-05-04T10:34:30Z</time>
      </trkpt>
      <trkpt lat="45.26334" lon="6.04992">
        <ele>1592.8</ele>
        <time>2013-05-04T10:34:31Z</time>
      </trkpt>
      <trkpt lat="45.26339" lon="6.04992">
        <ele>1591.7</ele>
        <time>2013-05-04T10:34:32Z</time>
      </trkpt>
      <trkpt lat="45.26345" lon="6.04991">
        <ele>1590.9</ele>
        <time>2013-05-04T10:34:33Z</time>
      </trkpt>
      <trkpt lat="45.2635" lon="6.04989">
        <ele>1589.9</ele>
        <time>2013-05-04T10:34:34Z</time>
      </trkpt>
      <trkpt lat="45.26356" lon="6.04988">
        <ele>1589.2</ele>
        <time>2013-05-04T10:34:35Z</time>
      </trkpt>
      <trkpt lat="45.26363" lon="6.04986">
        <ele>1588.6</ele>
        <time>2013-05-04T10:34:36Z</time>
      </trkpt>
      <trkpt lat="45.26369" lon="6.04984">
        <ele>1587.5</ele>
        <time>2013-05-04T10:34:37Z</time>
      </trkpt>
      <trkpt lat="45.26376" lon="6.04983">
        <ele>1586.6</ele>
        <time>2013-05-04T10:34:38Z</time>
      </trkpt>
      <trkpt lat="45.26382" lon="6.04982">
        <ele>1585.3</ele>
        <time>2013-05-04T10:34:39Z</time>
      </trkpt>
      <trkpt lat="45.26389" lon="6.0498">
        <ele>1584.3</ele>
        <time>2013-05-04T10:34:40Z</time>
      </trkpt>
      <trkpt lat="45.26395" lon="6.04978">
        <ele>1583.6</ele>
        <time>2013-05-04T10:34:41Z</time>
      </trkpt>
      <trkpt lat="45.26403" lon="6.04973">
        <ele>1581.6</ele>
        <time>2013-05-04T10:34:44Z</time>
      </trkpt>
      <trkpt lat="45.26409" lon="6.04968">
        <ele>1579.9</ele>
        <time>2013-05-04T10:34:46Z</time>
      </trkpt>
      <trkpt lat="45.26416" lon="6.04964">
        <ele>1579.2</ele>
        <time>2013-05-04T10:34:48Z</time>
      </trkpt>
      <trkpt lat="45.26422" lon="6.04969">
        <ele>1577.4</ele>
        <time>2013-05-04T10:34:50Z</time>
      </trkpt>
      <trkpt lat="45.26429" lon="6.04977">
        <ele>1575.8</ele>
        <time>2013-05-04T10:34:53Z</time>
      </trkpt>
      <trkpt lat="45.26436" lon="6.04982">
        <ele>1574.5</ele>
        <time>2013-05-04T10:34:57Z</time>
      </trkpt>
      <trkpt lat="45.26445" lon="6.04985">
        <ele>1573.9</ele>
        <time>2013-05-04T10:35:02Z</time>
      </trkpt>
      <trkpt lat="45.26453" lon="6.04985">
        <ele>1573.1</ele>
        <time>2013-05-04T10:35:10Z</time>
      </trkpt>
      <trkpt lat="45.26461" lon="6.0499">
        <ele>1573.2</ele>
        <time>2013-05-04T10:35:25Z</time>
      </trkpt>
      <trkpt lat="45.26462" lon="6.04991">
        <ele>1573.3</ele>
        <time>2013-05-04T10:35:26Z</time>
      </trkpt>
      <trkpt lat="45.26474" lon="6.05006">
        <ele>1572.8</ele>
        <time>2013-05-04T10:36:28Z</time>
      </trkpt>
      <trkpt lat="45.26475" lon="6.05006">
        <ele>1572.8</ele>
        <time>2013-05-04T10:36:29Z</time>
      </trkpt>
      <trkpt lat="45.26489" lon="6.05011">
        <ele>1572.8</ele>
        <time>2013-05-04T10:36:39Z</time>
      </trkpt>
      <trkpt lat="45.26496" lon="6.0501">
        <ele>1573.1</ele>
        <time>2013-05-04T10:36:42Z</time>
      </trkpt>
      <trkpt lat="45.26504" lon="6.05008">
        <ele>1572.1</ele>
        <time>2013-05-04T10:36:46Z</time>
      </trkpt>
      <trkpt lat="45.26513" lon="6.05006">
        <ele>1571.6</ele>
        <time>2013-05-04T10:36:49Z</time>
      </trkpt>
      <trkpt lat="45.2652" lon="6.05005">
        <ele>1571.2</ele>
        <time>2013-05-04T10:36:51Z</time>
      </trkpt>
      <trkpt lat="45.26528" lon="6.05005">
        <ele>1569.9</ele>
        <time>2013-05-04T10:36:53Z</time>
      </trkpt>
      <trkpt lat="45.26534" lon="6.05005">
        <ele>1569</ele>
        <time>2013-05-04T10:36:55Z</time>
      </trkpt>
      <trkpt lat="45.26541" lon="6.05003">
        <ele>1567.9</ele>
        <time>2013-05-04T10:36:57Z</time>
      </trkpt>
      <trkpt lat="45.26548" lon="6.04999">
        <ele>1565.7</ele>
        <time>2013-05-04T10:37:01Z</time>
      </trkpt>
      <trkpt lat="45.26556" lon="6.05002">
        <ele>1564.2</ele>
        <time>2013-05-04T10:37:04Z</time>
      </trkpt>
      <trkpt lat="45.26563" lon="6.0501">
        <ele>1560.7</ele>
        <time>2013-05-04T10:37:14Z</time>
      </trkpt>
      <trkpt lat="45.26571" lon="6.05006">
        <ele>1561.7</ele>
        <time>2013-05-04T10:37:36Z</time>
      </trkpt>
      <trkpt lat="45.26571" lon="6.05005">
        <ele>1561.5</ele>
        <time>2013-05-04T10:37:37Z</time>
      </trkpt>
      <trkpt lat="45.26573" lon="6.05019">
        <ele>1560.6</ele>
        <time>2013-05-04T10:38:48Z</time>
      </trkpt>
      <trkpt lat="45.26581" lon="6.05036">
        <ele>1558.3</ele>
        <time>2013-05-04T10:38:57Z</time>
      </trkpt>
      <trkpt lat="45.26587" lon="6.05044">
        <ele>1558</ele>
        <time>2013-05-04T10:39:02Z</time>
      </trkpt>
      <trkpt lat="45.26594" lon="6.05051">
        <ele>1556.9</ele>
        <time>2013-05-04T10:39:07Z</time>
      </trkpt>
      <trkpt lat="45.26601" lon="6.05056">
        <ele>1555.5</ele>
        <time>2013-05-04T10:39:12Z</time>
      </trkpt>
      <trkpt lat="45.26609" lon="6.05062">
        <ele>1554.4</ele>
        <time>2013-05-04T10:39:18Z</time>
      </trkpt>
      <trkpt lat="45.26616" lon="6.05067">
        <ele>1552.7</ele>
        <time>2013-05-04T10:39:24Z</time>
      </trkpt>
      <trkpt lat="45.26623" lon="6.05073">
        <ele>1551.7</ele>
        <time>2013-05-04T10:39:30Z</time>
      </trkpt>
      <trkpt lat="45.26631" lon="6.05078">
        <ele>1549.4</ele>
        <time>2013-05-04T10:39:38Z</time>
      </trkpt>
      <trkpt lat="45.26638" lon="6.05082">
        <ele>1546.8</ele>
        <time>2013-05-04T10:39:47Z</time>
      </trkpt>
      <trkpt lat="45.26645" lon="6.05086">
        <ele>1546.3</ele>
        <time>2013-05-04T10:40:49Z</time>
      </trkpt>
      <trkpt lat="45.26646" lon="6.05091">
        <ele>1546.6</ele>
        <time>2013-05-04T10:40:50Z</time>
      </trkpt>
      <trkpt lat="45.26654" lon="6.05102">
        <ele>1544.7</ele>
        <time>2013-05-04T10:40:53Z</time>
      </trkpt>
      <trkpt lat="45.26659" lon="6.05112">
        <ele>1543.1</ele>
        <time>2013-05-04T10:40:55Z</time>
      </trkpt>
      <trkpt lat="45.26664" lon="6.05114">
        <ele>1542.6</ele>
        <time>2013-05-04T10:40:56Z</time>
      </trkpt>
      <trkpt lat="45.26671" lon="6.0512">
        <ele>1541.2</ele>
        <time>2013-05-04T10:40:58Z</time>
      </trkpt>
      <trkpt lat="45.26674" lon="6.05128">
        <ele>1539.2</ele>
        <time>2013-05-04T10:41:00Z</time>
      </trkpt>
      <trkpt lat="45.26679" lon="6.05136">
        <ele>1536.5</ele>
        <time>2013-05-04T10:41:02Z</time>
      </trkpt>
      <trkpt lat="45.26683" lon="6.05147">
        <ele>1534.1</ele>
        <time>2013-05-04T10:41:04Z</time>
      </trkpt>
      <trkpt lat="45.2669" lon="6.05154">
        <ele>1530.9</ele>
        <time>2013-05-04T10:41:06Z</time>
      </trkpt>
      <trkpt lat="45.26694" lon="6.0516">
        <ele>1529.4</ele>
        <time>2013-05-04T10:41:07Z</time>
      </trkpt>
      <trkpt lat="45.26699" lon="6.05165">
        <ele>1527</ele>
        <time>2013-05-04T10:41:08Z</time>
      </trkpt>
      <trkpt lat="45.26706" lon="6.05169">
        <ele>1525.3</ele>
        <time>2013-05-04T10:41:09Z</time>
      </trkpt>
      <trkpt lat="45.26712" lon="6.05173">
        <ele>1524</ele>
        <time>2013-05-04T10:41:10Z</time>
      </trkpt>
      <trkpt lat="45.26719" lon="6.05176">
        <ele>1522.3</ele>
        <time>2013-05-04T10:41:11Z</time>
      </trkpt>
      <trkpt lat="45.26727" lon="6.05177">
        <ele>1521</ele>
        <time>2013-05-04T10:41:12Z</time>
      </trkpt>
      <trkpt lat="45.26734" lon="6.05177">
        <ele>1519.8</ele>
        <time>2013-05-04T10:41:13Z</time>
      </trkpt>
      <trkpt lat="45.26741" lon="6.05177">
        <ele>1518.8</ele>
        <time>2013-05-04T10:41:14Z</time>
      </trkpt>
      <trkpt lat="45.26747" lon="6.05178">
        <ele>1518.1</ele>
        <time>2013-05-04T10:41:15Z</time>
      </trkpt>
      <trkpt lat="45.26753" lon="6.05177">
        <ele>1516.6</ele>
        <time>2013-05-04T10:41:16Z</time>
      </trkpt>
      <trkpt lat="45.26757" lon="6.05177">
        <ele>1515.5</ele>
        <time>2013-05-04T10:41:17Z</time>
      </trkpt>
      <trkpt lat="45.26762" lon="6.05177">
        <ele>1514.7</ele>
        <time>2013-05-04T10:41:18Z</time>
      </trkpt>
      <trkpt lat="45.2677" lon="6.05176">
        <ele>1513.1</ele>
        <time>2013-05-04T10:41:20Z</time>
      </trkpt>
      <trkpt lat="45.26779" lon="6.05175">
        <ele>1510.5</ele>
        <time>2013-05-04T10:41:24Z</time>
      </trkpt>
      <trkpt lat="45.26782" lon="6.05187">
        <ele>1509.3</ele>
        <time>2013-05-04T10:41:48Z</time>
      </trkpt>
      <trkpt lat="45.26787" lon="6.05197">
        <ele>1508.7</ele>
        <time>2013-05-04T10:42:07Z</time>
      </trkpt>
      <trkpt lat="45.26788" lon="6.05198">
        <ele>1508.4</ele>
        <time>2013-05-04T10:42:08Z</time>
      </trkpt>
      <trkpt lat="45.26803" lon="6.05199">
        <ele>1505.8</ele>
        <time>2013-05-04T10:42:19Z</time>
      </trkpt>
      <trkpt lat="45.26811" lon="6.05201">
        <ele>1504.7</ele>
        <time>2013-05-04T10:42:25Z</time>
      </trkpt>
      <trkpt lat="45.26817" lon="6.05208">
        <ele>1503.7</ele>
        <time>2013-05-04T10:42:30Z</time>
      </trkpt>
      <trkpt lat="45.26824" lon="6.05212">
        <ele>1502.4</ele>
        <time>2013-05-04T10:42:35Z</time>
      </trkpt>
      <trkpt lat="45.26833" lon="6.05215">
        <ele>1501.4</ele>
        <time>2013-05-04T10:42:40Z</time>
      </trkpt>
      <trkpt lat="45.2684" lon="6.05222">
        <ele>1500.2</ele>
        <time>2013-05-04T10:42:46Z</time>
      </trkpt>
      <trkpt lat="45.26847" lon="6.05229">
        <ele>1499.7</ele>
        <time>2013-05-04T10:42:52Z</time>
      </trkpt>
      <trkpt lat="45.26854" lon="6.05236">
        <ele>1498.6</ele>
        <time>2013-05-04T10:42:58Z</time>
      </trkpt>
      <trkpt lat="45.26861" lon="6.05241">
        <ele>1497.1</ele>
        <time>2013-05-04T10:43:03Z</time>
      </trkpt>
      <trkpt lat="45.26869" lon="6.05236">
        <ele>1494.5</ele>
        <time>2013-05-04T10:43:20Z</time>
      </trkpt>
      <trkpt lat="45.26869" lon="6.05235">
        <ele>1494.3</ele>
        <time>2013-05-04T10:43:21Z</time>
      </trkpt>
      <trkpt lat="45.2688" lon="6.05247">
        <ele>1493.2</ele>
        <time>2013-05-04T10:44:22Z</time>
      </trkpt>
      <trkpt lat="45.26884" lon="6.05249">
        <ele>1492.6</ele>
        <time>2013-05-04T10:44:23Z</time>
      </trkpt>
      <trkpt lat="45.26896" lon="6.05253">
        <ele>1490.9</ele>
        <time>2013-05-04T10:44:26Z</time>
      </trkpt>
      <trkpt lat="45.26904" lon="6.05255">
        <ele>1489.7</ele>
        <time>2013-05-04T10:44:28Z</time>
      </trkpt>
      <trkpt lat="45.26908" lon="6.05257">
        <ele>1489.1</ele>
        <time>2013-05-04T10:44:29Z</time>
      </trkpt>
      <trkpt lat="45.26913" lon="6.05259">
        <ele>1487.8</ele>
        <time>2013-05-04T10:44:30Z</time>
      </trkpt>
      <trkpt lat="45.26919" lon="6.05261">
        <ele>1486.9</ele>
        <time>2013-05-04T10:44:31Z</time>
      </trkpt>
      <trkpt lat="45.26925" lon="6.05262">
        <ele>1486.2</ele>
        <time>2013-05-04T10:44:32Z</time>
      </trkpt>
      <trkpt lat="45.26931" lon="6.05266">
        <ele>1485.2</ele>
        <time>2013-05-04T10:44:33Z</time>
      </trkpt>
      <trkpt lat="45.26937" lon="6.05271">
        <ele>1484.4</ele>
        <time>2013-05-04T10:44:34Z</time>
      </trkpt>
      <trkpt lat="45.26943" lon="6.05276">
        <ele>1483.4</ele>
        <time>2013-05-04T10:44:35Z</time>
      </trkpt>
      <trkpt lat="45.26948" lon="6.05283">
        <ele>1482.7</ele>
        <time>2013-05-04T10:44:36Z</time>
      </trkpt>
      <trkpt lat="45.26953" lon="6.05289">
        <ele>1481.9</ele>
        <time>2013-05-04T10:44:37Z</time>
      </trkpt>
      <trkpt lat="45.26958" lon="6.05294">
        <ele>1481.3</ele>
        <time>2013-05-04T10:44:38Z</time>
      </trkpt>
      <trkpt lat="45.26963" lon="6.05299">
        <ele>1480.9</ele>
        <time>2013-05-04T10:44:39Z</time>
      </trkpt>
      <trkpt lat="45.26967" lon="6.05304">
        <ele>1479.9</ele>
        <time>2013-05-04T10:44:40Z</time>
      </trkpt>
      <trkpt lat="45.26971" lon="6.05308">
        <ele>1479.1</ele>
        <time>2013-05-04T10:44:41Z</time>
      </trkpt>
      <trkpt lat="45.26975" lon="6.05312">
        <ele>1478.5</ele>
        <time>2013-05-04T10:44:42Z</time>
      </trkpt>
      <trkpt lat="45.26979" lon="6.05316">
        <ele>1478</ele>
        <time>2013-05-04T10:44:43Z</time>
      </trkpt>
      <trkpt lat="45.26983" lon="6.05321">
        <ele>1477.5</ele>
        <time>2013-05-04T10:44:44Z</time>
      </trkpt>
      <trkpt lat="45.26989" lon="6.0533">
        <ele>1476.9</ele>
        <time>2013-05-04T10:44:46Z</time>
      </trkpt>
      <trkpt lat="45.26995" lon="6.05336">
        <ele>1476</ele>
        <time>2013-05-04T10:44:48Z</time>
      </trkpt>
      <trkpt lat="45.27" lon="6.05342">
        <ele>1475.6</ele>
        <time>2013-05-04T10:44:50Z</time>
      </trkpt>
      <trkpt lat="45.27005" lon="6.05349">
        <ele>1475.3</ele>
        <time>2013-05-04T10:44:52Z</time>
      </trkpt>
      <trkpt lat="45.2701" lon="6.05359">
        <ele>1473.2</ele>
        <time>2013-05-04T10:45:52Z</time>
      </trkpt>
      <trkpt lat="45.2701" lon="6.0536">
        <ele>1473.1</ele>
        <time>2013-05-04T10:45:53Z</time>
      </trkpt>
      <trkpt lat="45.27017" lon="6.0537">
        <ele>1471.6</ele>
        <time>2013-05-04T10:49:59Z</time>
      </trkpt>
      <trkpt lat="45.27019" lon="6.05392">
        <ele>1470</ele>
        <time>2013-05-04T10:50:12Z</time>
      </trkpt>
      <trkpt lat="45.27019" lon="6.05404">
        <ele>1468.5</ele>
        <time>2013-05-04T10:50:19Z</time>
      </trkpt>
      <trkpt lat="45.27019" lon="6.05416">
        <ele>1466.2</ele>
        <time>2013-05-04T10:50:26Z</time>
      </trkpt>
      <trkpt lat="45.27019" lon="6.05429">
        <ele>1465</ele>
        <time>2013-05-04T10:50:34Z</time>
      </trkpt>
      <trkpt lat="45.2702" lon="6.05441">
        <ele>1463.1</ele>
        <time>2013-05-04T10:50:41Z</time>
      </trkpt>
      <trkpt lat="45.27021" lon="6.05452">
        <ele>1461</ele>
        <time>2013-05-04T10:50:47Z</time>
      </trkpt>
      <trkpt lat="45.27024" lon="6.05463">
        <ele>1459.2</ele>
        <time>2013-05-04T10:50:53Z</time>
      </trkpt>
      <trkpt lat="45.27026" lon="6.05475">
        <ele>1458.1</ele>
        <time>2013-05-04T10:51:00Z</time>
      </trkpt>
      <trkpt lat="45.27026" lon="6.05477">
        <ele>1458.1</ele>
        <time>2013-05-04T10:51:01Z</time>
      </trkpt>
      <trkpt lat="45.27031" lon="6.05499">
        <ele>1456</ele>
        <time>2013-05-04T10:51:17Z</time>
      </trkpt>
      <trkpt lat="45.27036" lon="6.05509">
        <ele>1453.9</ele>
        <time>2013-05-04T10:51:26Z</time>
      </trkpt>
      <trkpt lat="45.27044" lon="6.05503">
        <ele>1453.3</ele>
        <time>2013-05-04T10:52:40Z</time>
      </trkpt>
      <trkpt lat="45.27045" lon="6.05503">
        <ele>1453.5</ele>
        <time>2013-05-04T10:52:41Z</time>
      </trkpt>
      <trkpt lat="45.27059" lon="6.05509">
        <ele>1453.6</ele>
        <time>2013-05-04T10:52:55Z</time>
      </trkpt>
      <trkpt lat="45.27067" lon="6.05512">
        <ele>1453.2</ele>
        <time>2013-05-04T10:53:02Z</time>
      </trkpt>
      <trkpt lat="45.27075" lon="6.05514">
        <ele>1452.1</ele>
        <time>2013-05-04T10:53:09Z</time>
      </trkpt>
      <trkpt lat="45.27084" lon="6.05515">
        <ele>1452.7</ele>
        <time>2013-05-04T10:53:16Z</time>
      </trkpt>
      <trkpt lat="45.27093" lon="6.05513">
        <ele>1453.1</ele>
        <time>2013-05-04T10:53:23Z</time>
      </trkpt>
      <trkpt lat="45.27102" lon="6.05511">
        <ele>1453.1</ele>
        <time>2013-05-04T10:53:31Z</time>
      </trkpt>
      <trkpt lat="45.2711" lon="6.05509">
        <ele>1452.9</ele>
        <time>2013-05-04T10:53:39Z</time>
      </trkpt>
      <trkpt lat="45.27114" lon="6.0552">
        <ele>1452.7</ele>
        <time>2013-05-04T11:06:52Z</time>
      </trkpt>
      <trkpt lat="45.27114" lon="6.0552">
        <ele>1452.5</ele>
        <time>2013-05-04T11:06:53Z</time>
      </trkpt>
      <trkpt lat="45.27118" lon="6.05508">
        <ele>1451.5</ele>
        <time>2013-05-04T11:10:19Z</time>
      </trkpt>
      <trkpt lat="45.27121" lon="6.0551">
        <ele>1451.8</ele>
        <time>2013-05-04T11:10:20Z</time>
      </trkpt>
      <trkpt lat="45.27127" lon="6.05525">
        <ele>1451.3</ele>
        <time>2013-05-04T11:10:24Z</time>
      </trkpt>
      <trkpt lat="45.2713" lon="6.05529">
        <ele>1451.5</ele>
        <time>2013-05-04T11:10:25Z</time>
      </trkpt>
      <trkpt lat="45.27134" lon="6.05533">
        <ele>1451.6</ele>
        <time>2013-05-04T11:10:26Z</time>
      </trkpt>
      <trkpt lat="45.2714" lon="6.05535">
        <ele>1451.5</ele>
        <time>2013-05-04T11:10:27Z</time>
      </trkpt>
      <trkpt lat="45.27146" lon="6.05537">
        <ele>1451.5</ele>
        <time>2013-05-04T11:10:28Z</time>
      </trkpt>
      <trkpt lat="45.27152" lon="6.05539">
        <ele>1451.2</ele>
        <time>2013-05-04T11:10:29Z</time>
      </trkpt>
      <trkpt lat="45.27159" lon="6.05542">
        <ele>1451.1</ele>
        <time>2013-05-04T11:10:30Z</time>
      </trkpt>
      <trkpt lat="45.27167" lon="6.05544">
        <ele>1450.9</ele>
        <time>2013-05-04T11:10:31Z</time>
      </trkpt>
      <trkpt lat="45.27175" lon="6.05547">
        <ele>1450.9</ele>
        <time>2013-05-04T11:10:32Z</time>
      </trkpt>
      <trkpt lat="45.27182" lon="6.0555">
        <ele>1450.8</ele>
        <time>2013-05-04T11:10:33Z</time>
      </trkpt>
      <trkpt lat="45.2719" lon="6.05554">
        <ele>1450.8</ele>
        <time>2013-05-04T11:10:34Z</time>
      </trkpt>
    </trkseg>
  </trk>
</gpx>